Provisional Data: Choconut Creek near Vestal Center, NY


Please select a monitoring station.
Please select start date.
Please select start date.

Toggle Unit: C/F Toggle Unit: C/F
Sample Time Temperature (C) Temperature (F) Specific Conductivity (mS/cm) pH   Turbidity (NTU+) DO (mg/L)
6/22/2021 12:00:00 AM 22.73 72.914 0.098 6.91 7.47 7.1
6/22/2021 12:15:00 AM 22.66 72.788 0.104 6.87 7.6 7.09
6/22/2021 12:30:00 AM 22.6 72.68 0.099 6.89 7.5 7.08
6/22/2021 12:45:00 AM 22.54 72.57201 0.103 6.87 8.01 7.06
6/22/2021 1:00:00 AM 22.48 72.464 0.101 6.86 7.87 7.06
6/22/2021 1:15:00 AM 22.42 72.356 0.104 6.86 7.77 7.05
6/22/2021 1:30:00 AM 22.35 72.23 0.1 6.86 7.81 7.04
6/22/2021 1:45:00 AM 22.29 72.122 0.104 6.85 7.64 7.03
6/22/2021 2:00:00 AM 22.22 71.996 0.114 6.84 8.4 7.03
6/22/2021 2:15:00 AM 22.15 71.87 0.104 6.84 7.56 7.04
6/22/2021 2:30:00 AM 22.06 71.708 0.101 6.84 8.82 7.05
6/22/2021 2:45:00 AM 21.96 71.528 0.1 6.83 8.8 7.05
6/22/2021 3:00:00 AM 21.85 71.33 0.103 6.83 10.05 7.06
6/22/2021 3:15:00 AM 21.74 71.132 0.101 6.83 8.44 7.07
6/22/2021 3:30:00 AM 21.67 71.006 0.102 6.84 8.03 7.07
6/22/2021 3:45:00 AM 21.58 70.844 0.101 6.83 8.63 7.08
6/22/2021 4:00:00 AM 21.5 70.7 0.1 6.83 8.68 7.09
6/22/2021 4:15:00 AM 21.41 70.538 0.105 6.83 9.13 7.1
6/22/2021 4:30:00 AM 21.34 70.412 0.104 6.83 9.16 7.1
6/22/2021 4:45:00 AM 21.26 70.268 0.101 6.83 9.46 7.12
6/22/2021 5:00:00 AM 21.17 70.106 0.102 6.83 9.67 7.13
6/22/2021 5:15:00 AM 21.08 69.944 0.105 6.83 8.85 7.15
6/22/2021 5:30:00 AM 21 69.8 0.097 6.83 9.31 7.16
6/22/2021 5:45:00 AM 20.92 69.656 0.103 6.83 8.78 7.18
6/22/2021 6:00:00 AM 20.83 69.494 0.099 6.84 8.15 7.19
6/22/2021 6:15:00 AM 20.76 69.368 0.103 6.83 8.4 7.23
6/22/2021 6:30:00 AM 20.69 69.242 0.103 6.84 8.03 7.27
6/22/2021 6:45:00 AM 20.61 69.098 0.101 6.84 8.16 7.31
6/22/2021 7:00:00 AM 20.54 68.972 0.098 6.84 8.02 7.33
6/22/2021 7:15:00 AM 20.48 68.864 0.105 6.87 8.15 7.38
6/22/2021 7:30:00 AM 20.41 68.738 0.096 6.86 8.34 7.43
6/22/2021 7:45:00 AM 20.34 68.612 0.114 6.87 8.34 7.47
6/22/2021 8:00:00 AM 20.27 68.486 0.099 6.87 7.9 7.5
6/22/2021 8:15:00 AM 20.2 68.36 0.102 6.87 8.31 7.54
6/22/2021 8:30:00 AM 20.16 68.288 0.099 6.89 9.13 7.59
6/22/2021 8:45:00 AM 20.1 68.18 0.103 6.89 8.66 7.63
6/22/2021 9:00:00 AM 20.06 68.108 0.097 6.9 8.18 7.69
6/22/2021 9:15:00 AM 20.01 68.018 0.101 6.91 9.22 7.75
6/22/2021 9:30:00 AM 19.97 67.946 0.113 6.92 7.57 7.84
6/22/2021 9:45:00 AM 19.93 67.874 0.103 6.93 7.95 7.93
6/22/2021 10:00:00 AM 19.9 67.82 0.1 6.94 7.88 8.02
6/22/2021 10:15:00 AM 19.86 67.748 0.102 6.97 7.59 8.09
6/22/2021 10:30:00 AM 19.83 67.694 0.112 6.96 7.36 8.12
6/22/2021 10:45:00 AM 19.79 67.622 0.101 6.97 7.5 8.16
6/22/2021 11:00:00 AM 19.75 67.55 0.099 6.97 7.47 8.18
6/22/2021 11:15:00 AM 19.75 67.55 0.095 7.01 7.46 8.29
6/22/2021 11:30:00 AM 19.74 67.532 0.102 7 7.35 8.36
6/22/2021 11:45:00 AM 19.73 67.514 0.098 7.01 7.29 8.45
6/22/2021 12:00:00 PM 19.72 67.496 0.101 7.03 7.79 8.54
6/22/2021 12:15:00 PM 19.73 67.514 0.099 7.05 7.17 8.63
6/22/2021 12:30:00 PM 19.69 67.442 0.097 7.05 7.11 8.65
6/22/2021 12:45:00 PM 19.65 67.37 0.102 7.06 6.9 8.7
6/22/2021 1:00:00 PM 19.61 67.298 0.099 7.06 6.69 8.69
6/22/2021 1:15:00 PM 19.57 67.226 0.096 7.06 6.89 8.74
6/22/2021 1:30:00 PM 19.61 67.298 0.101 7.1 6.94 8.85
6/22/2021 1:45:00 PM 19.58 67.244 0.095 7.1 6.59 8.87
6/22/2021 2:00:00 PM 19.54 67.172 0.098 7.1 6.63 8.91
6/22/2021 2:15:00 PM 19.53 67.154 0.096 7.12 7.09 8.96
6/22/2021 2:30:00 PM 19.47 67.046 0.093 7.14 6.54 8.92
6/22/2021 2:45:00 PM 19.37 66.866 0.101 7.12 6.54 8.87
6/22/2021 3:00:00 PM 19.36 66.848 0.096 7.12 6.4 8.95
6/22/2021 3:15:00 PM 19.29 66.722 0.101 7.1 6.37 8.91
6/22/2021 3:30:00 PM 19.23 66.614 0.099 7.1 6.3 8.9
6/22/2021 3:45:00 PM 19.19 66.542 0.099 7.1 6.35 8.9
6/22/2021 4:00:00 PM 19.16 66.488 0.099 7.11 6.38 8.95
6/22/2021 4:15:00 PM 19.12 66.416 0.099 7.11 5.8 8.97
6/22/2021 4:30:00 PM 19.12 66.416 0.095 7.16 6.25 9.07
6/22/2021 4:45:00 PM 19.1 66.38 0.102 7.14 6.36 9.06
6/22/2021 5:00:00 PM 19.02 66.236 0.111 7.13 5.9 8.98
6/22/2021 5:15:00 PM 18.93 66.074 0.101 7.11 5.9 8.91
6/22/2021 5:30:00 PM 18.88 65.984 0.098 7.11 5.95 8.96
6/22/2021 5:45:00 PM 18.89 66.002 0.099 7.15 5.81 9.06
6/22/2021 6:00:00 PM 18.84 65.912 0.099 7.14 5.98 9.09
6/22/2021 6:15:00 PM 18.84 65.912 0.092 7.16 6.1 9.11
6/22/2021 6:30:00 PM 18.81 65.858 0.097 7.17 5.79 9.14
6/22/2021 6:45:00 PM 18.77 65.786 0.11 7.17 5.96 9.15
6/22/2021 7:00:00 PM 18.7 65.66 0.095 7.16 6.18 9.1
6/22/2021 7:15:00 PM 18.63 65.534 0.095 7.13 5.68 9.06
6/22/2021 7:30:00 PM 18.55 65.39 0.098 7.13 6.26 9.01
6/22/2021 7:45:00 PM 18.48 65.264 0.109 7.11 5.63 8.98
6/22/2021 8:00:00 PM 18.4 65.12 0.107 7.12 8.46 8.93
6/22/2021 8:15:00 PM 18.33 64.994 0.099 7.08 11.42 8.89
6/22/2021 8:30:00 PM 18.25 64.85 0.094 7.07 8.41 8.85
6/22/2021 8:45:00 PM 18.16 64.688 0.095 7.05 7.08 8.79
6/22/2021 9:00:00 PM 18.07 64.526 0.097 7.03 6.72 8.74
6/22/2021 9:15:00 PM 17.97 64.346 0.092 7.02 6.69 8.69
6/22/2021 9:30:00 PM 17.88 64.184 0.092 7 6.91 8.66
6/22/2021 9:45:00 PM 17.78 64.004 0.092 7 7.48 8.63
6/22/2021 10:00:00 PM 17.67 63.806 0.111 6.99 8.42 8.6
6/22/2021 10:15:00 PM 17.56 63.608 0.092 6.98 8.62 8.58
6/22/2021 10:30:00 PM 17.45 63.41 0.096 6.97 8.05 8.55
6/22/2021 10:45:00 PM 17.34 63.212 0.091 6.96 8.26 8.53
6/22/2021 11:00:00 PM 17.24 63.032 0.094 6.95 7.65 8.52
6/22/2021 11:15:00 PM 17.13 62.834 0.095 6.94 7.57 8.51
6/22/2021 11:30:00 PM 17.02 62.636 0.091 6.93 7.87 8.5
6/22/2021 11:45:00 PM 16.92 62.456 0.097 6.93 7.74 8.5
6/23/2021 12:00:00 AM 16.81 62.258 0.092 6.92 7.66 8.5
6/23/2021 12:15:00 AM 16.72 62.096 0.094 6.91 8.22 8.5
6/23/2021 12:30:00 AM 16.61 61.898 0.095 6.92 8.15 8.5
6/23/2021 12:45:00 AM 16.53 61.754 0.094 6.91 7.93 8.51
6/23/2021 1:00:00 AM 16.43 61.574 0.099 6.94 8.05 8.52
6/23/2021 1:15:00 AM 16.33 61.394 0.094 6.91 8.13 8.53
6/23/2021 1:30:00 AM 16.23 61.214 0.097 6.92 7.54 8.54
6/23/2021 1:45:00 AM 16.13 61.034 0.095 6.9 7.53 8.55
6/23/2021 2:00:00 AM 16.04 60.872 0.092 6.89 8.44 8.56
6/23/2021 2:15:00 AM 15.95 60.71 0.091 6.94 7.72 8.57
6/23/2021 2:30:00 AM 15.85 60.53 0.093 6.9 7.9 8.59
6/23/2021 2:45:00 AM 15.77 60.386 0.092 6.9 7.93 8.59
6/23/2021 3:00:00 AM 15.67 60.206 0.094 6.89 7.65 8.6
6/23/2021 3:15:00 AM 15.57 60.026 0.094 6.88 7.76 8.62
6/23/2021 3:30:00 AM 15.47 59.846 0.102 6.88 7.56 8.63
6/23/2021 3:45:00 AM 15.38 59.684 0.098 6.9 8.1 8.64
6/23/2021 4:00:00 AM 15.28 59.504 0.105 6.88 8.42 8.66
6/23/2021 4:15:00 AM 15.19 59.342 0.096 6.87 8.8 8.68
6/23/2021 4:30:00 AM 15.1 59.18 0.094 6.88 7.92 8.69
6/23/2021 4:45:00 AM 15.01 59.018 0.095 6.88 8.33 8.7
6/23/2021 5:00:00 AM 14.92 58.856 0.093 6.88 7.47 8.72
6/23/2021 5:15:00 AM 14.82 58.676 0.106 6.87 7.93 8.74
6/23/2021 5:30:00 AM 14.74 58.532 0.091 6.86 7.3 8.76
6/23/2021 5:45:00 AM 14.65 58.37 0.106 6.87 7.31 8.78
6/23/2021 6:00:00 AM 14.57 58.226 0.1 6.87 7.49 8.82
6/23/2021 6:15:00 AM 14.49 58.082 0.097 6.92 6.73 8.86
6/23/2021 6:30:00 AM 14.42 57.956 0.111 6.89 6.93 8.9
6/23/2021 6:45:00 AM 14.36 57.848 0.094 6.9 6.72 8.94
6/23/2021 7:00:00 AM 14.31 57.758 0.095 6.9 7.34 9
6/23/2021 7:15:00 AM 14.29 57.722 0.095 6.91 7.1 9.07
6/23/2021 7:30:00 AM 14.27 57.686 0.106 6.93 7.39 9.13
6/23/2021 7:45:00 AM 14.28 57.704 0.095 6.97 6.7 9.19
6/23/2021 8:00:00 AM 14.33 57.794 0.095 6.96 7.19 9.27
6/23/2021 8:15:00 AM 14.35 57.83 0.106 6.97 6.48 9.33
6/23/2021 8:30:00 AM 14.36 57.848 0.099 6.98 6.68 9.38
6/23/2021 8:45:00 AM 14.41 57.938 0.091 7.04 6.32 9.43
6/23/2021 9:00:00 AM 14.48 58.064 0.097 7.01 6.67 9.47
6/23/2021 9:15:00 AM 14.62 58.316 0.098 7.02 6.95 9.52
6/23/2021 9:30:00 AM 14.79 58.622 0.097 7.08 6.15 9.58
6/23/2021 9:45:00 AM 14.75 58.55 0.099 7.01 6.53 9.62
6/23/2021 10:00:00 AM 15.06 59.108 0.095 7.09 6.67 9.71
6/23/2021 10:15:00 AM 15.19 59.342 0.1 7.07 6.38 9.73
6/23/2021 10:30:00 AM 15.25 59.45 0.095 7.06 6.3 9.74
6/23/2021 10:45:00 AM 15.38 59.684 0.1 7.1 6.03 9.79
6/23/2021 11:00:00 AM 15.36 59.648 0.098 7.06 6.11 9.79
6/23/2021 11:15:00 AM 15.42 59.756 0.112 7.08 5.73 9.82
6/23/2021 11:30:00 AM 15.79 60.422 0.096 7.14 6.04 9.9
6/23/2021 11:45:00 AM 15.84 60.512 0.099 7.11 6.06 9.91
6/23/2021 12:00:00 PM 16.1 60.98 0.092 7.14 5.58 9.94
6/23/2021 12:15:00 PM 16.22 61.196 0.095 7.13 6.53 9.95
6/23/2021 12:30:00 PM 16.68 62.024 0.096 7.19 6.04 10.01
6/23/2021 12:45:00 PM 16.73 62.114 0.096 7.15 5.78 9.99
6/23/2021 1:00:00 PM 17.01 62.618 0.098 7.2 5.4 10.01
6/23/2021 1:15:00 PM 17.24 63.032 0.102 7.2 5.29 9.99
6/23/2021 1:30:00 PM 17.66 63.788 0.098 7.24 5.51 10.03
6/23/2021 1:45:00 PM 17.88 64.184 0.097 7.24 5.53 10.03
6/23/2021 2:00:00 PM 18.05 64.49 0.097 7.23 5.32 9.98
6/23/2021 2:15:00 PM 18.47 65.246 0.095 7.27 5.36 9.97
6/23/2021 2:30:00 PM 18.78 65.804 0.112 7.27 5.65 9.97
6/23/2021 2:45:00 PM 18.99 66.182 0.097 7.28 5.57 9.94
6/23/2021 3:00:00 PM 19.12 66.416 0.101 7.27 5.23 9.89
6/23/2021 3:15:00 PM 19.35 66.83 0.094 7.29 5.37 9.89
6/23/2021 3:30:00 PM 19.58 67.244 0.1 7.29 5.59 9.89
6/23/2021 3:45:00 PM 19.78 67.604 0.097 7.31 5.5 9.89
6/23/2021 4:00:00 PM 19.99 67.982 0.094 7.32 5.16 9.88
6/23/2021 4:15:00 PM 20.13 68.234 0.099 7.31 5.14 9.84
6/23/2021 4:30:00 PM 20.27 68.486 0.095 7.32 5.85 9.82
6/23/2021 4:45:00 PM 20.28 68.504 0.112 7.19 5.38 9.76
6/23/2021 5:00:00 PM 20.27 68.486 0.097 7.28 5.17 9.7
6/23/2021 5:15:00 PM 20.32 68.576 0.102 7.28 4.98 9.71
6/23/2021 5:30:00 PM 20.36 68.648 0.095 7.28 5.71 9.69
6/23/2021 5:45:00 PM 20.34 68.612 0.1 7.27 5.44 9.66
6/23/2021 6:00:00 PM 20.31 68.558 0.099 7.26 4.93 9.6
6/23/2021 6:15:00 PM 20.25 68.45 0.101 7.24 5.3 9.55
6/23/2021 6:30:00 PM 20.19 68.342 0.099 7.22 5.26 9.5
6/23/2021 6:45:00 PM 20.1 68.18 0.095 7.2 5.64 9.41
6/23/2021 7:00:00 PM 19.98 67.964 0.1 7.16 5.43 9.32
6/23/2021 7:15:00 PM 19.85 67.73 0.096 7.14 5.77 9.23
6/23/2021 7:30:00 PM 19.74 67.532 0.099 7.12 5.69 9.14
6/23/2021 7:45:00 PM 19.62 67.316 0.094 7.09 6 9.07
6/23/2021 8:00:00 PM 19.49 67.082 0.099 7.07 5.47 8.99
6/23/2021 8:15:00 PM 19.36 66.848 0.095 7.05 5.52 8.92
6/23/2021 8:30:00 PM 19.23 66.614 0.099 7.04 5.61 8.86
6/23/2021 8:45:00 PM 19.09 66.362 0.099 7.01 5.97 8.79
6/23/2021 9:00:00 PM 18.97 66.146 0.1 6.94 5.79 8.73
6/23/2021 9:15:00 PM 18.84 65.912 0.099 6.98 6.97 8.66
6/23/2021 9:30:00 PM 18.73 65.714 0.094 6.97 6.7 8.61
6/23/2021 9:45:00 PM 18.62 65.516 0.1 6.96 8.6 8.56
6/23/2021 10:00:00 PM 18.52 65.336 0.096 6.95 7.32 8.51
6/23/2021 10:15:00 PM 18.42 65.156 0.1 6.95 6.72 8.49
6/23/2021 10:30:00 PM 18.33 64.994 0.098 6.93 8.1 8.45
6/23/2021 10:45:00 PM 18.24 64.832 0.102 6.92 7.54 8.42
6/23/2021 11:00:00 PM 18.15 64.67 0.099 6.93 7.16 8.39
6/23/2021 11:15:00 PM 18.06 64.508 0.096 6.92 7.97 8.36
6/23/2021 11:30:00 PM 17.97 64.346 0.103 6.92 7.16 8.34
6/23/2021 11:45:00 PM 17.88 64.184 0.097 6.92 7.22 8.33
6/24/2021 12:00:00 AM 17.8 64.04 0.103 6.9 7.72 8.32
6/24/2021 12:15:00 AM 17.71 63.878 0.099 6.91 7.25 8.3
6/24/2021 12:30:00 AM 17.62 63.716 0.1 6.9 7.23 8.3
6/24/2021 12:45:00 AM 17.53 63.554 0.097 6.89 7.44 8.29
6/24/2021 1:00:00 AM 17.43 63.374 0.095 6.89 6.96 8.29
6/24/2021 1:15:00 AM 17.35 63.23 0.102 6.89 7.5 8.29
6/24/2021 1:30:00 AM 17.27 63.086 0.101 6.88 8.68 8.29
6/24/2021 1:45:00 AM 17.17 62.906 0.099 6.88 6.83 8.29
6/24/2021 2:00:00 AM 17.09 62.762 0.104 6.88 7.3 8.3
6/24/2021 2:15:00 AM 17 62.6 0.098 6.88 7.41 8.31
6/24/2021 2:30:00 AM 16.92 62.456 0.102 6.88 7.93 8.32
6/24/2021 2:45:00 AM 16.84 62.312 0.097 6.88 7.79 8.32
6/24/2021 3:00:00 AM 16.76 62.168 0.095 6.86 7.3 8.32
6/24/2021 3:15:00 AM 16.67 62.006 0.103 6.87 7.52 8.33
6/24/2021 3:30:00 AM 16.58 61.844 0.102 6.86 7.8 8.34
6/24/2021 3:45:00 AM 16.49 61.682 0.098 6.86 8.41 8.35
6/24/2021 4:00:00 AM 16.4 61.52 0.104 6.87 8.76 8.37
6/24/2021 4:15:00 AM 16.31 61.358 0.096 6.87 8.05 8.37
6/24/2021 4:30:00 AM 16.23 61.214 0.103 6.86 7.73 8.39
6/24/2021 4:45:00 AM 16.16 61.088 0.101 6.86 7.7 8.39
6/24/2021 5:00:00 AM 16.07 60.926 0.097 6.85 7.3 8.4
6/24/2021 5:15:00 AM 16 60.8 0.097 6.85 8.03 8.41
6/24/2021 5:30:00 AM 15.91 60.638 0.095 6.85 7.44 8.43
6/24/2021 5:45:00 AM 15.82 60.476 0.103 6.84 7.31 8.46
6/24/2021 6:00:00 AM 15.74 60.332 0.102 6.88 6.78 8.49
6/24/2021 6:15:00 AM 15.67 60.206 0.1 6.86 7.59 8.53
6/24/2021 6:30:00 AM 15.6 60.08 0.096 6.86 7.21 8.57
6/24/2021 6:45:00 AM 15.55 59.99 0.099 6.89 7.42 8.61
6/24/2021 7:00:00 AM 15.5 59.9 0.098 6.88 7.44 8.67
6/24/2021 7:15:00 AM 15.49 59.882 0.098 6.89 11.85 8.75
6/24/2021 7:30:00 AM 15.48 59.864 0.096 6.91 6.73 8.83
6/24/2021 7:45:00 AM 15.48 59.864 0.098 6.92 6.79 8.88
6/24/2021 8:00:00 AM 15.49 59.882 0.099 6.93 7.22 8.93
6/24/2021 8:15:00 AM 15.52 59.936 0.101 6.94 6.68 8.99
6/24/2021 8:30:00 AM 15.56 60.008 0.099 6.97 6.34 9.02
6/24/2021 8:45:00 AM 15.62 60.116 0.096 7 6.03 9.09
6/24/2021 9:00:00 AM 15.71 60.278 0.103 6.99 6.25 9.16
6/24/2021 9:15:00 AM 15.89 60.602 0.104 7.02 6.06 9.24
6/24/2021 9:30:00 AM 16.1 60.98 0.119 7.04 5.8 9.3
6/24/2021 9:45:00 AM 16.26 61.268 0.102 7.04 6.2 9.35
6/24/2021 10:00:00 AM 16.44 61.592 0.098 7.05 5.96 9.42
6/24/2021 10:15:00 AM 16.59 61.862 0.103 7.06 6.13 9.47
6/24/2021 10:30:00 AM 16.76 62.168 0.12 7.07 8.1 9.5
6/24/2021 10:45:00 AM 16.9 62.42 0.102 7.08 5.87 9.54
6/24/2021 11:00:00 AM 17.05 62.69 0.097 7.09 5.78 9.57
6/24/2021 11:15:00 AM 17.26 63.068 0.096 7.11 5.91 9.6
6/24/2021 11:30:00 AM 17.47 63.446 0.105 7.13 6.18 9.65
6/24/2021 11:45:00 AM 17.69 63.842 0.099 7.14 5.77 9.67
6/24/2021 12:00:00 PM 17.92 64.256 0.104 7.15 5.91 9.7
6/24/2021 12:15:00 PM 18.19 64.742 0.103 7.17 5.6 9.74
6/24/2021 12:30:00 PM 18.5 65.3 0.1 7.19 5.96 9.77
6/24/2021 12:45:00 PM 18.81 65.858 0.1 7.21 5.57 9.8
6/24/2021 1:00:00 PM 19.15 66.47 0.1 7.2 5.78 9.81
6/24/2021 1:15:00 PM 19.5 67.1 0.099 7.25 5.57 9.84
6/24/2021 1:30:00 PM 19.85 67.73 0.098 7.26 5.54 9.84
6/24/2021 1:45:00 PM 20.17 68.306 0.1 7.28 5.73 9.84
6/24/2021 2:00:00 PM 20.59 69.062 0.098 7.3 5.8 9.81
6/24/2021 2:15:00 PM 20.92 69.656 0.105 7.31 5.9 9.8
6/24/2021 2:30:00 PM 21.25 70.25 0.099 7.32 6.01 9.79
6/24/2021 2:45:00 PM 21.53 70.754 0.105 7.33 5.69 9.76
6/24/2021 3:00:00 PM 21.81 71.258 0.118 7.34 5.7 9.75
6/24/2021 3:15:00 PM 22.07 71.726 0.105 7.35 5.53 9.74
6/24/2021 3:30:00 PM 22.26 72.068 0.101 7.37 5.23 9.65
6/24/2021 3:45:00 PM 22.42 72.356 0.107 7.37 5.51 9.68
6/24/2021 4:00:00 PM 22.56 72.608 0.101 7.36 5.42 9.64
6/24/2021 4:15:00 PM 22.68 72.824 0.106 7.37 5.74 9.59
6/24/2021 4:30:00 PM 22.76 72.968 0.102 7.36 5.45 9.53
6/24/2021 4:45:00 PM 22.82 73.076 0.106 7.34 5.44 9.49
6/24/2021 5:00:00 PM 22.85 73.13 0.104 7.33 6.11 9.45
6/24/2021 5:15:00 PM 22.82 73.076 0.105 7.32 5.27 9.41
6/24/2021 5:30:00 PM 22.79 73.022 0.102 7.31 5.43 9.34
6/24/2021 5:45:00 PM 22.74 72.932 0.104 7.31 5.59 9.33
6/24/2021 6:00:00 PM 22.61 72.698 0.104 7.26 5.31 9.24
6/24/2021 6:15:00 PM 22.46 72.42799 0.101 7.21 5.54 9.15
6/24/2021 6:30:00 PM 22.3 72.14 0.107 7.22 5.64 9.09
6/24/2021 6:45:00 PM 22.12 71.816 0.105 7.16 5.44 8.99
6/24/2021 7:00:00 PM 21.91 71.438 0.106 7.13 6 8.88
6/24/2021 7:15:00 PM 21.75 71.15 0.104 7.09 5.38 8.8
6/24/2021 7:30:00 PM 21.55 70.79 0.102 7.06 5.61 8.7
6/24/2021 7:45:00 PM 21.4 70.52 0.101 7.04 5.47 8.62
6/24/2021 8:00:00 PM 21.21 70.17799 0.101 7.02 5.39 8.52
6/24/2021 8:15:00 PM 21.04 69.872 0.103 7 5.58 8.46
6/24/2021 8:30:00 PM 20.89 69.602 0.099 7.01 5.9 8.39
6/24/2021 8:45:00 PM 20.74 69.332 0.101 6.97 5.72 8.32
6/24/2021 9:00:00 PM 20.58 69.044 0.101 6.96 6.11 8.24
6/24/2021 9:15:00 PM 20.43 68.774 0.101 6.94 5.61 8.19
6/24/2021 9:30:00 PM 20.28 68.504 0.098 6.93 7.68 8.14
6/24/2021 9:45:00 PM 20.15 68.27 0.102 6.92 6.05 8.11
6/24/2021 10:00:00 PM 20.01 68.018 0.107 6.91 6.24 8.07
6/24/2021 10:15:00 PM 19.89 67.802 0.104 6.91 6.91 8.05
6/24/2021 10:30:00 PM 19.77 67.586 0.109 6.91 6.69 8.02
6/24/2021 10:45:00 PM 19.66 67.388 0.107 6.9 7.06 7.99
6/24/2021 11:00:00 PM 19.54 67.172 0.107 6.9 6.81 7.97
6/24/2021 11:15:00 PM 19.44 66.992 0.104 6.89 6.66 7.95
6/24/2021 11:30:00 PM 19.33 66.794 0.102 6.87 7.5 7.91
6/24/2021 11:45:00 PM 19.24 66.632 0.099 6.88 6.67 7.92
6/25/2021 12:00:00 AM 19.13 66.434 0.104 6.87 6.74 7.91
6/25/2021 12:15:00 AM 19.04 66.272 0.105 6.87 7.8 7.9
6/25/2021 12:30:00 AM 18.94 66.092 0.102 6.87 6.54 7.9
6/25/2021 12:45:00 AM 18.85 65.93 0.103 6.87 7.65 7.89
6/25/2021 1:00:00 AM 18.77 65.786 0.109 6.88 7.11 7.89
6/25/2021 1:15:00 AM 18.67 65.606 0.104 6.87 7.05 7.9
6/25/2021 1:30:00 AM 18.59 65.462 0.106 6.9 7.13 7.91
6/25/2021 1:45:00 AM 18.51 65.318 0.104 6.86 7.28 7.92
6/25/2021 2:00:00 AM 18.41 65.138 0.101 6.87 7.31 7.93
6/25/2021 2:15:00 AM 18.32 64.976 0.1 6.87 8.43 7.94
6/25/2021 2:30:00 AM 18.22 64.796 0.098 6.88 7.56 7.96
6/25/2021 2:45:00 AM 18.13 64.634 0.102 6.88 7.45 7.98
6/25/2021 3:00:00 AM 18.05 64.49 0.1 6.86 7.78 8.01
6/25/2021 3:15:00 AM 17.97 64.346 0.102 6.87 8.14 8.04
6/25/2021 3:30:00 AM 17.89 64.202 0.102 6.88 7.92 8.05
6/25/2021 3:45:00 AM 17.81 64.058 0.099 6.87 8.03 8.06
6/25/2021 4:00:00 AM 17.73 63.914 0.1 6.87 9.5 8.07
6/25/2021 4:15:00 AM 17.65 63.77 0.1 6.88 7.91 8.08
6/25/2021 4:30:00 AM 17.57 63.626 0.101 6.87 8.96 8.08
6/25/2021 4:45:00 AM 17.49 63.482 0.1 6.88 9.48 8.09
6/25/2021 5:00:00 AM 17.41 63.338 0.097 6.87 8.13 8.11
6/25/2021 5:15:00 AM 17.33 63.194 0.1 6.87 8.54 8.13
6/25/2021 5:30:00 AM 17.25 63.05 0.104 6.88 9.03 8.15
6/25/2021 5:45:00 AM 17.17 62.906 0.097 6.87 7.49 8.17
6/25/2021 6:00:00 AM 17.09 62.762 0.104 6.87 7.64 8.21
6/25/2021 6:15:00 AM 17.02 62.636 0.099 6.88 8 8.25
6/25/2021 6:30:00 AM 16.94 62.492 0.101 6.89 6.94 8.31
6/25/2021 6:45:00 AM 16.88 62.384 0.097 6.92 7.36 8.36
6/25/2021 7:00:00 AM 16.85 62.33 0.094 6.94 6.7 8.42
6/25/2021 7:15:00 AM 16.82 62.276 0.097 6.92 6.88 8.52
6/25/2021 7:30:00 AM 16.8 62.24 0.102 6.94 6.68 8.59
6/25/2021 7:45:00 AM 16.8 62.24 0.096 6.95 6.53 8.67
6/25/2021 8:00:00 AM 16.81 62.258 0.102 6.94 6.52 8.75
6/25/2021 8:15:00 AM 16.82 62.276 0.096 6.97 6.57 8.81
6/25/2021 8:30:00 AM 16.84 62.312 0.094 6.97 6.37 8.88
6/25/2021 8:45:00 AM 16.88 62.384 0.101 6.99 6.63 8.96
6/25/2021 9:00:00 AM 16.95 62.51 0.098 7.02 6.3 9.03
6/25/2021 9:15:00 AM 17.07 62.726 0.099 7.06 6.2 9.11
6/25/2021 9:30:00 AM 17.21 62.978 0.096 7.07 6.6 9.18
6/25/2021 9:45:00 AM 17.35 63.23 0.103 7.08 6.16 9.25
6/25/2021 10:00:00 AM 17.47 63.446 0.095 7.1 6.95 9.31
6/25/2021 10:15:00 AM 17.62 63.716 0.097 7.11 6.32 9.38
6/25/2021 10:30:00 AM 17.71 63.878 0.103 7.14 6.06 9.43
6/25/2021 10:45:00 AM 17.9 64.22 0.097 7.16 6.25 9.48
6/25/2021 11:00:00 AM 18.04 64.472 0.101 7.17 6.26 9.53
6/25/2021 11:15:00 AM 18.21 64.778 0.099 7.19 6.26 9.58
6/25/2021 11:30:00 AM 18.42 65.156 0.097 7.2 6.42 9.63
6/25/2021 11:45:00 AM 18.64 65.552 0.101 7.23 5.87 9.69
6/25/2021 12:00:00 PM 18.84 65.912 0.099 7.24 5.84 9.7
6/25/2021 12:15:00 PM 19.08 66.344 0.102 7.26 7.31 9.75
6/25/2021 12:30:00 PM 19.34 66.812 0.099 7.28 8.29 9.8
6/25/2021 12:45:00 PM 19.62 67.316 0.097 7.3 5.87 9.82
6/25/2021 1:00:00 PM 19.92 67.856 0.101 7.33 6.14 9.85
6/25/2021 1:15:00 PM 20.28 68.504 0.097 7.37 6.79 9.88
6/25/2021 1:30:00 PM 20.6 69.08 0.103 7.39 5.49 9.89
6/25/2021 1:45:00 PM 20.95 69.71 0.1 7.41 5.37 9.88
6/25/2021 2:00:00 PM 21.24 70.232 0.102 7.44 5.49 9.89
6/25/2021 2:15:00 PM 21.49 70.682 0.115 7.46 5.15 9.9
6/25/2021 2:30:00 PM 21.71 71.078 0.1 7.47 5.18 9.9
6/25/2021 2:45:00 PM 21.91 71.438 0.104 7.49 5.59 9.92
6/25/2021 3:00:00 PM 22.07 71.726 0.102 7.5 5.28 9.89
6/25/2021 3:15:00 PM 22.22 71.996 0.101 7.51 5.59 9.88
6/25/2021 3:30:00 PM 22.42 72.356 0.099 7.54 5.36 9.87
6/25/2021 3:45:00 PM 22.53 72.554 0.098 7.55 5.16 9.84
6/25/2021 4:00:00 PM 22.66 72.788 0.101 7.55 5.42 9.81
6/25/2021 4:15:00 PM 22.69 72.842 0.114 7.54 5.04 9.77
6/25/2021 4:30:00 PM 22.77 72.986 0.097 7.54 5.38 9.75
6/25/2021 4:45:00 PM 22.76 72.968 0.096 7.53 5.28 9.71
6/25/2021 5:00:00 PM 22.72 72.896 0.102 7.52 5.42 9.66
6/25/2021 5:15:00 PM 22.77 72.986 0.101 7.54 5.68 9.65
6/25/2021 5:30:00 PM 22.77 72.986 0.101 7.5 5.54 9.56
6/25/2021 5:45:00 PM 22.72 72.896 0.099 7.46 6.85 9.48
6/25/2021 6:00:00 PM 22.64 72.752 0.096 7.43 5.44 9.38
6/25/2021 6:15:00 PM 22.53 72.554 0.101 7.38 5.77 9.31
6/25/2021 6:30:00 PM 22.4 72.32 0.097 7.35 5.12 9.24
6/25/2021 6:45:00 PM 22.25 72.05 0.1 7.31 5.35 9.16
6/25/2021 7:00:00 PM 22.12 71.816 0.098 7.26 5.48 9.04
6/25/2021 7:15:00 PM 21.99 71.582 0.102 7.24 5.45 8.95
6/25/2021 7:30:00 PM 21.88 71.384 0.097 7.21 5.59 8.88
6/25/2021 7:45:00 PM 21.8 71.24 0.101 7.2 5.75 8.8
6/25/2021 8:00:00 PM 21.71 71.078 0.1 7.17 5.57 8.71
6/25/2021 8:15:00 PM 21.62 70.916 0.102 7.14 5.57 8.63
6/25/2021 8:30:00 PM 21.5 70.7 0.099 7.11 5.78 8.52
6/25/2021 8:45:00 PM 21.38 70.484 0.101 7.08 5.76 8.41
6/25/2021 9:00:00 PM 21.26 70.268 0.1 7.05 5.94 8.32
6/25/2021 9:15:00 PM 21.14 70.052 0.096 7.03 5.98 8.25
6/25/2021 9:30:00 PM 21.05 69.89 0.102 7.03 5.86 8.19
6/25/2021 9:45:00 PM 20.94 69.692 0.102 7.02 6.61 8.13
6/25/2021 10:00:00 PM 20.86 69.548 0.1 6.99 6.5 8.09
6/25/2021 10:15:00 PM 20.77 69.386 0.097 6.98 6.91 8.04
6/25/2021 10:30:00 PM 20.69 69.242 0.101 6.97 6.75 8.02
6/25/2021 10:45:00 PM 20.6 69.08 0.097 6.95 7.96 7.98
6/25/2021 11:00:00 PM 20.5 68.9 0.101 6.94 6.65 7.95
6/25/2021 11:15:00 PM 20.4 68.72 0.096 6.93 6.79 7.92
6/25/2021 11:30:00 PM 20.32 68.576 0.102 6.94 6.71 7.9
6/25/2021 11:45:00 PM 20.22 68.396 0.096 6.91 7.3 7.87
6/26/2021 12:00:00 AM 20.13 68.234 0.102 6.91 6.93 7.85
6/26/2021 12:15:00 AM 20.04 68.07201 0.096 6.9 7.1 7.83
6/26/2021 12:30:00 AM 19.95 67.91 0.1 6.9 7.77 7.82
6/26/2021 12:45:00 AM 19.88 67.784 0.096 6.88 6.74 7.81
6/26/2021 1:00:00 AM 19.79 67.622 0.096 6.89 7.23 7.8
6/26/2021 1:15:00 AM 19.71 67.478 0.096 6.89 7.64 7.79
6/26/2021 1:30:00 AM 19.63 67.334 0.097 6.88 7.29 7.79
6/26/2021 1:45:00 AM 19.56 67.208 0.097 6.89 8.24 7.79
6/26/2021 2:00:00 AM 19.49 67.082 0.102 6.89 7.01 7.78
6/26/2021 2:15:00 AM 19.42 66.956 0.095 6.88 7 7.77
6/26/2021 2:30:00 AM 19.34 66.812 0.099 6.88 7.31 7.78
6/26/2021 2:45:00 AM 19.27 66.686 0.093 6.88 7.26 7.78
6/26/2021 3:00:00 AM 19.2 66.56 0.095 6.88 7.75 7.78
6/26/2021 3:15:00 AM 19.15 66.47 0.099 6.88 7.43 7.77
6/26/2021 3:30:00 AM 19.11 66.398 0.098 6.87 7.44 7.78
6/26/2021 3:45:00 AM 19.06 66.308 0.099 6.88 7.68 7.77
6/26/2021 4:00:00 AM 19.02 66.236 0.096 6.87 8.21 7.77
6/26/2021 4:15:00 AM 18.98 66.164 0.095 6.87 7.98 7.77
6/26/2021 4:30:00 AM 18.93 66.074 0.096 6.87 8.42 7.77
6/26/2021 4:45:00 AM 18.89 66.002 0.095 6.88 8.08 7.78
6/26/2021 5:00:00 AM 18.84 65.912 0.099 6.87 7.83 7.78
6/26/2021 5:15:00 AM 18.8 65.84 0.095 6.87 7.9 7.78
6/26/2021 5:30:00 AM 18.77 65.786 0.097 6.87 7.14 7.79
6/26/2021 5:45:00 AM 18.74 65.732 0.112 6.86 6.94 7.8
6/26/2021 6:00:00 AM 18.72 65.696 0.095 6.87 7.57 7.83
6/26/2021 6:15:00 AM 18.7 65.66 0.093 6.88 7.38 7.85
6/26/2021 6:30:00 AM 18.69 65.642 0.091 6.89 7.36 7.9
6/26/2021 6:45:00 AM 18.69 65.642 0.099 6.9 6.91 7.95
6/26/2021 7:00:00 AM 18.69 65.642 0.092 6.91 6.36 8.03
6/26/2021 7:15:00 AM 18.69 65.642 0.093 6.93 6.68 8.1
6/26/2021 7:30:00 AM 18.72 65.696 0.111 6.93 6.63 8.18
6/26/2021 7:45:00 AM 18.73 65.714 0.092 6.93 7.2 8.23
6/26/2021 8:00:00 AM 18.74 65.732 0.094 6.93 6.82 8.28
6/26/2021 8:15:00 AM 18.78 65.804 0.092 6.95 6.59 8.37
6/26/2021 8:30:00 AM 18.84 65.912 0.095 6.97 6.55 8.47
6/26/2021 8:45:00 AM 18.9 66.02 0.1 7 6.3 8.57
6/26/2021 9:00:00 AM 19 66.2 0.093 7.03 6.46 8.69
6/26/2021 9:15:00 AM 19.12 66.416 0.1 7.06 6.12 8.79
6/26/2021 9:30:00 AM 19.17 66.506 0.096 7.07 6.04 8.86
6/26/2021 9:45:00 AM 19.2 66.56 0.099 7.07 9.29 8.9
6/26/2021 10:00:00 AM 19.28 66.704 0.093 7.06 6.09 8.99
6/26/2021 10:15:00 AM 19.41 66.938 0.11 7.12 7.4 9.09
6/26/2021 10:30:00 AM 19.58 67.244 0.093 7.16 6.76 9.2
6/26/2021 10:45:00 AM 19.67 67.406 0.109 7.17 6.17 9.26
6/26/2021 11:00:00 AM 19.85 67.73 0.099 7.19 6.29 9.35
6/26/2021 11:15:00 AM 20.13 68.234 0.097 7.24 5.86 9.45
6/26/2021 11:30:00 AM 20.42 68.756 0.098 7.26 5.94 9.5
6/26/2021 11:45:00 AM 20.7 69.26 0.099 7.29 5.72 9.57
6/26/2021 12:00:00 PM 20.81 69.458 0.095 7.3 5.72 9.59
6/26/2021 12:15:00 PM 21 69.8 0.097 7.33 5.9 9.66
6/26/2021 12:30:00 PM 21.06 69.908 0.095 7.31 5.65 9.65
6/26/2021 12:45:00 PM 21.18 70.124 0.094 7.35 5.67 9.69
6/26/2021 1:00:00 PM 21.35 70.43 0.098 7.38 5.82 9.74
6/26/2021 1:15:00 PM 21.73 71.114 0.094 7.44 5.62 9.79
6/26/2021 1:30:00 PM 21.97 71.546 0.109 7.46 6.12 9.81
6/26/2021 1:45:00 PM 22.25 72.05 0.097 7.49 5.78 9.83
6/26/2021 2:00:00 PM 22.58 72.644 0.099 7.52 5.46 9.84
6/26/2021 2:15:00 PM 22.78 73.004 0.095 7.52 5.7 9.83
6/26/2021 2:30:00 PM 23.04 73.472 0.096 7.55 5.49 9.81
6/26/2021 2:45:00 PM 23.35 74.03 0.096 7.58 5.37 9.8
6/26/2021 3:00:00 PM 23.54 74.372 0.093 7.57 5.33 9.76
6/26/2021 3:15:00 PM 23.72 74.696 0.098 7.59 5.4 9.74
6/26/2021 3:30:00 PM 23.82 74.876 0.096 7.6 5.84 9.73
6/26/2021 3:45:00 PM 23.92 75.056 0.098 7.61 5.37 9.71
6/26/2021 4:00:00 PM 24.05 75.29 0.096 7.63 5.56 9.71
6/26/2021 4:15:00 PM 24.11 75.398 0.096 7.62 5.17 9.67
6/26/2021 4:30:00 PM 24.15 75.47 0.1 7.61 5.2 9.63
6/26/2021 4:45:00 PM 24.27 75.686 0.098 7.62 5.45 9.59
6/26/2021 5:00:00 PM 24.34 75.812 0.099 7.61 5.65 9.52
6/26/2021 5:15:00 PM 24.4 75.92 0.096 7.59 5.49 9.47
6/26/2021 5:30:00 PM 24.4 75.92 0.101 7.59 5.26 9.41
6/26/2021 5:45:00 PM 24.38 75.884 0.097 7.53 5.47 9.32
6/26/2021 6:00:00 PM 24.3 75.74 0.099 7.5 5.79 9.25
6/26/2021 6:15:00 PM 24.17 75.506 0.096 7.42 5.48 9.13
6/26/2021 6:30:00 PM 24.03 75.254 0.095 7.36 5.75 9
6/26/2021 6:45:00 PM 23.95 75.11 0.098 7.35 5.42 8.98
6/26/2021 7:00:00 PM 23.85 74.93 0.097 7.35 5.84 8.92
6/26/2021 7:15:00 PM 23.73 74.714 0.096 7.28 5.79 8.82
6/26/2021 7:30:00 PM 23.61 74.498 0.097 7.24 5.91 8.68
6/26/2021 7:45:00 PM 23.51 74.318 0.098 7.21 5.98 8.58
6/26/2021 8:00:00 PM 23.39 74.102 0.095 7.17 6.08 8.47
6/26/2021 8:15:00 PM 23.3 73.94 0.11 7.15 6.37 8.38
6/26/2021 8:30:00 PM 23.19 73.742 0.099 7.12 5.92 8.26
6/26/2021 8:45:00 PM 23.08 73.544 0.099 7.09 5.68 8.15
6/26/2021 9:00:00 PM 22.98 73.364 0.099 7.06 6.81 8.05
6/26/2021 9:15:00 PM 22.88 73.184 0.099 7.04 5.8 7.95
6/26/2021 9:30:00 PM 22.8 73.04 0.098 7.02 6.82 7.88
6/26/2021 9:45:00 PM 22.71 72.878 0.097 7.01 7.41 7.82
6/26/2021 10:00:00 PM 22.61 72.698 0.095 6.98 8.42 7.76
6/26/2021 10:15:00 PM 22.54 72.57201 0.096 6.98 7.26 7.71
6/26/2021 10:30:00 PM 22.46 72.42799 0.099 6.95 6.96 7.66
6/26/2021 10:45:00 PM 22.38 72.284 0.097 6.96 8.43 7.61
6/26/2021 11:00:00 PM 22.31 72.158 0.096 6.95 7.59 7.57
6/26/2021 11:15:00 PM 22.23 72.014 0.102 6.94 7.7 7.53
6/26/2021 11:30:00 PM 22.16 71.888 0.1 6.92 8.12 7.5
6/26/2021 11:45:00 PM 22.09 71.762 0.1 6.92 7.82 7.47
6/27/2021 12:00:00 AM 22.02 71.636 0.098 6.93 7.85 7.44
6/27/2021 12:15:00 AM 21.95 71.51 0.103 6.93 7.65 7.42
6/27/2021 12:30:00 AM 21.89 71.402 0.099 6.9 7.84 7.39
6/27/2021 12:45:00 AM 21.82 71.276 0.101 6.9 7.69 7.37
6/27/2021 1:00:00 AM 21.75 71.15 0.092 6.91 85.9 7.36
6/27/2021 1:15:00 AM 21.69 71.042 0.103 6.89 8.1 7.36
6/27/2021 1:30:00 AM 21.63 70.934 0.104 6.88 7.52 7.34
6/27/2021 1:45:00 AM 21.56 70.808 0.103 6.88 7.53 7.34
6/27/2021 2:00:00 AM 21.49 70.682 0.098 6.88 8.67 7.33
6/27/2021 2:15:00 AM 21.43 70.574 0.104 6.87 7.84 7.33
6/27/2021 2:30:00 AM 21.36 70.448 0.098 6.87 8.91 7.32
6/27/2021 2:45:00 AM 21.3 70.34 0.102 6.86 8.28 7.31
6/27/2021 3:00:00 AM 21.23 70.214 0.097 6.89 8.9 7.3
6/27/2021 3:15:00 AM 21.17 70.106 0.114 6.87 7.68 7.3
6/27/2021 3:30:00 AM 21.12 70.016 0.101 6.86 8.23 7.3
6/27/2021 3:45:00 AM 21.05 69.89 0.1 6.86 9.01 7.29
6/27/2021 4:00:00 AM 21 69.8 0.097 6.85 8.71 7.29
6/27/2021 4:15:00 AM 20.93 69.674 0.101 6.86 8.73 7.29
6/27/2021 4:30:00 AM 20.87 69.566 0.098 6.84 9.03 7.28
6/27/2021 4:45:00 AM 20.81 69.458 0.103 6.84 9.14 7.29
6/27/2021 5:00:00 AM 20.76 69.368 0.101 6.84 8.86 7.28
6/27/2021 5:15:00 AM 20.71 69.278 0.103 6.84 8.13 7.27
6/27/2021 5:30:00 AM 20.66 69.188 0.101 6.83 7.94 7.27
6/27/2021 5:45:00 AM 20.61 69.098 0.1 6.84 8.04 7.29
6/27/2021 6:00:00 AM 20.56 69.008 0.097 6.84 8 7.31
6/27/2021 6:15:00 AM 20.52 68.936 0.099 6.84 8.06 7.35
6/27/2021 6:30:00 AM 20.48 68.864 0.099 6.85 7.51 7.39
6/27/2021 6:45:00 AM 20.43 68.774 0.099 6.87 7.31 7.45
6/27/2021 7:00:00 AM 20.41 68.738 0.099 6.87 7.36 7.49
6/27/2021 7:15:00 AM 20.4 68.72 0.1 6.88 7.34 7.57
6/27/2021 7:30:00 AM 20.4 68.72 0.101 6.89 7.42 7.65
6/27/2021 7:45:00 AM 20.43 68.774 0.115 6.91 6.73 7.74
6/27/2021 8:00:00 AM 20.45 68.81 0.1 6.92 7.42 7.81
6/27/2021 8:15:00 AM 20.48 68.864 0.097 6.94 7.09 7.88
6/27/2021 8:30:00 AM 20.52 68.936 0.102 6.94 7.26 7.93
6/27/2021 8:45:00 AM 20.57 69.026 0.101 6.96 6.95 8
6/27/2021 9:00:00 AM 20.64 69.152 0.103 6.98 7.28 8.07
6/27/2021 9:15:00 AM 20.79 69.422 0.097 7.01 6.76 8.17
6/27/2021 9:30:00 AM 20.99 69.782 0.103 7.05 6.68 8.28
6/27/2021 9:45:00 AM 21.14 70.052 0.099 7.07 6.95 8.37
6/27/2021 10:00:00 AM 21.31 70.358 0.104 7.08 6.53 8.44
6/27/2021 10:15:00 AM 21.47 70.646 0.101 7.08 6.42 8.5
6/27/2021 10:30:00 AM 21.64 70.952 0.103 7.1 6.99 8.58
6/27/2021 10:45:00 AM 21.78 71.204 0.102 7.11 6.43 8.63
6/27/2021 11:00:00 AM 21.85 71.33 0.102 7.11 12.02 8.7
6/27/2021 11:15:00 AM 22.06 71.708 0.1 7.15 7.59 8.81
6/27/2021 11:30:00 AM 22.08 71.744 0.099 7.14 6.77 8.89
6/27/2021 11:45:00 AM 22.25 72.05 0.101 7.18 7.22 8.95
6/27/2021 12:00:00 PM 22.61 72.698 0.103 7.27 6.49 9.04
6/27/2021 12:15:00 PM 22.83 73.094 0.098 7.26 6.12 9.08
6/27/2021 12:30:00 PM 23.07 73.526 0.103 7.27 6.35 9.15
6/27/2021 12:45:00 PM 23.3 73.94 0.099 7.31 6.33 9.18
6/27/2021 1:00:00 PM 23.55 74.39 0.101 7.33 6.18 9.22
6/27/2021 1:15:00 PM 23.87 74.966 0.098 7.35 6.3 9.25
6/27/2021 1:30:00 PM 24.18 75.524 0.101 7.39 6.15 9.31
6/27/2021 1:45:00 PM 24.58 76.244 0.098 7.44 6.14 9.35
6/27/2021 2:00:00 PM 24.89 76.802 0.102 7.45 5.87 9.31
6/27/2021 2:15:00 PM 25.22 77.396 0.101 7.48 6.58 9.36
6/27/2021 2:30:00 PM 25.56 78.008 0.104 7.5 7.31 9.33
6/27/2021 2:45:00 PM 25.83 78.494 0.101 7.51 5.94 9.34
6/27/2021 3:00:00 PM 26.09 78.962 0.103 7.52 6.15 9.31
6/27/2021 3:15:00 PM 26.28 79.304 0.1 7.53 6.24 9.3
6/27/2021 3:30:00 PM 26.49 79.682 0.103 7.55 6.58 9.27
6/27/2021 3:45:00 PM 26.67 80.006 0.103 7.55 5.81 9.23
6/27/2021 4:00:00 PM 26.74 80.132 0.106 7.53 6.12 9.17
6/27/2021 4:15:00 PM 26.82 80.276 0.103 7.53 8.06 9.12
6/27/2021 4:30:00 PM 26.87 80.366 0.1 7.52 7.32 9.08
6/27/2021 4:45:00 PM 26.93 80.474 0.105 7.5 6.24 9.01
6/27/2021 5:00:00 PM 26.98 80.564 0.102 7.49 6.7 8.97
6/27/2021 5:15:00 PM 26.99 80.582 0.106 7.46 6.95 8.89
6/27/2021 5:30:00 PM 27 80.6 0.103 7.46 6.28 8.86
6/27/2021 5:45:00 PM 26.97 80.546 0.105 7.44 6.07 8.78
6/27/2021 6:00:00 PM 26.88 80.384 0.103 7.4 6.38 8.7
6/27/2021 6:15:00 PM 26.76 80.168 0.106 7.34 6.04 8.58
6/27/2021 6:30:00 PM 26.65 79.97 0.104 7.31 6 8.51
6/27/2021 6:45:00 PM 26.51 79.718 0.106 7.27 6.18 8.41
6/27/2021 7:00:00 PM 26.38 79.484 0.105 7.23 5.66 8.31
6/27/2021 7:15:00 PM 26.23 79.214 0.103 7.19 6.01 8.19
6/27/2021 7:30:00 PM 26.09 78.962 0.107 7.16 5.65 8.08
6/27/2021 7:45:00 PM 25.95 78.71 0.104 7.13 6.27 7.98
6/27/2021 8:00:00 PM 25.79 78.422 0.107 7.1 7.01 7.86
6/27/2021 8:15:00 PM 25.66 78.188 0.104 7.07 6.3 7.77
6/27/2021 8:30:00 PM 25.5 77.9 0.116 7.04 6.31 7.66
6/27/2021 8:45:00 PM 25.37 77.666 0.106 7.02 6.07 7.56
6/27/2021 9:00:00 PM 25.21 77.378 0.106 7 5.94 7.45
6/27/2021 9:15:00 PM 25.07 77.126 0.103 6.98 6.27 7.37
6/27/2021 9:30:00 PM 24.92 76.856 0.107 6.96 6.77 7.28
6/27/2021 9:45:00 PM 24.79 76.622 0.105 6.93 7.46 7.21
6/27/2021 10:00:00 PM 24.68 76.424 0.108 6.92 8.62 7.15
6/27/2021 10:15:00 PM 24.56 76.208 0.106 6.91 7.7 7.1
6/27/2021 10:30:00 PM 24.45 76.01 0.108 6.9 7.4 7.06
6/27/2021 10:45:00 PM 24.34 75.812 0.105 6.89 7.33 7.03
6/27/2021 11:00:00 PM 24.26 75.668 0.109 6.9 7.32 6.98
6/27/2021 11:15:00 PM 24.16 75.488 0.106 6.88 7.72 6.95
6/27/2021 11:30:00 PM 24.07 75.326 0.108 6.88 7.26 6.92
6/27/2021 11:45:00 PM 23.98 75.164 0.104 6.87 7.66 6.88
6/28/2021 12:00:00 AM 23.89 75.002 0.11 6.89 7.87 6.86
6/28/2021 12:15:00 AM 23.81 74.858 0.106 6.86 7.66 6.84
6/28/2021 12:30:00 AM 23.73 74.714 0.11 6.85 8.3 6.81
6/28/2021 12:45:00 AM 23.64 74.552 0.107 6.85 7.24 6.8
6/28/2021 1:00:00 AM 23.56 74.408 0.108 6.88 7.57 6.78
6/28/2021 1:15:00 AM 23.48 74.264 0.107 6.86 7.43 6.78
6/28/2021 1:30:00 AM 23.4 74.12 0.106 6.84 7.71 6.78
6/28/2021 1:45:00 AM 23.31 73.958 0.111 6.84 7.38 6.76
6/28/2021 2:00:00 AM 23.25 73.85 0.107 6.83 7.94 6.75
6/28/2021 2:15:00 AM 23.16 73.688 0.11 6.84 7.53 6.75
6/28/2021 2:30:00 AM 23.1 73.58 0.108 6.83 7.63 6.74
6/28/2021 2:45:00 AM 23.02 73.436 0.107 6.82 7.99 6.74
6/28/2021 3:00:00 AM 22.94 73.292 0.106 6.82 8.1 6.75
6/28/2021 3:15:00 AM 22.87 73.166 0.104 6.82 7.79 6.74
6/28/2021 3:30:00 AM 22.81 73.058 0.106 6.85 7.59 6.74
6/28/2021 3:45:00 AM 22.74 72.932 0.11 6.82 7.78 6.75
6/28/2021 4:00:00 AM 22.66 72.788 0.106 6.82 7.77 6.75
6/28/2021 4:15:00 AM 22.6 72.68 0.106 6.82 7.74 6.75
6/28/2021 4:30:00 AM 22.53 72.554 0.107 6.81 8.8 6.76
6/28/2021 4:45:00 AM 22.47 72.446 0.112 6.81 8.32 6.76
6/28/2021 5:00:00 AM 22.4 72.32 0.108 6.81 8.12 6.78
6/28/2021 5:15:00 AM 22.34 72.212 0.112 6.84 8.09 6.77
6/28/2021 5:30:00 AM 22.27 72.086 0.108 6.81 7.51 6.79
6/28/2021 5:45:00 AM 22.21 71.978 0.111 6.81 7.58 6.8
6/28/2021 6:00:00 AM 22.16 71.888 0.107 6.82 7.77 6.82
6/28/2021 6:15:00 AM 22.1 71.78 0.112 6.81 8.47 6.85
6/28/2021 6:30:00 AM 22.05 71.69 0.109 6.82 7.76 6.89
6/28/2021 6:45:00 AM 22.01 71.618 0.111 6.82 7.26 6.94
6/28/2021 7:00:00 AM 21.97 71.546 0.111 6.83 7.52 6.98
6/28/2021 7:15:00 AM 21.96 71.528 0.109 6.85 7.15 7.09
6/28/2021 7:30:00 AM 21.98 71.564 0.107 6.87 7.07 7.21
6/28/2021 7:45:00 AM 22.02 71.636 0.112 6.89 7.05 7.3
6/28/2021 8:00:00 AM 22.05 71.69 0.112 6.9 6.83 7.36
6/28/2021 8:15:00 AM 22.08 71.744 0.108 6.91 6.91 7.44
6/28/2021 8:30:00 AM 22.15 71.87 0.111 6.93 7 7.52
6/28/2021 8:45:00 AM 22.21 71.978 0.109 6.94 6.73 7.59
6/28/2021 9:00:00 AM 22.31 72.158 0.125 6.97 7.11 7.69
6/28/2021 9:15:00 AM 22.49 72.482 0.111 6.99 7.01 7.8
6/28/2021 9:30:00 AM 22.74 72.932 0.112 7.03 6.75 7.96
6/28/2021 9:45:00 AM 22.67 72.806 0.109 7 6.75 7.99
6/28/2021 10:00:00 AM 22.59 72.662 0.107 6.98 6.47 8.01
6/28/2021 10:15:00 AM 22.64 72.752 0.115 7.02 6.83 8.11
6/28/2021 10:30:00 AM 22.75 72.95 0.11 7.04 6.56 8.2
6/28/2021 10:45:00 AM 22.87 73.166 0.113 7.09 6.7 8.3
6/28/2021 11:00:00 AM 23.03 73.454 0.108 7.1 6.48 8.36
6/28/2021 11:15:00 AM 23.25 73.85 0.112 7.14 6.1 8.43
6/28/2021 11:30:00 AM 23.56 74.408 0.108 7.15 6.57 8.55
6/28/2021 11:45:00 AM 23.88 74.984 0.125 7.21 6.08 8.64
6/28/2021 12:00:00 PM 24.19 75.542 0.11 7.21 6.45 8.71
6/28/2021 12:15:00 PM 24.38 75.884 0.115 7.21 6.53 8.78
6/28/2021 12:30:00 PM 24.6 76.28 0.112 7.23 6.27 8.84
6/28/2021 12:45:00 PM 24.87 76.766 0.112 7.27 6.67 8.9
6/28/2021 1:00:00 PM 25.09 77.162 0.11 7.28 6.48 8.96
6/28/2021 1:15:00 PM 25.17 77.306 0.113 7.25 6.35 8.94
6/28/2021 1:30:00 PM 25.32 77.576 0.112 7.27 6.35 8.87
6/28/2021 1:45:00 PM 25.58 78.044 0.124 7.3 6.06 8.99
6/28/2021 2:00:00 PM 25.88 78.584 0.111 7.33 5.95 9.02
6/28/2021 2:15:00 PM 26.06 78.908 0.113 7.34 6.34 9.05
6/28/2021 2:30:00 PM 26.33 79.394 0.111 7.36 6.52 9.04
6/28/2021 2:45:00 PM 26.65 79.97 0.107 7.4 6.58 9.09
6/28/2021 3:00:00 PM 26.91 80.438 0.115 7.43 6.41 9.11
6/28/2021 3:15:00 PM 27.12 80.816 0.11 7.44 6.58 9.09
6/28/2021 3:30:00 PM 27.17 80.906 0.115 7.41 6.34 8.99
6/28/2021 3:45:00 PM 27.41 81.338 0.11 7.43 6.24 9.01
6/28/2021 4:00:00 PM 27.56 81.608 0.115 7.44 5.9 8.99
6/28/2021 4:15:00 PM 27.65 81.77 0.112 7.42 6.61 8.92
6/28/2021 4:30:00 PM 27.78 82.004 0.115 7.42 6.54 8.87
6/28/2021 4:45:00 PM 27.92 82.256 0.114 7.42 7.24 8.86
6/28/2021 5:00:00 PM 27.95 82.31 0.116 7.42 6.14 8.8
6/28/2021 5:15:00 PM 27.92 82.256 0.114 7.37 6.15 8.69
6/28/2021 5:30:00 PM 27.8 82.04 0.111 7.32 6.24 8.56
6/28/2021 5:45:00 PM 27.68 81.824 0.116 7.27 7.21 8.45
6/28/2021 6:00:00 PM 27.54 81.57201 0.113 7.23 6.31 8.3
6/28/2021 6:15:00 PM 27.4 81.32 0.116 7.19 6.57 8.15
6/28/2021 6:30:00 PM 27.31 81.158 0.116 7.2 6.22 8.19
6/28/2021 6:45:00 PM 27.24 81.032 0.116 7.2 6.93 8.18
6/28/2021 7:00:00 PM 27.12 80.816 0.114 7.16 6.77 8.05
6/28/2021 7:15:00 PM 27.01 80.618 0.111 7.14 6.52 7.95
6/28/2021 7:30:00 PM 26.91 80.438 0.116 7.12 6.33 7.87
6/28/2021 7:45:00 PM 26.83 80.294 0.112 7.11 6.72 7.8
6/28/2021 8:00:00 PM 26.72 80.096 0.115 7.08 6.8 7.66
6/28/2021 8:15:00 PM 26.6 79.88 0.112 7.05 6.56 7.53
6/28/2021 8:30:00 PM 26.48 79.664 0.117 7.02 6.8 7.39
6/28/2021 8:45:00 PM 26.34 79.412 0.112 6.99 6.93 7.29
6/28/2021 9:00:00 PM 26.22 79.196 0.116 6.97 6.19 7.18
6/28/2021 9:15:00 PM 26.1 78.98 0.125 6.96 6.31 7.1
6/28/2021 9:30:00 PM 25.98 78.764 0.115 6.94 7.02 7.03
6/28/2021 9:45:00 PM 25.87 78.566 0.113 6.93 7.41 6.96
6/28/2021 10:00:00 PM 25.72 78.296 0.116 6.92 8.1 6.9
6/28/2021 10:15:00 PM 25.6 78.08 0.115 6.9 7.89 6.87
6/28/2021 10:30:00 PM 25.46 77.828 0.115 6.89 7.37 6.83
6/28/2021 10:45:00 PM 25.32 77.576 0.113 6.87 7.63 6.8
6/28/2021 11:00:00 PM 25.19 77.342 0.11 6.86 8.42 6.75
6/28/2021 11:15:00 PM 25.06 77.108 0.118 6.87 7.84 6.74
6/28/2021 11:30:00 PM 24.94 76.892 0.112 6.86 7.65 6.71
6/28/2021 11:45:00 PM 24.82 76.676 0.117 6.87 8.15 6.67
6/29/2021 12:00:00 AM 24.71 76.478 0.114 6.85 7.92 6.65
6/29/2021 12:15:00 AM 24.57 76.226 0.115 6.83 8.76 6.64
6/29/2021 12:30:00 AM 24.47 76.046 0.114 6.83 7.65 6.62
6/29/2021 12:45:00 AM 24.38 75.884 0.113 6.83 8.34 6.59
6/29/2021 1:00:00 AM 24.28 75.704 0.127 6.84 7.66 6.59
6/29/2021 1:15:00 AM 24.18 75.524 0.113 6.82 7.73 6.56
6/29/2021 1:30:00 AM 24.09 75.362 0.119 6.83 7.64 6.55
6/29/2021 1:45:00 AM 24.01 75.218 0.113 6.83 8.29 6.56
6/29/2021 2:00:00 AM 23.93 75.074 0.118 6.82 7.96 6.54
6/29/2021 2:15:00 AM 23.87 74.966 0.112 6.83 8.29 6.53
6/29/2021 2:30:00 AM 23.79 74.82201 0.118 6.83 8.48 6.51
6/29/2021 2:45:00 AM 23.71 74.67799 0.113 6.82 8.9 6.51
6/29/2021 3:00:00 AM 23.66 74.588 0.116 6.82 8.01 6.48
6/29/2021 3:15:00 AM 23.59 74.462 0.117 6.82 7.78 6.51
6/29/2021 3:30:00 AM 23.55 74.39 0.116 6.82 8.08 6.5
6/29/2021 3:45:00 AM 23.49 74.282 0.113 6.82 8.82 6.5
6/29/2021 4:00:00 AM 23.43 74.174 0.117 6.82 8.1 6.5
6/29/2021 4:15:00 AM 23.36 74.048 0.113 6.82 8.82 6.49
6/29/2021 4:30:00 AM 23.29 73.922 0.117 6.81 9.04 6.48
6/29/2021 4:45:00 AM 23.23 73.814 0.114 6.81 9.91 6.47
6/29/2021 5:00:00 AM 23.16 73.688 0.116 6.82 8.22 6.49
6/29/2021 5:15:00 AM 23.09 73.562 0.117 6.82 7.45 6.48
6/29/2021 5:30:00 AM 23.04 73.472 0.113 6.81 7.97 6.47
6/29/2021 5:45:00 AM 22.97 73.346 0.122 6.8 7.89 6.49
6/29/2021 6:00:00 AM 22.91 73.238 0.117 6.8 7.07 6.53
6/29/2021 6:15:00 AM 22.86 73.148 0.13 6.82 8.43 6.55
6/29/2021 6:30:00 AM 22.83 73.094 0.114 6.82 8.08 6.63
6/29/2021 6:45:00 AM 22.8 73.04 0.12 6.84 15.47 6.67
6/29/2021 7:00:00 AM 22.77 72.986 0.118 6.84 8.98 6.79
6/29/2021 7:15:00 AM 22.76 72.968 0.117 6.86 7.55 6.86
6/29/2021 7:30:00 AM 22.8 73.04 0.116 6.88 7.45 6.99
6/29/2021 7:45:00 AM 22.84 73.112 0.115 6.9 7.99 7.11
6/29/2021 8:00:00 AM 22.86 73.148 0.113 6.9 8.5 7.18
6/29/2021 8:15:00 AM 22.91 73.238 0.115 6.92 10.27 7.27
6/29/2021 8:30:00 AM 22.97 73.346 0.117 6.93 10.68 7.34
6/29/2021 8:45:00 AM 23.04 73.472 0.114 6.96 7.64 7.42
6/29/2021 9:00:00 AM 23.13 73.634 0.115 6.97 8.06 7.5
6/29/2021 9:15:00 AM 23.29 73.922 0.114 7 7.08 7.61
6/29/2021 9:30:00 AM 23.51 74.318 0.111 7.03 7 7.73
6/29/2021 9:45:00 AM 23.7 74.66 0.118 7.05 6.6 7.83
6/29/2021 10:00:00 AM 23.88 74.984 0.114 7.06 7.09 7.93
6/29/2021 10:15:00 AM 24.01 75.218 0.117 7.08 6.93 8
6/29/2021 10:30:00 AM 24.18 75.524 0.116 7.08 7.62 8.07
6/29/2021 10:45:00 AM 24.38 75.884 0.119 7.1 10.63 8.16
6/29/2021 11:00:00 AM 24.53 76.154 0.116 7.12 7.1 8.22
6/29/2021 11:15:00 AM 24.72 76.496 0.129 7.14 6.87 8.28
6/29/2021 11:30:00 AM 24.9 76.82 0.119 7.17 8.29 8.36
6/29/2021 11:45:00 AM 25.06 77.108 0.115 7.16 7.91 8.39
6/29/2021 12:00:00 PM 25.37 77.666 0.118 7.2 8.26 8.51
6/29/2021 12:15:00 PM 25.67 78.206 0.117 7.23 10.04 8.59
6/29/2021 12:30:00 PM 25.91 78.638 0.117 7.26 7.38 8.67
6/29/2021 12:45:00 PM 26.16 79.088 0.128 7.28 9.2 8.74
6/29/2021 1:00:00 PM 26.36 79.448 0.119 7.3 7.61 8.74
6/29/2021 1:15:00 PM 26.68 80.024 0.116 7.33 7.84 8.81
6/29/2021 1:30:00 PM 26.94 80.492 0.118 7.36 6.98 8.87
6/29/2021 1:45:00 PM 27.31 81.158 0.114 7.38 8.11 8.89
6/29/2021 2:00:00 PM 27.51 81.518 0.119 7.39 7.45 8.87
6/29/2021 2:15:00 PM 27.82 82.076 0.115 7.41 6.47 8.87
6/29/2021 2:30:00 PM 28.11 82.598 0.117 7.44 7.11 8.88
6/29/2021 2:45:00 PM 28.24 82.832 0.114 7.43 6.79 8.82
6/29/2021 3:00:00 PM 28.38 83.084 0.112 7.41 5.81 8.75
6/29/2021 3:15:00 PM 28.61 83.498 0.118 7.47 6.51 8.75
6/29/2021 3:30:00 PM 28.68 83.624 0.116 7.41 6.27 8.65
6/29/2021 3:45:00 PM 28.91 84.038 0.12 7.45 6.19 8.72
6/29/2021 4:00:00 PM 29.08 84.344 0.127 7.46 6.41 8.67
6/29/2021 4:15:00 PM 29.16 84.488 0.118 7.45 6.67 8.62
6/29/2021 4:30:00 PM 29.27 84.686 0.115 7.45 6.55 8.64
6/29/2021 4:45:00 PM 29.33 84.794 0.127 7.46 6.24 8.58
6/29/2021 5:00:00 PM 29.3 84.74 0.117 7.42 6.45 8.5
6/29/2021 5:15:00 PM 29.28 84.704 0.119 7.39 6.24 8.43
6/29/2021 5:30:00 PM 29.18 84.524 0.126 7.36 6.39 8.32
6/29/2021 5:45:00 PM 29.07 84.326 0.127 7.32 6.13 8.24
6/29/2021 6:00:00 PM 29 84.2 0.118 7.32 6.44 8.22
6/29/2021 6:15:00 PM 28.9 84.02 0.113 7.29 6.62 8.16
6/29/2021 6:30:00 PM 28.79 83.82201 0.118 7.27 6.58 8.1
6/29/2021 6:45:00 PM 28.62 83.51601 0.115 7.21 6.63 7.95
6/29/2021 7:00:00 PM 28.47 83.24599 0.119 7.18 6.88 7.84
6/29/2021 7:15:00 PM 28.31 82.958 0.118 7.14 6.46 7.75
6/29/2021 7:30:00 PM 28.1 82.58 0.118 7.13 6.7 7.65
6/29/2021 7:45:00 PM 27.88 82.184 0.115 7.05 7.02 7.47
6/29/2021 8:00:00 PM 27.69 81.842 0.12 7.03 6.61 7.34
6/29/2021 8:15:00 PM 27.48 81.464 0.116 7 6.18 7.19
6/29/2021 8:30:00 PM 27.28 81.104 0.119 6.98 6.7 7.08
6/29/2021 8:45:00 PM 27.11 80.798 0.117 6.97 7.47 7
6/29/2021 9:00:00 PM 26.92 80.456 0.12 6.94 6.2 6.91
6/29/2021 9:15:00 PM 26.76 80.168 0.117 6.93 7.31 6.87
6/29/2021 9:30:00 PM 26.63 79.934 0.118 6.94 6.94 6.81
6/29/2021 9:45:00 PM 26.49 79.682 0.115 6.93 7.31 6.75
6/29/2021 10:00:00 PM 26.37 79.466 0.121 6.92 7.57 6.71
6/29/2021 10:15:00 PM 26.25 79.25 0.118 6.91 7.94 6.68
6/29/2021 10:30:00 PM 26.14 79.052 0.128 6.92 7.94 6.64
6/29/2021 10:45:00 PM 26.04 78.872 0.117 6.91 7.96 6.63
6/29/2021 11:00:00 PM 25.81 78.458 0.119 6.92 13.7 6.74
6/29/2021 11:15:00 PM 25.76 78.368 0.116 6.91 11.4 6.62
6/29/2021 11:30:00 PM 25.65 78.17 0.127 6.9 10.2 6.58
6/29/2021 11:45:00 PM 25.57 78.026 0.115 6.88 9.9 6.54
6/30/2021 12:00:00 AM 25.48 77.864 0.118 6.89 10.47 6.5
6/30/2021 12:15:00 AM 25.41 77.738 0.115 6.88 10.17 6.48
6/30/2021 12:30:00 AM 25.33 77.594 0.119 6.88 8.37 6.46
6/30/2021 12:45:00 AM 25.26 77.468 0.116 6.88 9.5 6.45
6/30/2021 1:00:00 AM 25.17 77.306 0.118 6.87 10.1 6.42
6/30/2021 1:15:00 AM 25.1 77.18 0.115 6.88 10.15 6.43
6/30/2021 1:30:00 AM 25.03 77.054 0.119 6.87 9.04 6.42
6/30/2021 1:45:00 AM 24.95 76.91 0.117 6.87 8.77 6.43
6/30/2021 2:00:00 AM 24.87 76.766 0.117 6.87 8.71 6.42
6/30/2021 2:15:00 AM 24.8 76.64 0.116 6.86 8.78 6.42
6/30/2021 2:30:00 AM 24.74 76.532 0.113 6.86 9.02 6.4
6/30/2021 2:45:00 AM 24.67 76.406 0.118 6.85 9.09 6.39
6/30/2021 3:00:00 AM 24.59 76.262 0.116 6.85 10.41 6.38
6/30/2021 3:15:00 AM 24.53 76.154 0.119 6.85 10.93 6.37
6/30/2021 3:30:00 AM 24.46 76.028 0.116 6.85 10.75 6.38
6/30/2021 3:45:00 AM 24.4 75.92 0.118 6.85 11.53 6.38
6/30/2021 4:00:00 AM 24.33 75.794 0.116 6.84 11.45 6.38
6/30/2021 4:15:00 AM 24.29 75.722 0.121 6.85 11.35 6.39
6/30/2021 4:30:00 AM 24.24 75.632 0.119 6.85 13.92 6.38
6/30/2021 4:45:00 AM 24.19 75.542 0.12 6.85 12.8 6.38
6/30/2021 5:00:00 AM 24.13 75.434 0.118 6.84 10.94 6.38
6/30/2021 5:15:00 AM 24.07 75.326 0.115 6.85 9.83 6.4
6/30/2021 5:30:00 AM 24.02 75.236 0.12 6.87 10.58 6.4
6/30/2021 5:45:00 AM 23.97 75.146 0.12 6.85 9.66 6.41
6/30/2021 6:00:00 AM 23.93 75.074 0.117 6.85 10.14 6.43
6/30/2021 6:15:00 AM 23.89 75.002 0.121 6.85 9.73 6.47
6/30/2021 6:30:00 AM 23.84 74.912 0.12 6.85 9.02 6.49
6/30/2021 6:45:00 AM 23.79 74.82201 0.121 6.88 8.72 6.52
6/30/2021 7:00:00 AM 23.75 74.75 0.119 6.86 9.09 6.56
6/30/2021 7:15:00 AM 23.72 74.696 0.13 6.77 8.87 6.68
6/30/2021 7:30:00 AM 23.71 74.67799 0.119 6.89 8.42 6.76
6/30/2021 7:45:00 AM 23.71 74.67799 0.12 6.91 8.34 6.84
6/30/2021 8:00:00 AM 23.72 74.696 0.118 6.92 8.09 6.91
6/30/2021 8:15:00 AM 23.74 74.732 0.115 6.93 9.45 6.98
6/30/2021 8:30:00 AM 23.76 74.768 0.121 6.94 7.97 7.05
6/30/2021 8:45:00 AM 23.8 74.84 0.118 6.95 7.44 7.12
6/30/2021 9:00:00 AM 23.88 74.984 0.13 6.98 8.05 7.21
6/30/2021 9:15:00 AM 24.02 75.236 0.118 7.01 9.01 7.35
6/30/2021 9:30:00 AM 24.19 75.542 0.12 7.03 9.27 7.46
6/30/2021 9:45:00 AM 24.36 75.848 0.117 7.05 8.94 7.58
6/30/2021 10:00:00 AM 24.54 76.172 0.12 7.07 8.1 7.68
6/30/2021 10:15:00 AM 24.58 76.244 0.117 7.06 8.52 7.72
6/30/2021 10:30:00 AM 24.42 75.956 0.12 7.02 8.9 7.71
6/30/2021 10:45:00 AM 24.66 76.388 0.116 7.1 8.15 7.87
6/30/2021 11:00:00 AM 24.86 76.748 0.119 7.12 8.46 7.96
6/30/2021 11:15:00 AM 25.09 77.162 0.117 7.17 7.14 8.02
6/30/2021 11:30:00 AM 25.23 77.414 0.113 7.16 7.75 8.12
6/30/2021 11:45:00 AM 25.46 77.828 0.114 7.19 7.77 8.21
6/30/2021 12:00:00 PM 25.51 77.918 0.116 7.18 8.98 8.27
6/30/2021 12:15:00 PM 25.52 77.936 0.114 7.2 9.93 8.33
6/30/2021 12:30:00 PM 25.63 78.134 0.114 7.22 7.72 8.38
6/30/2021 12:45:00 PM 25.91 78.638 0.113 7.27 7.81 8.48
6/30/2021 1:00:00 PM 26.22 79.196 0.113 7.3 7.33 8.57
6/30/2021 1:15:00 PM 26.57 79.826 0.114 7.34 9.03 8.65
6/30/2021 1:30:00 PM 26.87 80.366 0.115 7.36 7.74 8.67
6/30/2021 1:45:00 PM 27.18 80.924 0.113 7.4 7.4 8.7
6/30/2021 2:00:00 PM 27.38 81.284 0.116 7.43 7.6 8.7
6/30/2021 2:15:00 PM 27.41 81.338 0.112 7.37 7.1 8.59
6/30/2021 2:30:00 PM 27.31 81.158 0.115 7.3 7.09 8.33
6/30/2021 2:45:00 PM 27.61 81.698 0.113 7.38 7.54 8.5
6/30/2021 3:00:00 PM 27.89 82.202 0.116 7.41 6.98 8.54
6/30/2021 3:15:00 PM 28.13 82.634 0.114 7.44 7.4 8.62
6/30/2021 3:30:00 PM 28.16 82.688 0.11 7.43 7.68 8.55
6/30/2021 3:45:00 PM 28.08 82.544 0.114 7.34 7.54 8.29
6/30/2021 4:00:00 PM 28.05 82.49 0.111 7.33 7.47 8.28
6/30/2021 4:15:00 PM 27.88 82.184 0.113 7.27 8.25 8.13
6/30/2021 4:30:00 PM 27.66 81.788 0.113 7.2 8.64 7.91
6/30/2021 4:45:00 PM 27.28 81.104 0.111 7.09 34.33 7.73
6/30/2021 5:00:00 PM 27.19 80.942 0.112 7.14 17.27 7.66
6/30/2021 5:15:00 PM 26.95 80.51 0.109 7.07 38.96 7.55
6/30/2021 5:30:00 PM 26.63 79.934 0.109 7.07 98.25 7.55
6/30/2021 5:45:00 PM 26.56 79.808 0.104 7.09 34.49 7.49
6/30/2021 6:00:00 PM 26.41 79.538 0.102 7.06 24.89 7.43
6/30/2021 6:15:00 PM 26.17 79.106 0.12 7.01 17.38 7.38
6/30/2021 6:30:00 PM 25.87 78.566 0.116 7.02 32.8 7.33
6/30/2021 6:45:00 PM 25.65 78.17 0.126 7.09 48.97 7.25
6/30/2021 7:00:00 PM 25.46 77.828 0.123 7.05 121.34 7.18
6/30/2021 7:15:00 PM 25.27 77.486 0.12 6.98 102.66 7.14
6/30/2021 7:30:00 PM 25.04 77.07201 0.117 6.95 87.74 7.2
6/30/2021 7:45:00 PM 24.31 75.758 0.121 6.83 69.26 7.4
6/30/2021 8:00:00 PM 23.79 74.82201 0.137 6.87 55.73 7.52
6/30/2021 8:15:00 PM 23.46 74.228 0.123 6.93 48.59 7.58
6/30/2021 8:30:00 PM 23.28 73.904 0.12 6.93 43.2 7.6
6/30/2021 8:45:00 PM 23.23 73.814 0.119 6.95 36.37 7.58
6/30/2021 9:00:00 PM 23.23 73.814 0.117 6.96 28.98 7.54
6/30/2021 9:15:00 PM 23.23 73.814 0.114 6.95 24.47 7.5
6/30/2021 9:30:00 PM 23.22 73.796 0.113 6.99 25.09 7.46
6/30/2021 9:45:00 PM 23.19 73.742 0.118 6.95 22.22 7.44
6/30/2021 10:00:00 PM 23.14 73.652 0.118 6.93 25.29 7.41
6/30/2021 10:15:00 PM 23.08 73.544 0.12 6.92 28.17 7.4
6/30/2021 10:30:00 PM 23.03 73.454 0.118 6.92 29.22 7.39
6/30/2021 10:45:00 PM 22.97 73.346 0.12 6.91 30.83 7.38
6/30/2021 11:00:00 PM 22.91 73.238 0.118 6.92 32.46 7.38
6/30/2021 11:15:00 PM 22.84 73.112 0.119 6.91 37.43 7.37
6/30/2021 11:30:00 PM 22.78 73.004 0.116 6.9 27.76 7.37
6/30/2021 11:45:00 PM 22.71 72.878 0.113 6.9 31.78 7.37
7/1/2021 12:00:00 AM 22.62 72.716 0.119 6.89 35.65 7.37
7/1/2021 12:15:00 AM 22.53 72.554 0.114 6.88 38.17 7.38
7/1/2021 12:30:00 AM 22.43 72.374 0.129 6.91 31.21 7.38
7/1/2021 12:45:00 AM 22.33 72.194 0.115 6.88 33.23 7.38
7/1/2021 1:00:00 AM 22.23 72.014 0.113 6.86 34.77 7.39
7/1/2021 1:15:00 AM 22.13 71.834 0.118 6.86 33.1 7.39
7/1/2021 1:30:00 AM 22.05 71.69 0.116 6.86 35.23 7.4
7/1/2021 1:45:00 AM 21.97 71.546 0.118 6.86 32.54 7.4
7/1/2021 2:00:00 AM 21.88 71.384 0.113 6.85 32.3 7.4
7/1/2021 2:15:00 AM 21.8 71.24 0.116 6.86 34.82 7.41
7/1/2021 2:30:00 AM 21.73 71.114 0.111 6.84 27.29 7.42
7/1/2021 2:45:00 AM 21.66 70.988 0.116 6.84 31.79 7.42
7/1/2021 3:00:00 AM 21.6 70.88 0.114 6.84 27.29 7.43
7/1/2021 3:15:00 AM 21.55 70.79 0.126 6.84 27.95 7.42
7/1/2021 3:30:00 AM 21.49 70.682 0.113 6.83 26.14 7.43
7/1/2021 3:45:00 AM 21.45 70.61 0.117 6.84 26.24 7.43
7/1/2021 4:00:00 AM 21.4 70.52 0.112 6.83 22.41 7.44
7/1/2021 4:15:00 AM 21.35 70.43 0.113 6.84 25.6 7.45
7/1/2021 4:30:00 AM 21.31 70.358 0.115 6.83 21.78 7.45
7/1/2021 4:45:00 AM 21.26 70.268 0.112 6.84 20.05 7.45
7/1/2021 5:00:00 AM 21.23 70.214 0.111 6.83 22.59 7.45
7/1/2021 5:15:00 AM 21.19 70.142 0.113 6.83 25.13 7.46
7/1/2021 5:30:00 AM 21.15 70.07 0.113 6.83 19.44 7.46
7/1/2021 5:45:00 AM 21.13 70.034 0.112 6.83 21.6 7.46
7/1/2021 6:00:00 AM 21.09 69.962 0.111 6.83 18.34 7.48
7/1/2021 6:15:00 AM 21.06 69.908 0.113 6.84 19.36 7.49
7/1/2021 6:30:00 AM 21.03 69.854 0.113 6.84 19.6 7.5
7/1/2021 6:45:00 AM 21.01 69.818 0.112 6.85 19.52 7.51
7/1/2021 7:00:00 AM 20.96 69.728 0.111 6.85 19.25 7.52
7/1/2021 7:15:00 AM 20.94 69.692 0.126 6.85 18.26 7.55
7/1/2021 7:30:00 AM 20.91 69.638 0.113 6.85 17.71 7.57
7/1/2021 7:45:00 AM 20.89 69.602 0.112 6.85 16.98 7.6
7/1/2021 8:00:00 AM 20.88 69.584 0.115 6.87 17.62 7.67
7/1/2021 8:15:00 AM 20.86 69.548 0.109 6.88 16.9 7.69
7/1/2021 8:30:00 AM 20.86 69.548 0.108 6.88 16.6 7.75
7/1/2021 8:45:00 AM 20.85 69.53 0.117 6.89 15.4 7.78
7/1/2021 9:00:00 AM 20.83 69.494 0.112 6.89 16.35 7.78
7/1/2021 9:15:00 AM 20.82 69.476 0.116 6.9 14.25 7.83
7/1/2021 9:30:00 AM 20.83 69.494 0.115 6.92 14.18 7.9
7/1/2021 9:45:00 AM 20.85 69.53 0.113 6.93 13.51 7.98
7/1/2021 10:00:00 AM 20.89 69.602 0.112 6.95 15.47 8.06
7/1/2021 10:15:00 AM 20.9 69.62 0.116 6.96 13.31 8.12
7/1/2021 10:30:00 AM 20.92 69.656 0.127 6.97 12.36 8.16
7/1/2021 10:45:00 AM 20.92 69.656 0.116 6.98 12.2 8.21
7/1/2021 11:00:00 AM 20.97 69.746 0.113 7 11.12 8.3
7/1/2021 11:15:00 AM 20.98 69.764 0.117 7 11.82 8.32
7/1/2021 11:30:00 AM 20.99 69.782 0.111 7.01 11.73 8.34
7/1/2021 11:45:00 AM 21 69.8 0.116 7.01 11.1 8.37
7/1/2021 12:00:00 PM 21.02 69.836 0.115 7.02 10.63 8.43
7/1/2021 12:15:00 PM 21.09 69.962 0.127 7.05 10.34 8.51
7/1/2021 12:30:00 PM 21.09 69.962 0.112 7.04 10.37 8.53
7/1/2021 12:45:00 PM 21.08 69.944 0.114 7.04 9.9 8.51
7/1/2021 1:00:00 PM 21.08 69.944 0.112 7.04 9.71 8.54
7/1/2021 1:15:00 PM 21.14 70.052 0.115 7.08 9.27 8.63
7/1/2021 1:30:00 PM 21.16 70.088 0.114 7.07 9.11 8.65
7/1/2021 1:45:00 PM 21.11 69.998 0.112 7.05 9.68 8.53
7/1/2021 2:00:00 PM 21.06 69.908 0.108 7.05 10.62 8.51
7/1/2021 2:15:00 PM 21.04 69.872 0.126 7.05 15.32 8.51
7/1/2021 2:30:00 PM 21.03 69.854 0.112 7.06 15.33 8.51
7/1/2021 2:45:00 PM 21.01 69.818 0.113 7.06 18.24 8.5
7/1/2021 3:00:00 PM 20.98 69.764 0.112 7.05 15.1 8.46
7/1/2021 3:15:00 PM 20.93 69.674 0.113 7.04 15.21 8.46
7/1/2021 3:30:00 PM 20.92 69.656 0.111 7.06 15.2 8.52
7/1/2021 3:45:00 PM 20.9 69.62 0.114 7.07 14.37 8.52
7/1/2021 4:00:00 PM 20.9 69.62 0.115 7.07 16.36 8.51
7/1/2021 4:15:00 PM 20.88 69.584 0.123 7.08 17.77 8.48
7/1/2021 4:30:00 PM 20.87 69.566 0.119 7.07 14.54 8.48
7/1/2021 4:45:00 PM 20.87 69.566 0.125 7.07 18.67 8.48
7/1/2021 5:00:00 PM 20.84 69.512 0.122 7.05 19.39 8.42
7/1/2021 5:15:00 PM 20.78 69.404 0.129 7.04 19 8.39
7/1/2021 5:30:00 PM 20.71 69.278 0.124 7.04 14.26 8.42
7/1/2021 5:45:00 PM 20.59 69.062 0.12 7.01 12.78 8.43
7/1/2021 6:00:00 PM 20.49 68.882 0.124 7.01 18.41 8.43
7/1/2021 6:15:00 PM 20.42 68.756 0.122 7.01 18.49 8.43
7/1/2021 6:30:00 PM 20.4 68.72 0.124 7.03 15.47 8.42
7/1/2021 6:45:00 PM 20.39 68.702 0.121 7.02 18.74 8.39
7/1/2021 7:00:00 PM 20.37 68.666 0.121 7.03 18.74 8.35
7/1/2021 7:15:00 PM 20.35 68.63 0.111 6.98 27.93 8.29
7/1/2021 7:30:00 PM 20.38 68.684 0.104 6.96 41.49 8.26
7/1/2021 7:45:00 PM 20.37 68.666 0.104 6.99 35.5 8.24
7/1/2021 8:00:00 PM 20.33 68.594 0.105 6.95 37.9 8.21
7/1/2021 8:15:00 PM 20.3 68.54 0.104 6.93 37.38 8.18
7/1/2021 8:30:00 PM 20.28 68.504 0.099 6.93 31.14 8.18
7/1/2021 8:45:00 PM 20.25 68.45 0.101 6.93 26.16 8.17
7/1/2021 9:00:00 PM 20.19 68.342 0.096 6.9 22.83 8.17
7/1/2021 9:15:00 PM 20.14 68.252 0.1 6.9 24.69 8.15
7/1/2021 9:30:00 PM 20.1 68.18 0.096 6.89 19.65 8.14
7/1/2021 9:45:00 PM 20.08 68.144 0.096 6.88 24.24 8.12
7/1/2021 10:00:00 PM 20.06 68.108 0.096 6.87 27.33 8.09
7/1/2021 10:15:00 PM 20.03 68.054 0.092 6.91 31.67 8.08
7/1/2021 10:30:00 PM 20 68 0.098 6.86 32.81 8.06
7/1/2021 10:45:00 PM 19.97 67.946 0.093 6.85 31.26 8.05
7/1/2021 11:00:00 PM 19.94 67.892 0.097 6.85 34.85 8.04
7/1/2021 11:15:00 PM 19.92 67.856 0.095 6.84 34.64 8.04
7/1/2021 11:30:00 PM 19.89 67.802 0.106 6.83 34.04 8.03
7/1/2021 11:45:00 PM 19.86 67.748 0.094 6.82 31.25 8.03
7/2/2021 12:00:00 AM 19.84 67.712 0.092 6.82 29.65 8.03
7/2/2021 12:15:00 AM 19.81 67.658 0.105 6.83 26.53 8.02
7/2/2021 12:30:00 AM 19.77 67.586 0.091 6.82 24.99 8.03
7/2/2021 12:45:00 AM 19.75 67.55 0.094 6.83 25.43 8.02
7/2/2021 1:00:00 AM 19.72 67.496 0.093 6.82 20.52 8.03
7/2/2021 1:15:00 AM 19.68 67.424 0.095 6.82 23.12 8.03
7/2/2021 1:30:00 AM 19.65 67.37 0.105 6.83 20.89 8.02
7/2/2021 1:45:00 AM 19.62 67.316 0.094 6.81 20.16 8.03
7/2/2021 2:00:00 AM 19.59 67.262 0.095 6.81 19.57 8.03
7/2/2021 2:15:00 AM 19.56 67.208 0.093 6.81 19.4 8.03
7/2/2021 2:30:00 AM 19.53 67.154 0.093 6.81 16.46 8.03
7/2/2021 2:45:00 AM 19.5 67.1 0.097 6.82 14.92 8.04
7/2/2021 3:00:00 AM 19.47 67.046 0.093 6.81 19.44 8.03
7/2/2021 3:15:00 AM 19.45 67.01 0.095 6.81 22.84 8.04
7/2/2021 3:30:00 AM 19.42 66.956 0.094 6.82 17.16 8.04
7/2/2021 3:45:00 AM 19.39 66.902 0.095 6.81 13.5 8.04
7/2/2021 4:00:00 AM 19.36 66.848 0.093 6.82 19.17 8.04
7/2/2021 4:15:00 AM 19.34 66.812 0.096 6.83 18.05 8.05
7/2/2021 4:30:00 AM 19.31 66.758 0.093 6.82 17.74 8.05
7/2/2021 4:45:00 AM 19.28 66.704 0.096 6.81 18.31 8.05
7/2/2021 5:00:00 AM 19.25 66.65 0.095 6.81 16.5 8.05
7/2/2021 5:15:00 AM 19.22 66.596 0.095 6.84 17.27 8.05
7/2/2021 5:30:00 AM 19.18 66.524 0.093 6.82 16.77 8.06
7/2/2021 5:45:00 AM 19.13 66.434 0.098 6.83 16.08 8.06
7/2/2021 6:00:00 AM 19.09 66.362 0.093 6.82 15.93 8.07
7/2/2021 6:15:00 AM 19.05 66.29 0.093 6.81 17.23 8.08
7/2/2021 6:30:00 AM 19.01 66.218 0.094 6.81 14.57 8.1
7/2/2021 6:45:00 AM 18.98 66.164 0.097 6.81 14.12 8.13
7/2/2021 7:00:00 AM 18.95 66.11 0.092 6.82 13.79 8.15
7/2/2021 7:15:00 AM 18.93 66.074 0.096 6.85 16.81 8.17
7/2/2021 7:30:00 AM 18.91 66.038 0.094 6.83 13.49 8.21
7/2/2021 7:45:00 AM 18.91 66.038 0.095 6.87 12.84 8.27
7/2/2021 8:00:00 AM 18.9 66.02 0.093 6.85 13.17 8.28
7/2/2021 8:15:00 AM 18.87 65.966 0.097 6.87 11.37 8.28
7/2/2021 8:30:00 AM 18.85 65.93 0.095 6.85 11.48 8.3
7/2/2021 8:45:00 AM 18.85 65.93 0.097 6.87 11.13 8.36
7/2/2021 9:00:00 AM 18.84 65.912 0.093 6.87 12.04 8.37
7/2/2021 9:15:00 AM 18.85 65.93 0.097 6.89 11 8.43
7/2/2021 9:30:00 AM 18.86 65.948 0.096 6.89 10.79 8.46
7/2/2021 9:45:00 AM 18.87 65.966 0.091 6.9 10.45 8.51
7/2/2021 10:00:00 AM 18.9 66.02 0.097 6.91 10.66 8.56
7/2/2021 10:15:00 AM 18.91 66.038 0.093 6.92 10.48 8.57
7/2/2021 10:30:00 AM 18.93 66.074 0.096 6.92 9.55 8.62
7/2/2021 10:45:00 AM 19 66.2 0.092 6.97 9.61 8.7
7/2/2021 11:00:00 AM 19.04 66.272 0.093 6.95 9.5 8.73
7/2/2021 11:15:00 AM 19.09 66.362 0.1 6.99 9.02 8.78
7/2/2021 11:30:00 AM 19.18 66.524 0.093 6.98 9.37 8.84
7/2/2021 11:45:00 AM 19.32 66.776 0.098 7.02 9.07 8.89
7/2/2021 12:00:00 PM 19.41 66.938 0.093 7.02 8.82 8.94
7/2/2021 12:15:00 PM 19.51 67.118 0.108 7 8.55 8.95
7/2/2021 12:30:00 PM 19.58 67.244 0.094 7.01 8.58 8.97
7/2/2021 12:45:00 PM 19.74 67.532 0.1 7.05 8.3 9.01
7/2/2021 1:00:00 PM 19.92 67.856 0.096 7.05 8.23 9.02
7/2/2021 1:15:00 PM 20.23 68.414 0.097 7.09 8.25 9.07
7/2/2021 1:30:00 PM 20.48 68.864 0.098 7.1 7.98 9.08
7/2/2021 1:45:00 PM 20.64 69.152 0.099 7.09 7.76 9.09
7/2/2021 2:00:00 PM 20.72 69.296 0.098 7.08 7.94 9.09
7/2/2021 2:15:00 PM 20.99 69.782 0.094 7.11 8.13 9.1
7/2/2021 2:30:00 PM 21.28 70.304 0.098 7.17 7.7 9.11
7/2/2021 2:45:00 PM 21.54 70.772 0.097 7.14 7.93 9.11
7/2/2021 3:00:00 PM 21.8 71.24 0.11 7.16 7.9 9.1
7/2/2021 3:15:00 PM 22.02 71.636 0.098 7.15 7.97 9.09
7/2/2021 3:30:00 PM 21.94 71.492 0.101 7.12 7.51 9.03
7/2/2021 3:45:00 PM 21.89 71.402 0.098 7.09 7.77 9.01
7/2/2021 4:00:00 PM 22.06 71.708 0.11 7.13 7.7 9.01
7/2/2021 4:15:00 PM 22.17 71.906 0.1 7.13 7.5 8.99
7/2/2021 4:30:00 PM 22.17 71.906 0.11 7.11 7.28 8.96
7/2/2021 4:45:00 PM 22.07 71.726 0.097 7.06 7.87 8.89
7/2/2021 5:00:00 PM 21.99 71.582 0.101 7.07 7.79 8.85
7/2/2021 5:15:00 PM 21.92 71.456 0.096 7.06 8.01 8.75
7/2/2021 5:30:00 PM 21.94 71.492 0.111 7.07 7.65 8.7
7/2/2021 5:45:00 PM 21.97 71.546 0.112 7.06 11.86 8.69
7/2/2021 6:00:00 PM 21.86 71.348 0.046 7.02 8.52 8.6
7/2/2021 6:15:00 PM 21.72 71.096 0.111 6.99 7.87 8.5
7/2/2021 6:30:00 PM 21.61 70.898 0.098 6.97 8.04 8.42
7/2/2021 6:45:00 PM 21.52 70.736 0.099 6.97 8.26 8.34
7/2/2021 7:00:00 PM 21.44 70.592 0.1 6.94 8.5 8.27
7/2/2021 7:15:00 PM 21.28 70.304 0.098 6.91 9.07 8.21
7/2/2021 7:30:00 PM 21.06 69.908 0.098 6.89 16.43 8.2
7/2/2021 7:45:00 PM 20.94 69.692 0.099 6.92 19.23 8.17
7/2/2021 8:00:00 PM 20.88 69.584 0.099 6.91 13.18 8.1
7/2/2021 8:15:00 PM 20.82 69.476 0.097 6.93 11.35 8.06
7/2/2021 8:30:00 PM 20.73 69.314 0.098 6.9 10.57 8.05
7/2/2021 8:45:00 PM 20.63 69.134 0.096 6.89 13.22 8.02
7/2/2021 9:00:00 PM 20.54 68.972 0.103 6.89 20.07 7.99
7/2/2021 9:15:00 PM 20.48 68.864 0.1 6.89 23.12 7.96
7/2/2021 9:30:00 PM 20.43 68.774 0.107 6.88 31.64 7.95
7/2/2021 9:45:00 PM 19.77 67.586 0.108 6.82 121.2 8.18
7/2/2021 10:00:00 PM 20.06 68.108 0.095 6.92 90.83 8.09
7/2/2021 10:15:00 PM 19.97 67.946 0.087 6.86 185.05 8.13
7/2/2021 10:30:00 PM 19.23 66.614 0.092 6.66 312.16 8.29
7/2/2021 10:45:00 PM 18.97 66.146 0.089 6.77 331.2 8.34
7/2/2021 11:00:00 PM 18.91 66.038 0.086 6.82 209.61 8.35
7/2/2021 11:15:00 PM 18.78 65.804 0.083 6.78 232.95 8.39
7/2/2021 11:30:00 PM 18.64 65.552 0.081 6.81 210.86 8.42
7/2/2021 11:45:00 PM 18.56 65.408 0.08 6.78 160.31 8.43
7/3/2021 12:00:00 AM 18.54 65.372 0.08 6.79 119.48 8.42
7/3/2021 12:15:00 AM 18.59 65.462 0.08 6.8 116.53 8.38
7/3/2021 12:30:00 AM 18.65 65.57 0.081 6.8 119.38 8.36
7/3/2021 12:45:00 AM 18.69 65.642 0.081 6.82 111.15 8.34
7/3/2021 1:00:00 AM 18.69 65.642 0.082 6.79 71.57 8.34
7/3/2021 1:15:00 AM 18.67 65.606 0.082 6.79 62.46 8.34
7/3/2021 1:30:00 AM 18.63 65.534 0.082 6.78 69.33 8.34
7/3/2021 1:45:00 AM 18.58 65.444 0.082 6.77 65.08 8.35
7/3/2021 2:00:00 AM 18.53 65.354 0.082 6.76 65.05 8.35
7/3/2021 2:15:00 AM 18.48 65.264 0.082 6.76 56.34 8.35
7/3/2021 2:30:00 AM 18.43 65.174 0.083 6.78 44.38 8.37
7/3/2021 2:45:00 AM 18.37 65.066 0.083 6.8 54.39 8.39
7/3/2021 3:00:00 AM 18.3 64.94 0.083 6.76 56.73 8.42
7/3/2021 3:15:00 AM 18.25 64.85 0.085 6.79 41.19 8.42
7/3/2021 3:30:00 AM 18.19 64.742 0.087 6.81 46.76 8.44
7/3/2021 3:45:00 AM 18.14 64.652 0.088 6.79 51.77 8.45
7/3/2021 4:00:00 AM 18.07 64.526 0.09 6.8 60.68 8.46
7/3/2021 4:15:00 AM 18.03 64.454 0.092 6.83 46.14 8.46
7/3/2021 4:30:00 AM 17.8 64.04 0.095 6.78 78.54 8.6
7/3/2021 4:45:00 AM 17.39 63.302 0.093 6.83 281.29 8.87
7/3/2021 5:00:00 AM 17.31 63.158 0.097 6.78 250.54 8.93
7/3/2021 5:15:00 AM 17.28 63.104 0.095 6.86 124.83 8.92
7/3/2021 5:30:00 AM 17.26 63.068 0.093 6.85 109.42 8.9
7/3/2021 5:45:00 AM 17.22 62.996 0.09 6.87 98.66 8.91
7/3/2021 6:00:00 AM 17.14 62.852 0.088 6.84 86.83 8.93
7/3/2021 6:15:00 AM 17.12 62.816 0.089 6.85 53.67 8.92
7/3/2021 6:30:00 AM 17.13 62.834 0.091 6.85 49.31 8.9
7/3/2021 6:45:00 AM 17.15 62.87 0.092 6.88 43.98 8.87
7/3/2021 7:00:00 AM 17.17 62.906 0.092 6.89 35.66 8.85
7/3/2021 7:15:00 AM 17.19 62.942 0.09 6.87 32.16 8.82
7/3/2021 7:30:00 AM 17.2 62.96 0.09 6.87 28.09 8.81
7/3/2021 7:45:00 AM 17.22 62.996 0.089 6.87 28 8.8
7/3/2021 8:00:00 AM 17.25 63.05 0.089 6.85 22.94 8.81
7/3/2021 8:15:00 AM 17.28 63.104 0.089 6.83 21.36 8.81
7/3/2021 8:30:00 AM 17.31 63.158 0.089 6.88 20.41 8.82
7/3/2021 8:45:00 AM 17.33 63.194 0.089 6.87 21.41 8.82
7/3/2021 9:00:00 AM 17.35 63.23 0.089 6.85 19.68 8.83
7/3/2021 9:15:00 AM 17.38 63.284 0.089 6.84 18.85 8.84
7/3/2021 9:30:00 AM 17.41 63.338 0.089 6.84 19.35 8.85
7/3/2021 9:45:00 AM 17.49 63.482 0.089 6.9 15.53 8.89
7/3/2021 10:00:00 AM 17.53 63.554 0.089 6.86 15.12 8.9
7/3/2021 10:15:00 AM 17.59 63.662 0.089 6.87 13.77 8.92
7/3/2021 10:30:00 AM 17.68 63.824 0.089 6.89 18.04 8.95
7/3/2021 10:45:00 AM 17.72 63.896 0.089 6.92 17.96 8.95
7/3/2021 11:00:00 AM 17.78 64.004 0.089 6.88 14.22 8.96
7/3/2021 11:15:00 AM 17.95 64.31 0.089 6.94 18.01 8.99
7/3/2021 11:30:00 AM 18.09 64.562 0.089 6.92 17.89 9
7/3/2021 11:45:00 AM 18.28 64.904 0.089 6.94 16.62 9.02
7/3/2021 12:00:00 PM 18.42 65.156 0.089 6.93 17.42 9.02
7/3/2021 12:15:00 PM 18.45 65.21 0.09 6.91 13.02 8.99
7/3/2021 12:30:00 PM 18.48 65.264 0.09 6.91 18.15 9
7/3/2021 12:45:00 PM 18.66 65.588 0.09 6.97 16.27 9.01
7/3/2021 1:00:00 PM 18.91 66.038 0.092 6.97 16.49 9.02
7/3/2021 1:15:00 PM 19.24 66.632 0.092 6.99 15.72 9.03
7/3/2021 1:30:00 PM 19.25 66.65 0.085 6.96 17.84 8.94
7/3/2021 1:45:00 PM 19.24 66.632 0.091 6.92 16.06 8.91
7/3/2021 2:00:00 PM 19.38 66.884 0.092 6.94 15.82 8.93
7/3/2021 2:15:00 PM 19.33 66.794 0.097 6.91 15.91 8.85
7/3/2021 2:30:00 PM 19.4 66.92 0.092 6.93 17.23 8.89
7/3/2021 2:45:00 PM 19.46 67.028 0.082 6.94 17.81 8.88
7/3/2021 3:00:00 PM 19.48 67.064 0.094 6.92 15.94 8.87
7/3/2021 3:15:00 PM 19.44 66.992 0.093 6.92 16.64 8.86
7/3/2021 3:30:00 PM 19.38 66.884 0.081 6.91 16.21 8.83
7/3/2021 3:45:00 PM 19.28 66.704 0.092 6.92 16.86 8.82
7/3/2021 4:00:00 PM 19.14 66.452 0.09 6.92 15.83 8.83
7/3/2021 4:15:00 PM 19.01 66.218 0.09 6.89 17.76 8.85
7/3/2021 4:30:00 PM 18.98 66.164 0.092 6.92 15.79 8.87
7/3/2021 4:45:00 PM 18.94 66.092 0.097 6.9 17.22 8.83
7/3/2021 5:00:00 PM 18.87 65.966 0.092 6.89 17.64 8.8
7/3/2021 5:15:00 PM 18.83 65.894 0.091 6.9 15.62 8.78
7/3/2021 5:30:00 PM 18.89 66.002 0.089 6.91 15.48 8.79
7/3/2021 5:45:00 PM 18.97 66.146 0.087 6.92 13.99 8.8
7/3/2021 6:00:00 PM 19.02 66.236 0.088 6.96 13.13 8.8
7/3/2021 6:15:00 PM 19.02 66.236 0.087 6.93 18.23 8.78
7/3/2021 6:30:00 PM 18.99 66.182 0.088 6.91 12.74 8.75
7/3/2021 6:45:00 PM 18.94 66.092 0.088 6.92 15.34 8.73
7/3/2021 7:00:00 PM 18.89 66.002 0.089 6.9 15.1 8.72
7/3/2021 7:15:00 PM 18.84 65.912 0.089 6.94 18.56 8.71
7/3/2021 7:30:00 PM 18.81 65.858 0.089 6.9 17.59 8.69
7/3/2021 7:45:00 PM 18.8 65.84 0.088 6.93 18.24 8.68
7/3/2021 8:00:00 PM 18.8 65.84 0.088 6.9 20.25 8.67
7/3/2021 8:15:00 PM 18.81 65.858 0.087 6.89 15.16 8.65
7/3/2021 8:30:00 PM 18.8 65.84 0.087 6.89 19.07 8.63
7/3/2021 8:45:00 PM 18.79 65.82201 0.086 6.91 41.69 8.6
7/3/2021 9:00:00 PM 18.76 65.768 0.087 6.86 27.06 8.57
7/3/2021 9:15:00 PM 18.73 65.714 0.087 6.86 13.01 8.56
7/3/2021 9:30:00 PM 18.7 65.66 0.087 6.85 13.18 8.54
7/3/2021 9:45:00 PM 18.66 65.588 0.087 6.84 12.19 8.53
7/3/2021 10:00:00 PM 18.61 65.498 0.087 6.83 15.31 8.52
7/3/2021 10:15:00 PM 18.57 65.426 0.087 6.86 18.29 8.51
7/3/2021 10:30:00 PM 18.53 65.354 0.087 6.82 15.82 8.5
7/3/2021 10:45:00 PM 18.48 65.264 0.088 6.85 16.91 8.49
7/3/2021 11:00:00 PM 18.43 65.174 0.088 6.8 17.87 8.49
7/3/2021 11:15:00 PM 18.37 65.066 0.089 6.8 16.61 8.49
7/3/2021 11:30:00 PM 18.32 64.976 0.089 6.79 18.35 8.49
7/3/2021 11:45:00 PM 18.27 64.886 0.089 6.8 17.12 8.49
7/4/2021 12:00:00 AM 18.23 64.814 0.089 6.8 15.89 8.49
7/4/2021 12:15:00 AM 18.19 64.742 0.089 6.78 16.23 8.49
7/4/2021 12:30:00 AM 18.14 64.652 0.09 6.8 17.31 8.5
7/4/2021 12:45:00 AM 18.08 64.544 0.09 6.78 17.31 8.49
7/4/2021 1:00:00 AM 18.03 64.454 0.09 6.77 15.37 8.5
7/4/2021 1:15:00 AM 17.98 64.364 0.09 6.79 17.04 8.51
7/4/2021 1:30:00 AM 17.92 64.256 0.09 6.77 15.23 8.51
7/4/2021 1:45:00 AM 17.87 64.166 0.09 6.77 17 8.52
7/4/2021 2:00:00 AM 17.82 64.076 0.09 6.78 14.08 8.52
7/4/2021 2:15:00 AM 17.77 63.986 0.089 6.78 16.65 8.53
7/4/2021 2:30:00 AM 17.72 63.896 0.09 6.77 14.16 8.54
7/4/2021 2:45:00 AM 17.67 63.806 0.091 6.77 16.01 8.55
7/4/2021 3:00:00 AM 17.62 63.716 0.091 6.75 16.29 8.55
7/4/2021 3:15:00 AM 17.57 63.626 0.091 6.77 15.92 8.56
7/4/2021 3:30:00 AM 17.51 63.518 0.092 6.75 15.84 8.57
7/4/2021 3:45:00 AM 17.46 63.428 0.091 6.76 16.07 8.58
7/4/2021 4:00:00 AM 17.41 63.338 0.091 6.77 14.95 8.58
7/4/2021 4:15:00 AM 17.36 63.248 0.091 6.78 15.81 8.59
7/4/2021 4:30:00 AM 17.31 63.158 0.092 6.78 16.72 8.6
7/4/2021 4:45:00 AM 17.26 63.068 0.09 6.76 15.83 8.6
7/4/2021 5:00:00 AM 17.22 62.996 0.091 6.77 17.06 8.61
7/4/2021 5:15:00 AM 17.17 62.906 0.092 6.79 15.91 8.62
7/4/2021 5:30:00 AM 17.13 62.834 0.092 6.77 15.65 8.62
7/4/2021 5:45:00 AM 17.09 62.762 0.092 6.75 14.19 8.62
7/4/2021 6:00:00 AM 17.04 62.672 0.092 6.77 15.29 8.64
7/4/2021 6:15:00 AM 17.01 62.618 0.092 6.8 14.52 8.66
7/4/2021 6:30:00 AM 16.97 62.546 0.092 6.82 14.03 8.68
7/4/2021 6:45:00 AM 16.94 62.492 0.092 6.79 13.21 8.71
7/4/2021 7:00:00 AM 16.91 62.438 0.092 6.79 13.52 8.73
7/4/2021 7:15:00 AM 16.9 62.42 0.092 6.79 13.11 8.77
7/4/2021 7:30:00 AM 16.88 62.384 0.092 6.81 12.26 8.81
7/4/2021 7:45:00 AM 16.87 62.366 0.092 6.82 13.84 8.85
7/4/2021 8:00:00 AM 16.88 62.384 0.092 6.81 11.51 8.9
7/4/2021 8:15:00 AM 16.89 62.402 0.091 6.82 11.89 8.94
7/4/2021 8:30:00 AM 16.91 62.438 0.092 6.86 11.23 8.99
7/4/2021 8:45:00 AM 16.9 62.42 0.093 6.83 12.32 8.98
7/4/2021 9:00:00 AM 16.94 62.492 0.092 6.85 11.95 9
7/4/2021 9:15:00 AM 17.01 62.618 0.093 6.86 12.17 9.02
7/4/2021 9:30:00 AM 17.09 62.762 0.091 6.87 11.47 9.06
7/4/2021 9:45:00 AM 17.2 62.96 0.093 6.88 11.69 9.1
7/4/2021 10:00:00 AM 17.29 63.122 0.093 6.89 10.77 9.13
7/4/2021 10:15:00 AM 17.43 63.374 0.092 6.93 10.78 9.17
7/4/2021 10:30:00 AM 17.59 63.662 0.092 6.94 11.07 9.22
7/4/2021 10:45:00 AM 17.81 64.058 0.093 6.97 10.41 9.24
7/4/2021 11:00:00 AM 17.93 64.274 0.093 6.94 11.33 9.24
7/4/2021 11:15:00 AM 18.16 64.688 0.092 6.96 10.43 9.27
7/4/2021 11:30:00 AM 18.23 64.814 0.093 6.96 10.62 9.26
7/4/2021 11:45:00 AM 18.45 65.21 0.093 6.99 9.75 9.31
7/4/2021 12:00:00 PM 18.59 65.462 0.092 6.99 9.6 9.3
7/4/2021 12:15:00 PM 18.69 65.642 0.092 7.03 9.42 9.28
7/4/2021 12:30:00 PM 18.87 65.966 0.092 7 9.56 9.32
7/4/2021 12:45:00 PM 19.12 66.416 0.092 7.05 9.01 9.34
7/4/2021 1:00:00 PM 19.31 66.758 0.092 7.08 8.98 9.35
7/4/2021 1:15:00 PM 19.47 67.046 0.092 7.1 9.14 9.34
7/4/2021 1:30:00 PM 19.54 67.172 0.083 7.07 9.48 9.32
7/4/2021 1:45:00 PM 19.77 67.586 0.092 7.07 9.29 9.35
7/4/2021 2:00:00 PM 19.76 67.568 0.085 7.04 9.25 9.31
7/4/2021 2:15:00 PM 19.96 67.92799 0.08 7.08 9.52 9.3
7/4/2021 2:30:00 PM 20.01 68.018 0.084 7.05 9.34 9.27
7/4/2021 2:45:00 PM 20.21 68.378 0.082 7.08 11.63 9.28
7/4/2021 3:00:00 PM 20.23 68.414 0.092 7.05 9.32 9.23
7/4/2021 3:15:00 PM 20.36 68.648 0.092 7.11 9.4 9.22
7/4/2021 3:30:00 PM 20.36 68.648 0.093 7.06 9.31 9.18
7/4/2021 3:45:00 PM 20.47 68.846 0.092 7.05 8.99 9.18
7/4/2021 4:00:00 PM 20.61 69.098 0.086 7.07 8.27 9.19
7/4/2021 4:15:00 PM 20.65 69.17 0.085 7.06 10.86 9.14
7/4/2021 4:30:00 PM 20.71 69.278 0.084 7.06 8.77 9.12
7/4/2021 4:45:00 PM 20.73 69.314 0.088 7.08 9 9.07
7/4/2021 5:00:00 PM 20.79 69.422 0.093 7.05 9.25 9.04
7/4/2021 5:15:00 PM 20.81 69.458 0.097 7.04 8.58 8.98
7/4/2021 5:30:00 PM 20.79 69.422 0.083 7.01 9.16 8.93
7/4/2021 5:45:00 PM 20.77 69.386 0.086 6.99 8.48 8.88
7/4/2021 6:00:00 PM 20.73 69.314 0.087 6.97 9.22 8.82
7/4/2021 6:15:00 PM 20.7 69.26 0.087 6.95 8.94 8.76
7/4/2021 6:30:00 PM 20.67 69.206 0.084 6.95 8.83 8.7
7/4/2021 6:45:00 PM 20.64 69.152 0.093 6.94 9.65 8.64
7/4/2021 7:00:00 PM 20.61 69.098 0.085 6.93 9.15 8.59
7/4/2021 7:15:00 PM 20.55 68.99 0.083 6.9 9.46 8.53
7/4/2021 7:30:00 PM 20.5 68.9 0.088 6.89 9.97 8.48
7/4/2021 7:45:00 PM 20.44 68.792 0.082 6.89 9.16 8.43
7/4/2021 8:00:00 PM 20.38 68.684 0.087 6.86 9.59 8.39
7/4/2021 8:15:00 PM 20.31 68.558 0.083 6.85 10.14 8.34
7/4/2021 8:30:00 PM 20.24 68.432 0.084 6.83 9.8 8.3
7/4/2021 8:45:00 PM 20.17 68.306 0.094 6.82 9.64 8.27
7/4/2021 9:00:00 PM 20.1 68.18 0.081 6.83 9.57 8.23
7/4/2021 9:15:00 PM 20.03 68.054 0.089 6.81 10.02 8.21
7/4/2021 9:30:00 PM 19.95 67.91 0.083 6.81 10.4 8.18
7/4/2021 9:45:00 PM 19.88 67.784 0.089 6.81 10.51 8.17
7/4/2021 10:00:00 PM 19.8 67.64 0.088 6.8 10.97 8.16
7/4/2021 10:15:00 PM 19.72 67.496 0.086 6.79 10.49 8.14
7/4/2021 10:30:00 PM 19.63 67.334 0.083 6.78 10.44 8.13
7/4/2021 10:45:00 PM 19.55 67.19 0.095 6.79 10.56 8.13
7/4/2021 11:00:00 PM 19.46 67.028 0.082 6.78 9.93 8.13
7/4/2021 11:15:00 PM 19.37 66.866 0.086 6.76 11.36 8.13
7/4/2021 11:30:00 PM 19.28 66.704 0.089 6.77 10.82 8.13
7/4/2021 11:45:00 PM 19.19 66.542 0.096 6.77 10.93 8.13
7/5/2021 12:00:00 AM 19.09 66.362 0.088 6.76 11.49 8.14
7/5/2021 12:15:00 AM 18.99 66.182 0.085 6.76 10.4 8.14
7/5/2021 12:30:00 AM 18.88 65.984 0.088 6.75 10.95 8.15
7/5/2021 12:45:00 AM 18.78 65.804 0.096 6.74 10.32 8.16
7/5/2021 1:00:00 AM 18.68 65.624 0.101 6.74 10.44 8.17
7/5/2021 1:15:00 AM 18.57 65.426 0.096 6.73 10.5 8.18
7/5/2021 1:30:00 AM 18.46 65.228 0.082 6.74 10.47 8.2
7/5/2021 1:45:00 AM 18.36 65.048 0.096 6.74 11.11 8.22
7/5/2021 2:00:00 AM 18.26 64.868 0.096 6.73 11.07 8.23
7/5/2021 2:15:00 AM 18.16 64.688 0.097 6.73 11.03 8.25
7/5/2021 2:30:00 AM 18.07 64.526 0.096 6.73 10.78 8.27
7/5/2021 2:45:00 AM 17.97 64.346 0.097 6.75 10.27 8.29
7/5/2021 3:00:00 AM 17.88 64.184 0.097 6.73 11.47 8.3
7/5/2021 3:15:00 AM 17.79 64.022 0.101 6.74 10.23 8.33
7/5/2021 3:30:00 AM 17.7 63.86 0.096 6.72 11.24 8.34
7/5/2021 3:45:00 AM 17.62 63.716 0.097 6.74 11.17 8.36
7/5/2021 4:00:00 AM 17.53 63.554 0.085 6.75 11.83 8.37
7/5/2021 4:15:00 AM 17.46 63.428 0.084 6.74 10.19 8.39
7/5/2021 4:30:00 AM 17.38 63.284 0.087 6.73 10.15 8.4
7/5/2021 4:45:00 AM 17.29 63.122 0.097 6.77 11.14 8.42
7/5/2021 5:00:00 AM 17.21 62.978 0.088 6.73 10.32 8.43
7/5/2021 5:15:00 AM 17.13 62.834 0.098 6.74 9.78 8.45
7/5/2021 5:30:00 AM 17.06 62.708 0.089 6.74 10.02 8.46
7/5/2021 5:45:00 AM 16.98 62.564 0.098 6.74 9.75 8.48
7/5/2021 6:00:00 AM 16.91 62.438 0.09 6.76 10.01 8.52
7/5/2021 6:15:00 AM 16.84 62.312 0.098 6.76 10.88 8.55
7/5/2021 6:30:00 AM 16.77 62.186 0.098 6.77 10.19 8.59
7/5/2021 6:45:00 AM 16.72 62.096 0.097 6.77 9.46 8.62
7/5/2021 7:00:00 AM 16.67 62.006 0.098 6.78 9.65 8.67
7/5/2021 7:15:00 AM 16.64 61.952 0.098 6.78 8.77 8.73
7/5/2021 7:30:00 AM 16.61 61.898 0.097 6.78 9.09 8.78
7/5/2021 7:45:00 AM 16.59 61.862 0.097 6.8 9.34 8.83
7/5/2021 8:00:00 AM 16.58 61.844 0.098 6.82 8.58 8.87
7/5/2021 8:15:00 AM 16.58 61.844 0.098 6.82 8.83 8.92
7/5/2021 8:30:00 AM 16.59 61.862 0.099 6.83 8.56 8.98
7/5/2021 8:45:00 AM 16.62 61.916 0.099 6.84 9.04 9.02
7/5/2021 9:00:00 AM 16.66 61.988 0.098 6.88 7.76 9.08
7/5/2021 9:15:00 AM 16.76 62.168 0.099 6.89 8.96 9.14
7/5/2021 9:30:00 AM 16.85 62.33 0.084 6.88 8.05 9.2
7/5/2021 9:45:00 AM 16.94 62.492 0.099 6.91 8.34 9.26
7/5/2021 10:00:00 AM 17.04 62.672 0.098 6.91 7.98 9.31
7/5/2021 10:15:00 AM 17.17 62.906 0.086 6.91 8.39 9.37
7/5/2021 10:30:00 AM 17.32 63.176 0.099 6.96 7.61 9.42
7/5/2021 10:45:00 AM 17.5 63.5 0.083 6.98 7.71 9.47
7/5/2021 11:00:00 AM 17.71 63.878 0.086 7.01 9.57 9.53
7/5/2021 11:15:00 AM 17.95 64.31 0.087 7.01 71.2 9.57
7/5/2021 11:30:00 AM 18.21 64.778 0.081 7.03 8.49 9.61
7/5/2021 11:45:00 AM 18.48 65.264 0.082 7.05 8.22 9.63
7/5/2021 12:00:00 PM 18.76 65.768 0.091 7.07 7.23 9.67
7/5/2021 12:15:00 PM 19.06 66.308 0.104 7.09 7.07 9.69
7/5/2021 12:30:00 PM 19.33 66.794 0.092 7.11 8.17 9.7
7/5/2021 12:45:00 PM 19.52 67.136 0.087 7.14 7.6 9.69
7/5/2021 1:00:00 PM 19.57 67.226 0.091 7.09 8.16 9.64
7/5/2021 1:15:00 PM 19.63 67.334 0.09 7.1 7.44 9.65
7/5/2021 1:30:00 PM 19.91 67.838 0.086 7.15 7.79 9.68
7/5/2021 1:45:00 PM 20.14 68.252 0.098 7.12 8.47 9.63
7/5/2021 2:00:00 PM 20.38 68.684 0.098 7.09 9.5 9.54
7/5/2021 2:15:00 PM 20.63 69.134 0.115 7.07 10.54 9.48
7/5/2021 2:30:00 PM 20.84 69.512 0.11 7.07 10.53 9.46
7/5/2021 2:45:00 PM 21.04 69.872 0.117 7.06 10.13 9.43
7/5/2021 3:00:00 PM 21.24 70.232 0.114 7.07 10.32 9.41
7/5/2021 3:15:00 PM 21.44 70.592 0.116 7.08 10.48 9.43
7/5/2021 3:30:00 PM 21.61 70.898 0.109 7.11 9.09 9.45
7/5/2021 3:45:00 PM 21.76 71.168 0.105 7.12 8.82 9.44
7/5/2021 4:00:00 PM 21.89 71.402 0.102 7.13 8.81 9.44
7/5/2021 4:15:00 PM 21.98 71.564 0.098 7.15 7.76 9.42
7/5/2021 4:30:00 PM 22.04 71.672 0.097 7.15 7.69 9.39
7/5/2021 4:45:00 PM 22.08 71.744 0.096 7.14 8.62 9.35
7/5/2021 5:00:00 PM 22.09 71.762 0.092 7.13 8.35 9.31
7/5/2021 5:15:00 PM 22.08 71.744 0.089 7.13 7.82 9.25
7/5/2021 5:30:00 PM 22.05 71.69 0.107 7.13 7.72 9.21
7/5/2021 5:45:00 PM 22.01 71.618 0.086 7.1 7.79 9.14
7/5/2021 6:00:00 PM 21.98 71.564 0.088 7.08 7.48 9.08
7/5/2021 6:15:00 PM 21.94 71.492 0.089 7.07 7.81 9.01
7/5/2021 6:30:00 PM 21.9 71.42 0.094 7.06 6.1 8.94
7/5/2021 6:45:00 PM 21.86 71.348 0.092 7.04 12.57 8.86
7/5/2021 7:00:00 PM 21.83 71.294 0.075 7 20.41 8.78
7/5/2021 7:15:00 PM 21.79 71.222 0.096 7.02 8.12 8.69
7/5/2021 7:30:00 PM 21.76 71.168 0.093 6.99 7.98 8.61
7/5/2021 7:45:00 PM 21.73 71.114 0.095 6.99 7.21 8.53
7/5/2021 8:00:00 PM 21.7 71.06 0.092 6.96 7.08 8.44
7/5/2021 8:15:00 PM 21.66 70.988 0.087 6.94 7.83 8.34
7/5/2021 8:30:00 PM 21.62 70.916 0.093 6.92 7.84 8.26
7/5/2021 8:45:00 PM 21.58 70.844 0.091 6.9 8.74 8.18
7/5/2021 9:00:00 PM 21.54 70.772 0.093 6.88 7.69 8.11
7/5/2021 9:15:00 PM 21.5 70.7 0.094 6.87 12.59 8.04
7/5/2021 9:30:00 PM 21.45 70.61 0.097 6.85 9.54 7.98
7/5/2021 9:45:00 PM 21.4 70.52 0.092 6.87 8.18 7.93
7/5/2021 10:00:00 PM 21.36 70.448 0.095 6.83 7.98 7.89
7/5/2021 10:15:00 PM 21.31 70.358 0.09 6.83 8.62 7.85
7/5/2021 10:30:00 PM 21.27 70.286 0.093 6.81 8.68 7.83
7/5/2021 10:45:00 PM 21.22 70.196 0.09 6.82 9.34 7.8
7/5/2021 11:00:00 PM 21.18 70.124 0.092 6.82 10.67 7.78
7/5/2021 11:15:00 PM 21.14 70.052 0.088 6.81 9.61 7.76
7/5/2021 11:30:00 PM 21.09 69.962 0.094 6.8 8.72 7.73
7/5/2021 11:45:00 PM 21.05 69.89 0.095 6.8 8.71 7.73
7/6/2021 12:00:00 AM 21 69.8 0.095 6.8 8.81 7.7
7/6/2021 12:15:00 AM 20.95 69.71 0.093 6.78 9.02 7.69
7/6/2021 12:30:00 AM 20.9 69.62 0.097 6.8 9.15 7.68
7/6/2021 12:45:00 AM 20.85 69.53 0.092 6.79 8.6 7.67
7/6/2021 1:00:00 AM 20.8 69.44 0.091 6.78 9.4 7.66
7/6/2021 1:15:00 AM 20.74 69.332 0.099 6.76 9.46 7.65
7/6/2021 1:30:00 AM 20.69 69.242 0.093 6.76 9.71 7.65
7/6/2021 1:45:00 AM 20.63 69.134 0.097 6.76 9.86 7.65
7/6/2021 2:00:00 AM 20.57 69.026 0.091 6.76 9.35 7.65
7/6/2021 2:15:00 AM 20.5 68.9 0.096 6.75 9.02 7.65
7/6/2021 2:30:00 AM 20.44 68.792 0.108 6.76 8.99 7.66
7/6/2021 2:45:00 AM 20.37 68.666 0.096 6.77 8.53 7.67
7/6/2021 3:00:00 AM 20.29 68.522 0.095 6.75 9.32 7.67
7/6/2021 3:15:00 AM 20.23 68.414 0.095 6.75 9.54 7.68
7/6/2021 3:30:00 AM 20.17 68.306 0.09 6.77 9.37 7.69
7/6/2021 3:45:00 AM 20.09 68.162 0.095 6.77 9.88 7.69
7/6/2021 4:00:00 AM 20.02 68.036 0.092 6.77 9.6 7.7
7/6/2021 4:15:00 AM 19.94 67.892 0.097 6.76 9.43 7.72
7/6/2021 4:30:00 AM 19.87 67.766 0.094 6.75 10.23 7.73
7/6/2021 4:45:00 AM 19.81 67.658 0.087 6.75 9.6 7.74
7/6/2021 5:00:00 AM 19.75 67.55 0.095 6.76 9.83 7.75
7/6/2021 5:15:00 AM 19.68 67.424 0.093 6.77 9.38 7.77
7/6/2021 5:30:00 AM 19.62 67.316 0.11 6.77 9.57 7.77
7/6/2021 5:45:00 AM 19.56 67.208 0.109 6.76 9.12 7.8
7/6/2021 6:00:00 AM 19.51 67.118 0.098 6.77 8.95 7.82
7/6/2021 6:15:00 AM 19.45 67.01 0.109 6.78 9.63 7.86
7/6/2021 6:30:00 AM 19.41 66.938 0.098 6.77 8.68 7.89
7/6/2021 6:45:00 AM 19.37 66.866 0.091 6.78 8.66 7.95
7/6/2021 7:00:00 AM 19.34 66.812 0.096 6.79 8.53 8.02
7/6/2021 7:15:00 AM 19.31 66.758 0.095 6.79 8.46 8.09
7/6/2021 7:30:00 AM 19.28 66.704 0.11 6.67 8.02 8.13
7/6/2021 7:45:00 AM 19.25 66.65 0.093 6.81 7.63 8.16
7/6/2021 8:00:00 AM 19.23 66.614 0.095 6.82 8.44 8.23
7/6/2021 8:15:00 AM 19.25 66.65 0.098 6.83 8.17 8.36
7/6/2021 8:30:00 AM 19.28 66.704 0.091 6.87 7.95 8.47
7/6/2021 8:45:00 AM 19.33 66.794 0.099 6.88 8.45 8.56
7/6/2021 9:00:00 AM 19.35 66.83 0.093 6.89 8.31 8.63
7/6/2021 9:15:00 AM 19.47 67.046 0.093 6.93 8.04 8.75
7/6/2021 9:30:00 AM 19.58 67.244 0.099 6.94 7.93 8.85
7/6/2021 9:45:00 AM 19.69 67.442 0.094 6.97 7.56 8.92
7/6/2021 10:00:00 AM 19.76 67.568 0.097 6.98 7.47 9.01
7/6/2021 10:15:00 AM 19.84 67.712 0.095 7.02 7.64 9.09
7/6/2021 10:30:00 AM 19.95 67.91 0.092 7.02 7.86 9.17
7/6/2021 10:45:00 AM 20.02 68.036 0.091 7.03 7.59 9.21
7/6/2021 11:00:00 AM 20.19 68.342 0.098 7.07 7.16 9.28
7/6/2021 11:15:00 AM 20.38 68.684 0.092 7.09 7.35 9.37
7/6/2021 11:30:00 AM 20.59 69.062 0.097 7.13 7.27 9.44
7/6/2021 11:45:00 AM 20.72 69.296 0.097 7.13 7.58 9.48
7/6/2021 12:00:00 PM 20.91 69.638 0.1 7.17 7.41 9.54
7/6/2021 12:15:00 PM 21.14 70.052 0.096 7.2 7.43 9.61
7/6/2021 12:30:00 PM 21.3 70.34 0.09 7.21 7.2 9.62
7/6/2021 12:45:00 PM 21.52 70.736 0.097 7.25 6.79 9.64
7/6/2021 1:00:00 PM 21.76 71.168 0.094 7.26 6.64 9.7
7/6/2021 1:15:00 PM 22.07 71.726 0.097 7.33 5.83 9.75
7/6/2021 1:30:00 PM 22.29 72.122 0.097 7.32 6.6 9.75
7/6/2021 1:45:00 PM 22.48 72.464 0.094 7.34 6.49 9.75
7/6/2021 2:00:00 PM 22.68 72.824 0.097 7.37 6.2 9.78
7/6/2021 2:15:00 PM 22.93 73.274 0.093 7.39 6.62 9.81
7/6/2021 2:30:00 PM 23.21 73.778 0.098 7.43 6.67 9.82
7/6/2021 2:45:00 PM 23.42 74.156 0.096 7.44 6.16 9.8
7/6/2021 3:00:00 PM 23.61 74.498 0.1 7.46 6.39 9.81
7/6/2021 3:15:00 PM 23.66 74.588 0.094 7.43 6.48 9.71
7/6/2021 3:30:00 PM 23.5 74.3 0.097 7.27 6.62 9.32
7/6/2021 3:45:00 PM 23.36 74.048 0.11 7.19 6.53 9.11
7/6/2021 4:00:00 PM 23.32 73.976 0.097 7.2 7.13 9.07
7/6/2021 4:15:00 PM 23.32 73.976 0.096 7.21 6.41 9.09
7/6/2021 4:30:00 PM 23.25 73.85 0.095 7.2 5.88 9.07
7/6/2021 4:45:00 PM 23.16 73.688 0.101 7.19 6.36 9.07
7/6/2021 5:00:00 PM 23.07 73.526 0.096 7.18 5.93 9.08
7/6/2021 5:15:00 PM 23 73.4 0.099 7.19 6.07 9.08
7/6/2021 5:30:00 PM 22.95 73.31 0.094 7.22 6.02 9.1
7/6/2021 5:45:00 PM 22.96 73.328 0.1 7.21 5.98 9.11
7/6/2021 6:00:00 PM 22.96 73.328 0.097 7.23 6.2 9.12
7/6/2021 6:15:00 PM 22.9 73.22 0.1 7.17 6.06 9
7/6/2021 6:30:00 PM 22.82 73.076 0.094 7.14 6.36 8.85
7/6/2021 6:45:00 PM 22.82 73.076 0.109 7.15 7.43 8.83
7/6/2021 7:00:00 PM 22.82 73.076 0.099 7.15 10.05 8.71
7/6/2021 7:15:00 PM 22.82 73.076 0.095 7.14 8.48 8.62
7/6/2021 7:30:00 PM 22.8 73.04 0.099 7.13 7.14 8.56
7/6/2021 7:45:00 PM 22.73 72.914 0.096 7.07 7.33 8.49
7/6/2021 8:00:00 PM 22.61 72.698 0.098 7.03 7.25 8.35
7/6/2021 8:15:00 PM 22.51 72.518 0.097 7 7.13 8.24
7/6/2021 8:30:00 PM 22.44 72.392 0.097 6.99 8.21 8.17
7/6/2021 8:45:00 PM 22.4 72.32 0.093 6.97 7.98 8.11
7/6/2021 9:00:00 PM 22.38 72.284 0.092 6.97 8.08 8.07
7/6/2021 9:15:00 PM 22.35 72.23 0.09 6.94 8.43 8.01
7/6/2021 9:30:00 PM 22.3 72.14 0.092 6.95 9.27 7.94
7/6/2021 9:45:00 PM 22.27 72.086 0.092 6.94 10.12 7.88
7/6/2021 10:00:00 PM 22.24 72.032 0.092 6.91 9.88 7.82
7/6/2021 10:15:00 PM 22.23 72.014 0.089 6.9 9.83 7.78
7/6/2021 10:30:00 PM 22.22 71.996 0.092 6.9 10.57 7.75
7/6/2021 10:45:00 PM 22.2 71.96 0.088 6.91 10.62 7.72
7/6/2021 11:00:00 PM 22.19 71.942 0.084 6.87 10.47 7.69
7/6/2021 11:15:00 PM 22.16 71.888 0.085 6.87 10.72 7.66
7/6/2021 11:30:00 PM 22.11 71.798 0.085 6.86 11.51 7.64
7/6/2021 11:45:00 PM 22.04 71.672 0.09 6.85 11.01 7.63
7/7/2021 12:00:00 AM 21.95 71.51 0.091 6.83 10.69 7.62
7/7/2021 12:15:00 AM 21.83 71.294 0.088 6.82 11.32 7.62
7/7/2021 12:30:00 AM 21.72 71.096 0.086 6.82 10.97 7.63
7/7/2021 12:45:00 AM 21.6 70.88 0.086 6.81 11.06 7.64
7/7/2021 1:00:00 AM 21.48 70.664 0.086 6.82 12.59 7.64
7/7/2021 1:15:00 AM 21.36 70.448 0.085 6.8 11.43 7.64
7/7/2021 1:30:00 AM 21.24 70.232 0.086 6.8 11.24 7.65
7/7/2021 1:45:00 AM 21.12 70.016 0.086 6.78 12.05 7.68
7/7/2021 2:00:00 AM 21.01 69.818 0.102 6.79 11.14 7.68
7/7/2021 2:15:00 AM 20.9 69.62 0.088 6.77 12.14 7.69
7/7/2021 2:30:00 AM 20.79 69.422 0.09 6.77 11.46 7.71
7/7/2021 2:45:00 AM 20.69 69.242 0.089 6.78 12.5 7.72
7/7/2021 3:00:00 AM 20.6 69.08 0.088 6.78 11.97 7.74
7/7/2021 3:15:00 AM 20.5 68.9 0.09 6.77 12.02 7.75
7/7/2021 3:30:00 AM 20.41 68.738 0.087 6.81 11.66 7.76
7/7/2021 3:45:00 AM 20.33 68.594 0.093 6.78 12.04 7.77
7/7/2021 4:00:00 AM 20.25 68.45 0.091 6.77 11.87 7.78
7/7/2021 4:15:00 AM 20.18 68.324 0.093 6.78 12.65 7.79
7/7/2021 4:30:00 AM 20.1 68.18 0.091 6.76 12.32 7.8
7/7/2021 4:45:00 AM 20.04 68.07201 0.088 6.76 11.48 7.81
7/7/2021 5:00:00 AM 19.97 67.946 0.104 6.77 11.93 7.82
7/7/2021 5:15:00 AM 19.9 67.82 0.088 6.78 11.42 7.83
7/7/2021 5:30:00 AM 19.84 67.712 0.092 6.79 10.3 7.84
7/7/2021 5:45:00 AM 19.78 67.604 0.087 6.79 10.17 7.85
7/7/2021 6:00:00 AM 19.73 67.514 0.093 6.78 10.71 7.87
7/7/2021 6:15:00 AM 19.68 67.424 0.093 6.77 9.84 7.9
7/7/2021 6:30:00 AM 19.64 67.352 0.106 6.82 10.18 7.96
7/7/2021 6:45:00 AM 19.61 67.298 0.093 6.8 9.9 8.02
7/7/2021 7:00:00 AM 19.59 67.262 0.089 6.82 9.83 8.11
7/7/2021 7:15:00 AM 19.58 67.244 0.095 6.83 10.15 8.17
7/7/2021 7:30:00 AM 19.57 67.226 0.088 6.85 8.91 8.24
7/7/2021 7:45:00 AM 19.56 67.208 0.095 6.85 9.32 8.3
7/7/2021 8:00:00 AM 19.55 67.19 0.093 6.86 8.72 8.36
7/7/2021 8:15:00 AM 19.59 67.262 0.093 6.9 9.21 8.51
7/7/2021 8:30:00 AM 19.6 67.28 0.093 6.91 9.23 8.56
7/7/2021 8:45:00 AM 19.63 67.334 0.086 6.92 9.65 8.64
7/7/2021 9:00:00 AM 19.68 67.424 0.094 6.95 8.69 8.75
7/7/2021 9:15:00 AM 19.76 67.568 0.09 6.95 8.38 8.85
7/7/2021 9:30:00 AM 19.75 67.55 0.095 6.96 9.19 8.89
7/7/2021 9:45:00 AM 19.89 67.802 0.095 7.01 7.99 9.03
7/7/2021 10:00:00 AM 19.99 67.982 0.094 7.05 7.75 9.12
7/7/2021 10:15:00 AM 20.12 68.216 0.092 7.06 8.11 9.2
7/7/2021 10:30:00 AM 20.16 68.288 0.09 7.06 7.18 9.22
7/7/2021 10:45:00 AM 20.21 68.378 0.096 7.11 7.65 9.25
7/7/2021 11:00:00 AM 20.39 68.702 0.095 7.15 7.39 9.38
7/7/2021 11:15:00 AM 20.59 69.062 0.093 7.16 7.83 9.47
7/7/2021 11:30:00 AM 20.75 69.35 0.095 7.19 7.47 9.53
7/7/2021 11:45:00 AM 20.94 69.692 0.093 7.2 7.18 9.58
7/7/2021 12:00:00 PM 21.16 70.088 0.096 7.23 7.13 9.65
7/7/2021 12:15:00 PM 21.44 70.592 0.09 7.29 6.97 9.73
7/7/2021 12:30:00 PM 21.65 70.97 0.096 7.32 7.45 9.74
7/7/2021 12:45:00 PM 21.94 71.492 0.093 7.36 6.43 9.8
7/7/2021 1:00:00 PM 22.11 71.798 0.096 7.37 7.09 9.77
7/7/2021 1:15:00 PM 22.38 72.284 0.094 7.4 6.78 9.84
7/7/2021 1:30:00 PM 22.7 72.86 0.091 7.47 6.76 9.9
7/7/2021 1:45:00 PM 22.98 73.364 0.097 7.49 7.98 9.92
7/7/2021 2:00:00 PM 23.23 73.814 0.092 7.55 7.17 9.93
7/7/2021 2:15:00 PM 23.39 74.102 0.096 7.54 6.92 9.9
7/7/2021 2:30:00 PM 23.6 74.48 0.095 7.56 6.48 9.93
7/7/2021 2:45:00 PM 23.78 74.804 0.097 7.59 6.67 9.93
7/7/2021 3:00:00 PM 23.89 75.002 0.094 7.62 6.91 9.91
7/7/2021 3:15:00 PM 24.01 75.218 0.096 7.61 7.81 9.89
7/7/2021 3:30:00 PM 24.1 75.38 0.094 7.61 7.16 9.86
7/7/2021 3:45:00 PM 24.18 75.524 0.098 7.62 6.65 9.81
7/7/2021 4:00:00 PM 24.24 75.632 0.095 7.59 6.75 9.76
7/7/2021 4:15:00 PM 24.33 75.794 0.096 7.61 7.23 9.73
7/7/2021 4:30:00 PM 24.4 75.92 0.092 7.61 6.92 9.69
7/7/2021 4:45:00 PM 24.41 75.938 0.096 7.61 6.95 9.63
7/7/2021 5:00:00 PM 24.41 75.938 0.092 7.57 6.64 9.57
7/7/2021 5:15:00 PM 24.37 75.866 0.097 7.54 6.72 9.47
7/7/2021 5:30:00 PM 24.35 75.83 0.092 7.49 6.71 9.41
7/7/2021 5:45:00 PM 24.33 75.794 0.097 7.47 6.34 9.33
7/7/2021 6:00:00 PM 24.3 75.74 0.095 7.42 6.66 9.24
7/7/2021 6:15:00 PM 24.25 75.65 0.099 7.4 6.77 9.16
7/7/2021 6:30:00 PM 24.2 75.56 0.092 7.36 7.16 9.06
7/7/2021 6:45:00 PM 24.12 75.416 0.097 7.28 8.1 8.93
7/7/2021 7:00:00 PM 24.06 75.308 0.093 7.27 6.88 8.81
7/7/2021 7:15:00 PM 24.01 75.218 0.097 7.2 6.2 8.66
7/7/2021 7:30:00 PM 23.95 75.11 0.095 7.15 6.18 8.51
7/7/2021 7:45:00 PM 23.89 75.002 0.091 7.1 6.79 8.36
7/7/2021 8:00:00 PM 23.83 74.894 0.099 7.09 6.44 8.23
7/7/2021 8:15:00 PM 23.79 74.82201 0.11 7.05 6.25 8.15
7/7/2021 8:30:00 PM 23.74 74.732 0.098 7.04 7.34 8.02
7/7/2021 8:45:00 PM 23.68 74.624 0.095 6.98 6.73 7.91
7/7/2021 9:00:00 PM 23.63 74.534 0.093 6.96 7.39 7.79
7/7/2021 9:15:00 PM 23.58 74.444 0.095 6.94 7.16 7.7
7/7/2021 9:30:00 PM 23.53 74.354 0.098 6.93 7.45 7.63
7/7/2021 9:45:00 PM 23.48 74.264 0.093 6.92 7.88 7.58
7/7/2021 10:00:00 PM 23.08 73.544 0.095 6.82 120.47 7.72
7/7/2021 10:15:00 PM 22.79 73.022 0.09 6.86 96.85 7.75
7/7/2021 10:30:00 PM 22.87 73.166 0.1 6.92 45.46 7.62
7/7/2021 10:45:00 PM 22.4 72.32 0.108 7.23 91.55 7.71
7/7/2021 11:00:00 PM 22.08 71.744 0.112 7.11 119.45 7.76
7/7/2021 11:15:00 PM 21.69 71.042 0.106 6.92 158.32 7.79
7/7/2021 11:30:00 PM 20.72 69.296 0.111 6.73 168.6 8.08
7/7/2021 11:45:00 PM 20.54 68.972 0.102 6.86 124.85 8.16
7/8/2021 12:00:00 AM 20.55 68.99 0.097 6.91 92.53 8.15
7/8/2021 12:15:00 AM 20.58 69.044 0.096 6.88 80.52 8.1
7/8/2021 12:30:00 AM 20.62 69.116 0.093 6.89 48.27 8.05
7/8/2021 12:45:00 AM 20.66 69.188 0.097 6.88 45.89 8.01
7/8/2021 1:00:00 AM 20.61 69.098 0.092 6.85 46.51 8.01
7/8/2021 1:15:00 AM 20.44 68.792 0.092 6.81 49.49 8.04
7/8/2021 1:30:00 AM 20.34 68.612 0.085 6.81 52.51 8.07
7/8/2021 1:45:00 AM 20.23 68.414 0.086 6.8 60.01 8.07
7/8/2021 2:00:00 AM 20.12 68.216 0.083 6.78 69.81 8.09
7/8/2021 2:15:00 AM 20.08 68.144 0.09 6.84 57.9 8.1
7/8/2021 2:30:00 AM 20.03 68.054 0.089 6.82 53.74 8.13
7/8/2021 2:45:00 AM 19.97 67.946 0.086 6.8 48.91 8.16
7/8/2021 3:00:00 AM 19.93 67.874 0.084 6.78 51.46 8.16
7/8/2021 3:15:00 AM 19.9 67.82 0.083 6.78 53.37 8.15
7/8/2021 3:30:00 AM 19.89 67.802 0.083 6.77 39.86 8.14
7/8/2021 3:45:00 AM 19.87 67.766 0.083 6.77 59.66 8.14
7/8/2021 4:00:00 AM 19.83 67.694 0.084 6.77 49.53 8.14
7/8/2021 4:15:00 AM 19.78 67.604 0.084 6.77 43.31 8.14
7/8/2021 4:30:00 AM 19.73 67.514 0.083 6.79 43.06 8.15
7/8/2021 4:45:00 AM 19.67 67.406 0.083 6.74 38.31 8.15
7/8/2021 5:00:00 AM 19.63 67.334 0.082 6.75 35.15 8.16
7/8/2021 5:15:00 AM 19.58 67.244 0.082 6.75 32.31 8.17
7/8/2021 5:30:00 AM 19.53 67.154 0.082 6.75 32.85 8.17
7/8/2021 5:45:00 AM 19.49 67.082 0.083 6.74 30.15 8.17
7/8/2021 6:00:00 AM 19.45 67.01 0.082 6.76 27.56 8.18
7/8/2021 6:15:00 AM 19.41 66.938 0.082 6.74 25.99 8.19
7/8/2021 6:30:00 AM 19.38 66.884 0.082 6.74 28.17 8.19
7/8/2021 6:45:00 AM 19.35 66.83 0.083 6.72 25.28 8.2
7/8/2021 7:00:00 AM 19.31 66.758 0.083 6.74 25.42 8.21
7/8/2021 7:15:00 AM 19.29 66.722 0.084 6.77 26.45 8.24
7/8/2021 7:30:00 AM 19.28 66.704 0.084 6.74 22.71 8.26
7/8/2021 7:45:00 AM 19.27 66.686 0.084 6.76 21.78 8.28
7/8/2021 8:00:00 AM 19.29 66.722 0.084 6.76 17.25 8.31
7/8/2021 8:15:00 AM 19.29 66.722 0.084 6.79 15.05 8.34
7/8/2021 8:30:00 AM 19.3 66.74 0.083 6.76 21.58 8.36
7/8/2021 8:45:00 AM 19.33 66.794 0.084 6.82 24.18 8.41
7/8/2021 9:00:00 AM 19.37 66.866 0.084 6.8 19.06 8.44
7/8/2021 9:15:00 AM 19.43 66.974 0.084 6.84 13.77 8.5
7/8/2021 9:30:00 AM 19.47 67.046 0.084 6.82 18.63 8.53
7/8/2021 9:45:00 AM 19.53 67.154 0.084 6.83 18.48 8.58
7/8/2021 10:00:00 AM 19.62 67.316 0.083 6.84 16.98 8.63
7/8/2021 10:15:00 AM 19.7 67.46 0.083 6.85 18.38 8.66
7/8/2021 10:30:00 AM 19.79 67.622 0.084 6.86 17.69 8.72
7/8/2021 10:45:00 AM 19.87 67.766 0.084 6.87 18.18 8.76
7/8/2021 11:00:00 AM 19.93 67.874 0.084 6.91 17.04 8.79
7/8/2021 11:15:00 AM 20.01 68.018 0.084 6.9 16.89 8.82
7/8/2021 11:30:00 AM 20.08 68.144 0.084 6.92 15.52 8.85
7/8/2021 11:45:00 AM 20.12 68.216 0.084 6.9 15.16 8.83
7/8/2021 12:00:00 PM 20.15 68.27 0.084 6.9 15.34 8.82
7/8/2021 12:15:00 PM 20.2 68.36 0.084 6.91 15.48 8.82
7/8/2021 12:30:00 PM 20.23 68.414 0.085 6.89 14.58 8.82
7/8/2021 12:45:00 PM 20.3 68.54 0.085 6.92 13.78 8.85
7/8/2021 1:00:00 PM 20.38 68.684 0.085 6.94 14.58 8.89
7/8/2021 1:15:00 PM 20.43 68.774 0.085 6.93 15.57 8.87
7/8/2021 1:30:00 PM 20.48 68.864 0.085 6.93 13.42 8.88
7/8/2021 1:45:00 PM 20.52 68.936 0.085 6.93 12.43 8.86
7/8/2021 2:00:00 PM 20.57 69.026 0.085 6.94 13.18 8.87
7/8/2021 2:15:00 PM 20.62 69.116 0.085 6.97 13.02 8.88
7/8/2021 2:30:00 PM 20.69 69.242 0.085 6.96 13.29 8.91
7/8/2021 2:45:00 PM 20.72 69.296 0.085 6.98 13.37 8.87
7/8/2021 3:00:00 PM 20.76 69.368 0.085 6.97 12.36 8.9
7/8/2021 3:15:00 PM 20.78 69.404 0.085 6.97 11.79 8.87
7/8/2021 3:30:00 PM 20.82 69.476 0.085 6.97 12.22 8.88
7/8/2021 3:45:00 PM 20.84 69.512 0.086 6.95 13.3 8.85
7/8/2021 4:00:00 PM 20.85 69.53 0.084 6.95 12.79 8.83
7/8/2021 4:15:00 PM 20.89 69.602 0.086 6.98 13.56 8.84
7/8/2021 4:30:00 PM 20.93 69.674 0.086 7 12.44 8.86
7/8/2021 4:45:00 PM 20.95 69.71 0.086 6.97 13.02 8.84
7/8/2021 5:00:00 PM 20.95 69.71 0.086 6.99 11.5 8.8
7/8/2021 5:15:00 PM 20.94 69.692 0.086 6.95 12.25 8.73
7/8/2021 5:30:00 PM 20.9 69.62 0.086 6.93 13 8.65
7/8/2021 5:45:00 PM 20.88 69.584 0.086 6.92 12.34 8.58
7/8/2021 6:00:00 PM 20.86 69.548 0.086 6.89 13.22 8.56
7/8/2021 6:15:00 PM 20.85 69.53 0.087 6.9 11.73 8.53
7/8/2021 6:30:00 PM 20.84 69.512 0.087 6.88 5.75 8.51
7/8/2021 6:45:00 PM 20.82 69.476 0.087 6.87 11.22 8.47
7/8/2021 7:00:00 PM 20.79 69.422 0.087 6.85 11.61 8.41
7/8/2021 7:15:00 PM 20.76 69.368 0.087 6.86 11.04 8.37
7/8/2021 7:30:00 PM 20.74 69.332 0.087 6.85 10.96 8.34
7/8/2021 7:45:00 PM 20.71 69.278 0.087 6.84 10.59 8.28
7/8/2021 8:00:00 PM 20.68 69.224 0.087 6.82 11.24 8.26
7/8/2021 8:15:00 PM 20.64 69.152 0.087 6.79 10.58 8.21
7/8/2021 8:30:00 PM 20.61 69.098 0.088 6.79 9.99 8.18
7/8/2021 8:45:00 PM 20.57 69.026 0.088 6.78 11.08 8.14
7/8/2021 9:00:00 PM 20.53 68.954 0.088 6.78 11.89 8.1
7/8/2021 9:15:00 PM 20.48 68.864 0.088 6.77 10.62 8.09
7/8/2021 9:30:00 PM 20.45 68.81 0.087 6.76 12.02 8.07
7/8/2021 9:45:00 PM 20.41 68.738 0.088 6.77 12.34 8.05
7/8/2021 10:00:00 PM 20.37 68.666 0.088 6.77 11.45 8.03
7/8/2021 10:15:00 PM 20.33 68.594 0.089 6.76 11.16 8.02
7/8/2021 10:30:00 PM 20.28 68.504 0.088 6.77 10.36 8.01
7/8/2021 10:45:00 PM 20.24 68.432 0.088 6.76 11.33 8
7/8/2021 11:00:00 PM 20.2 68.36 0.089 6.77 10.86 7.99
7/8/2021 11:15:00 PM 20.15 68.27 0.089 6.75 11.77 7.99
7/8/2021 11:30:00 PM 20.11 68.198 0.089 6.75 10.36 7.99
7/8/2021 11:45:00 PM 20.06 68.108 0.088 6.74 11.05 7.98
7/9/2021 12:00:00 AM 20.02 68.036 0.089 6.74 10.74 7.99
7/9/2021 12:15:00 AM 19.98 67.964 0.089 6.74 11.39 7.98
7/9/2021 12:30:00 AM 19.94 67.892 0.089 6.73 11.15 7.99
7/9/2021 12:45:00 AM 19.9 67.82 0.089 6.76 11.24 7.99
7/9/2021 1:00:00 AM 19.86 67.748 0.09 6.76 12.19 7.99
7/9/2021 1:15:00 AM 19.82 67.676 0.089 6.74 11.93 7.99
7/9/2021 1:30:00 AM 19.79 67.622 0.09 6.74 12.94 8
7/9/2021 1:45:00 AM 19.75 67.55 0.089 6.73 12.04 8.01
7/9/2021 2:00:00 AM 19.71 67.478 0.09 6.75 11.67 8.01
7/9/2021 2:15:00 AM 19.68 67.424 0.09 6.73 12.27 8.01
7/9/2021 2:30:00 AM 19.64 67.352 0.088 6.73 11.7 8.02
7/9/2021 2:45:00 AM 19.61 67.298 0.09 6.73 12.85 8.02
7/9/2021 3:00:00 AM 19.58 67.244 0.09 6.74 12.42 8.02
7/9/2021 3:15:00 AM 19.54 67.172 0.09 6.73 12.6 8.03
7/9/2021 3:30:00 AM 19.5 67.1 0.09 6.74 12.4 8.03
7/9/2021 3:45:00 AM 19.47 67.046 0.091 6.74 11.84 8.04
7/9/2021 4:00:00 AM 19.43 66.974 0.09 6.73 11.58 8.04
7/9/2021 4:15:00 AM 19.39 66.902 0.091 6.73 13.58 8.05
7/9/2021 4:30:00 AM 19.34 66.812 0.091 6.77 13.54 8.05
7/9/2021 4:45:00 AM 19.3 66.74 0.091 6.77 11.39 8.06
7/9/2021 5:00:00 AM 19.26 66.668 0.091 6.74 11.74 8.07
7/9/2021 5:15:00 AM 19.22 66.596 0.09 6.73 12.42 8.07
7/9/2021 5:30:00 AM 19.18 66.524 0.092 6.73 38.62 8.07
7/9/2021 5:45:00 AM 19.15 66.47 0.091 6.73 11.26 8.08
7/9/2021 6:00:00 AM 19.12 66.416 0.091 6.73 10.79 8.09
7/9/2021 6:15:00 AM 19.1 66.38 0.091 6.74 10.51 8.11
7/9/2021 6:30:00 AM 19.08 66.344 0.091 6.77 10.17 8.13
7/9/2021 6:45:00 AM 19.07 66.326 0.091 6.77 10.9 8.16
7/9/2021 7:00:00 AM 19.05 66.29 0.092 6.79 11.7 8.19
7/9/2021 7:15:00 AM 19.04 66.272 0.092 6.77 11.45 8.23
7/9/2021 7:30:00 AM 19.04 66.272 0.092 6.77 10.26 8.31
7/9/2021 7:45:00 AM 19.04 66.272 0.092 6.82 11.22 8.36
7/9/2021 8:00:00 AM 19.05 66.29 0.092 6.83 11.33 8.43
7/9/2021 8:15:00 AM 19.06 66.308 0.092 6.8 10.63 8.48
7/9/2021 8:30:00 AM 19.07 66.326 0.092 6.82 10.63 8.54
7/9/2021 8:45:00 AM 19.12 66.416 0.092 6.83 10.11 8.62
7/9/2021 9:00:00 AM 19.19 66.542 0.092 6.86 9.69 8.7
7/9/2021 9:15:00 AM 19.28 66.704 0.092 6.9 9.72 8.8
7/9/2021 9:30:00 AM 19.32 66.776 0.091 6.9 9.58 8.86
7/9/2021 9:45:00 AM 19.38 66.884 0.091 6.92 9.32 8.93
7/9/2021 10:00:00 AM 19.45 67.01 0.091 6.97 9.2 9.01
7/9/2021 10:15:00 AM 19.55 67.19 0.078 6.96 10.21 9.09
7/9/2021 10:30:00 AM 19.64 67.352 0.092 6.99 9.31 9.12
7/9/2021 10:45:00 AM 19.72 67.496 0.077 6.98 8.32 9.17
7/9/2021 11:00:00 AM 19.84 67.712 0.084 7.06 8.84 9.27
7/9/2021 11:15:00 AM 19.89 67.802 0.092 7.02 8.96 9.25
7/9/2021 11:30:00 AM 20.12 68.216 0.083 7.08 8.41 9.37
7/9/2021 11:45:00 AM 20.15 68.27 0.092 7.04 8.98 9.33
7/9/2021 12:00:00 PM 20.26 68.468 0.084 7.07 8.59 9.36
7/9/2021 12:15:00 PM 20.37 68.666 0.092 7.08 8.67 9.34
7/9/2021 12:30:00 PM 20.56 69.008 0.082 7.12 8.28 9.44
7/9/2021 12:45:00 PM 20.77 69.386 0.092 7.12 8.39 9.47
7/9/2021 1:00:00 PM 20.85 69.53 0.092 7.13 8.44 9.49
7/9/2021 1:15:00 PM 21.03 69.854 0.091 7.18 8.35 9.52
7/9/2021 1:30:00 PM 21.2 70.16 0.092 7.2 8.16 9.57
7/9/2021 1:45:00 PM 21.33 70.394 0.082 7.2 8.57 9.56
7/9/2021 2:00:00 PM 21.39 70.502 0.078 7.22 7.57 9.57
7/9/2021 2:15:00 PM 21.44 70.592 0.084 7.24 7.59 9.56
7/9/2021 2:30:00 PM 21.49 70.682 0.084 7.21 7.89 9.51
7/9/2021 2:45:00 PM 21.55 70.79 0.081 7.23 8.1 9.53
7/9/2021 3:00:00 PM 21.64 70.952 0.091 7.24 7.57 9.53
7/9/2021 3:15:00 PM 21.76 71.168 0.08 7.24 8.46 9.53
7/9/2021 3:30:00 PM 21.99 71.582 0.083 7.28 8.16 9.54
7/9/2021 3:45:00 PM 22.12 71.816 0.085 7.29 7.73 9.52
7/9/2021 4:00:00 PM 22.12 71.816 0.082 7.21 7.08 9.33
7/9/2021 4:15:00 PM 22.07 71.726 0.085 7.13 8.46 9.09
7/9/2021 4:30:00 PM 22.01 71.618 0.083 7.11 8.27 8.99
7/9/2021 4:45:00 PM 21.92 71.456 0.081 7.08 8.37 8.92
7/9/2021 5:00:00 PM 21.84 71.312 0.08 7.06 8.22 8.85
7/9/2021 5:15:00 PM 21.8 71.24 0.085 7.06 8.96 8.85
7/9/2021 5:30:00 PM 21.87 71.366 0.086 7.1 9.88 8.96
7/9/2021 5:45:00 PM 21.97 71.546 0.086 7.12 8.89 9.02
7/9/2021 6:00:00 PM 21.96 71.528 0.08 7.09 8.57 8.92
7/9/2021 6:15:00 PM 21.98 71.564 0.082 7.09 8.15 8.89
7/9/2021 6:30:00 PM 21.95 71.51 0.087 7.07 8.78 8.78
7/9/2021 6:45:00 PM 21.92 71.456 0.089 7.03 8.52 8.69
7/9/2021 7:00:00 PM 21.89 71.402 0.084 7.02 8.8 8.63
7/9/2021 7:15:00 PM 21.84 71.312 0.082 6.99 9.87 8.5
7/9/2021 7:30:00 PM 21.82 71.276 0.082 6.98 10.01 8.49
7/9/2021 7:45:00 PM 21.77 71.186 0.097 6.96 9.24 8.42
7/9/2021 8:00:00 PM 21.71 71.078 0.097 6.93 9.66 8.32
7/9/2021 8:15:00 PM 21.64 70.952 0.097 6.92 9.85 8.25
7/9/2021 8:30:00 PM 21.56 70.808 0.082 6.88 9.62 8.19
7/9/2021 8:45:00 PM 21.48 70.664 0.081 6.9 9.9 8.13
7/9/2021 9:00:00 PM 21.42 70.556 0.085 6.88 9.37 8.07
7/9/2021 9:15:00 PM 21.36 70.448 0.081 6.87 11.7 8.04
7/9/2021 9:30:00 PM 21.31 70.358 0.083 6.86 11.6 8
7/9/2021 9:45:00 PM 21.26 70.268 0.087 6.85 9.57 7.97
7/9/2021 10:00:00 PM 21.19 70.142 0.089 6.83 9.33 7.95
7/9/2021 10:15:00 PM 21.11 69.998 0.086 6.83 9.07 7.92
7/9/2021 10:30:00 PM 21.03 69.854 0.092 6.82 9.95 7.91
7/9/2021 10:45:00 PM 20.95 69.71 0.088 6.81 10.03 7.88
7/9/2021 11:00:00 PM 20.86 69.548 0.085 6.81 10.44 7.88
7/9/2021 11:15:00 PM 20.78 69.404 0.081 6.79 10.95 7.87
7/9/2021 11:30:00 PM 20.7 69.26 0.086 6.79 10.96 7.86
7/9/2021 11:45:00 PM 20.62 69.116 0.087 6.79 10.75 7.87
7/10/2021 12:00:00 AM 20.55 68.99 0.086 6.79 11.95 7.87
7/10/2021 12:15:00 AM 20.47 68.846 0.089 6.79 11.01 7.87
7/10/2021 12:30:00 AM 20.41 68.738 0.092 6.79 11.13 7.88
7/10/2021 12:45:00 AM 20.35 68.63 0.085 6.79 10.43 7.88
7/10/2021 1:00:00 AM 20.3 68.54 0.086 6.79 10.73 7.88
7/10/2021 1:15:00 AM 20.24 68.432 0.084 6.79 10.74 7.88
7/10/2021 1:30:00 AM 20.19 68.342 0.093 6.78 9.96 7.89
7/10/2021 1:45:00 AM 20.14 68.252 0.082 6.79 10.73 7.89
7/10/2021 2:00:00 AM 20.08 68.144 0.092 6.78 10.63 7.89
7/10/2021 2:15:00 AM 20.03 68.054 0.098 6.82 10.87 7.9
7/10/2021 2:30:00 AM 19.98 67.964 0.086 6.78 10.75 7.91
7/10/2021 2:45:00 AM 19.92 67.856 0.08 6.79 10.48 7.91
7/10/2021 3:00:00 AM 19.87 67.766 0.094 6.78 10.56 7.93
7/10/2021 3:15:00 AM 19.82 67.676 0.083 6.78 10.8 7.93
7/10/2021 3:30:00 AM 19.77 67.586 0.089 6.79 12.2 7.94
7/10/2021 3:45:00 AM 19.73 67.514 0.08 6.8 11.37 7.94
7/10/2021 4:00:00 AM 19.68 67.424 0.099 6.79 10.49 7.95
7/10/2021 4:15:00 AM 19.63 67.334 0.095 6.77 10.04 7.96
7/10/2021 4:30:00 AM 19.58 67.244 0.083 6.77 10.96 7.96
7/10/2021 4:45:00 AM 19.54 67.172 0.083 6.78 10.41 7.97
7/10/2021 5:00:00 AM 19.49 67.082 0.094 6.79 10.81 7.98
7/10/2021 5:15:00 AM 19.44 66.992 0.082 6.77 10.45 7.99
7/10/2021 5:30:00 AM 19.39 66.902 0.088 6.78 10.92 8
7/10/2021 5:45:00 AM 19.35 66.83 0.086 6.78 10.64 8.01
7/10/2021 6:00:00 AM 19.31 66.758 0.088 6.8 10.59 8.03
7/10/2021 6:15:00 AM 19.27 66.686 0.085 6.78 9.87 8.05
7/10/2021 6:30:00 AM 19.23 66.614 0.087 6.79 9.89 8.09
7/10/2021 6:45:00 AM 19.2 66.56 0.094 6.79 9.03 8.12
7/10/2021 7:00:00 AM 19.18 66.524 0.085 6.79 9.39 8.17
7/10/2021 7:15:00 AM 19.15 66.47 0.079 6.81 8.99 8.2
7/10/2021 7:30:00 AM 19.12 66.416 0.088 6.84 10.11 8.24
7/10/2021 7:45:00 AM 19.13 66.434 0.094 6.84 9.57 8.37
7/10/2021 8:00:00 AM 19.11 66.398 0.083 6.84 9.35 8.4
7/10/2021 8:15:00 AM 19.12 66.416 0.096 6.88 8.99 8.53
7/10/2021 8:30:00 AM 19.13 66.434 0.096 6.89 8.54 8.61
7/10/2021 8:45:00 AM 19.11 66.398 0.088 6.88 8.63 8.6
7/10/2021 9:00:00 AM 19.1 66.38 0.081 6.89 8.39 8.65
7/10/2021 9:15:00 AM 19.1 66.38 0.086 6.91 8.31 8.72
7/10/2021 9:30:00 AM 19.09 66.362 0.096 6.91 9.15 8.76
7/10/2021 9:45:00 AM 19.08 66.344 0.095 6.93 8.74 8.8
7/10/2021 10:00:00 AM 19.07 66.326 0.095 6.92 8.52 8.82
7/10/2021 10:15:00 AM 19.07 66.326 0.086 6.94 9.17 8.89
7/10/2021 10:30:00 AM 19.09 66.362 0.08 6.99 8.44 8.99
7/10/2021 10:45:00 AM 19.11 66.398 0.094 6.98 8.31 9.06
7/10/2021 11:00:00 AM 19.11 66.398 0.081 6.99 7.99 9.05
7/10/2021 11:15:00 AM 19.11 66.398 0.089 6.99 8.07 9.11
7/10/2021 11:30:00 AM 19.12 66.416 0.095 7.01 7.79 9.15
7/10/2021 11:45:00 AM 19.18 66.524 0.095 7.04 7.29 9.31
7/10/2021 12:00:00 PM 19.35 66.83 0.081 7.1 7.37 9.46
7/10/2021 12:15:00 PM 19.48 67.064 0.094 7.11 7.75 9.56
7/10/2021 12:30:00 PM 19.5 67.1 0.086 7.12 7.55 9.61
7/10/2021 12:45:00 PM 19.68 67.424 0.083 7.19 7.45 9.75
7/10/2021 1:00:00 PM 20 68 0.085 7.26 8.67 9.82
7/10/2021 1:15:00 PM 20.19 68.342 0.084 7.25 7.6 9.84
7/10/2021 1:30:00 PM 20.35 68.63 0.095 7.26 7.3 9.84
7/10/2021 1:45:00 PM 20.62 69.116 0.087 7.31 7.17 9.89
7/10/2021 2:00:00 PM 20.74 69.332 0.095 7.29 7.39 9.85
7/10/2021 2:15:00 PM 20.92 69.656 0.081 7.33 7.11 9.91
7/10/2021 2:30:00 PM 20.98 69.764 0.099 7.2 7.63 9.91
7/10/2021 2:45:00 PM 21.04 69.872 0.083 7.33 7.29 9.9
7/10/2021 3:00:00 PM 21.17 70.106 0.099 7.4 6.91 9.93
7/10/2021 3:15:00 PM 21.31 70.358 0.084 7.4 7.63 9.95
7/10/2021 3:30:00 PM 21.45 70.61 0.088 7.4 7.64 9.93
7/10/2021 3:45:00 PM 21.52 70.736 0.088 7.39 7.43 9.87
7/10/2021 4:00:00 PM 21.55 70.79 0.087 7.37 6.92 9.81
7/10/2021 4:15:00 PM 21.63 70.934 0.082 7.36 7.58 9.78
7/10/2021 4:30:00 PM 21.6 70.88 0.087 7.32 7.32 9.7
7/10/2021 4:45:00 PM 21.64 70.952 0.083 7.33 7.57 9.66
7/10/2021 5:00:00 PM 21.61 70.898 0.086 7.3 6.52 9.56
7/10/2021 5:15:00 PM 21.67 71.006 0.081 7.31 7.8 9.55
7/10/2021 5:30:00 PM 21.75 71.15 0.087 7.29 7.1 9.5
7/10/2021 5:45:00 PM 21.74 71.132 0.088 7.26 6.89 9.37
7/10/2021 6:00:00 PM 21.74 71.132 0.086 7.22 6.96 9.25
7/10/2021 6:15:00 PM 21.76 71.168 0.083 7.22 6.54 9.15
7/10/2021 6:30:00 PM 21.73 71.114 0.089 7.16 7.65 9.03
7/10/2021 6:45:00 PM 21.73 71.114 0.082 7.12 6.93 8.94
7/10/2021 7:00:00 PM 21.72 71.096 0.084 7.1 7.2 8.83
7/10/2021 7:15:00 PM 21.71 71.078 0.1 7.08 6.62 8.73
7/10/2021 7:30:00 PM 21.7 71.06 0.082 7.04 7.04 8.62
7/10/2021 7:45:00 PM 21.69 71.042 0.084 7.02 7.48 8.53
7/10/2021 8:00:00 PM 21.67 71.006 0.089 7 7.68 8.44
7/10/2021 8:15:00 PM 21.64 70.952 0.1 6.97 7.26 8.35
7/10/2021 8:30:00 PM 21.59 70.862 0.086 6.95 7.78 8.27
7/10/2021 8:45:00 PM 21.52 70.736 0.084 6.95 7.53 8.18
7/10/2021 9:00:00 PM 21.45 70.61 0.082 6.91 7.78 8.1
7/10/2021 9:15:00 PM 21.38 70.484 0.084 6.89 7.45 8.04
7/10/2021 9:30:00 PM 21.31 70.358 0.086 6.87 8.11 7.99
7/10/2021 9:45:00 PM 21.24 70.232 0.088 6.86 8.09 7.95
7/10/2021 10:00:00 PM 21.16 70.088 0.089 6.85 8.43 7.92
7/10/2021 10:15:00 PM 21.07 69.926 0.084 6.84 8.48 7.89
7/10/2021 10:30:00 PM 20.98 69.764 0.09 6.83 8.84 7.87
7/10/2021 10:45:00 PM 20.88 69.584 0.096 6.81 8.21 7.86
7/10/2021 11:00:00 PM 20.78 69.404 0.084 6.8 9.15 7.84
7/10/2021 11:15:00 PM 20.68 69.224 0.089 6.8 10.21 7.83
7/10/2021 11:30:00 PM 20.57 69.026 0.083 6.79 7.88 7.83
7/10/2021 11:45:00 PM 20.46 68.828 0.082 6.78 8.16 7.82
7/11/2021 12:00:00 AM 20.34 68.612 0.087 6.78 7.81 7.82
7/11/2021 12:15:00 AM 20.23 68.414 0.085 6.82 7.85 7.82
7/11/2021 12:30:00 AM 20.12 68.216 0.083 6.81 8.72 7.82
7/11/2021 12:45:00 AM 20.01 68.018 0.088 6.77 9.11 7.83
7/11/2021 1:00:00 AM 19.9 67.82 0.086 6.77 8.5 7.83
7/11/2021 1:15:00 AM 19.79 67.622 0.085 6.78 8.18 7.85
7/11/2021 1:30:00 AM 19.68 67.424 0.091 6.76 8.88 7.86
7/11/2021 1:45:00 AM 19.57 67.226 0.088 6.76 8.35 7.86
7/11/2021 2:00:00 AM 19.47 67.046 0.089 6.76 8.1 7.88
7/11/2021 2:15:00 AM 19.36 66.848 0.103 6.76 8.29 7.89
7/11/2021 2:30:00 AM 19.26 66.668 0.085 6.75 8.05 7.91
7/11/2021 2:45:00 AM 19.17 66.506 0.099 6.76 9 7.92
7/11/2021 3:00:00 AM 19.08 66.344 0.089 6.76 9.2 7.93
7/11/2021 3:15:00 AM 18.99 66.182 0.09 6.77 7.95 7.95
7/11/2021 3:30:00 AM 18.91 66.038 0.087 6.77 7.9 7.97
7/11/2021 3:45:00 AM 18.82 65.876 0.09 6.76 8.71 7.98
7/11/2021 4:00:00 AM 18.74 65.732 0.088 6.76 9.08 7.99
7/11/2021 4:15:00 AM 18.66 65.588 0.089 6.77 8.56 8.01
7/11/2021 4:30:00 AM 18.59 65.462 0.09 6.76 9.24 8.02
7/11/2021 4:45:00 AM 18.52 65.336 0.088 6.77 8.65 8.04
7/11/2021 5:00:00 AM 18.45 65.21 0.09 6.78 9 8.05
7/11/2021 5:15:00 AM 18.38 65.084 0.088 6.77 9.15 8.06
7/11/2021 5:30:00 AM 18.31 64.958 0.091 6.79 8.25 8.08
7/11/2021 5:45:00 AM 18.25 64.85 0.087 6.77 7.53 8.1
7/11/2021 6:00:00 AM 18.2 64.76 0.09 6.79 7.8 8.12
7/11/2021 6:15:00 AM 18.14 64.652 0.087 6.78 7.73 8.14
7/11/2021 6:30:00 AM 18.09 64.562 0.093 6.78 7.87 8.18
7/11/2021 6:45:00 AM 18.04 64.472 0.088 6.79 8.41 8.22
7/11/2021 7:00:00 AM 18 64.4 0.089 6.79 7.94 8.28
7/11/2021 7:15:00 AM 17.96 64.328 0.098 6.79 8.2 8.34
7/11/2021 7:30:00 AM 17.93 64.274 0.085 6.81 7.41 8.41
7/11/2021 7:45:00 AM 17.92 64.256 0.085 6.82 8.2 8.52
7/11/2021 8:00:00 AM 17.91 64.238 0.086 6.85 7.87 8.62
7/11/2021 8:15:00 AM 17.9 64.22 0.105 6.86 7.67 8.72
7/11/2021 8:30:00 AM 17.92 64.256 0.084 6.88 7.38 8.86
7/11/2021 8:45:00 AM 17.95 64.31 0.087 6.92 7.58 9
7/11/2021 9:00:00 AM 17.99 64.382 0.085 6.98 7.47 9.12
7/11/2021 9:15:00 AM 18 64.4 0.084 6.95 7.49 9.2
7/11/2021 9:30:00 AM 18.05 64.49 0.09 6.97 7.45 9.31
7/11/2021 9:45:00 AM 18.09 64.562 0.1 6.99 7.1 9.4
7/11/2021 10:00:00 AM 18.1 64.58 0.093 7 7.63 9.39
7/11/2021 10:15:00 AM 18.11 64.598 0.088 6.99 8.06 9.39
7/11/2021 10:30:00 AM 18.13 64.634 0.092 7.01 7.19 9.41
7/11/2021 10:45:00 AM 18.16 64.688 0.089 7.03 7.38 9.48
7/11/2021 11:00:00 AM 18.17 64.706 0.085 7.01 6.73 9.49
7/11/2021 11:15:00 AM 18.17 64.706 0.091 7.02 9.86 9.47
7/11/2021 11:30:00 AM 18.19 64.742 0.086 7.05 6.57 9.53
7/11/2021 11:45:00 AM 18.2 64.76 0.092 7.04 7.23 9.52
7/11/2021 12:00:00 PM 18.21 64.778 0.104 7.06 7.39 9.52
7/11/2021 12:15:00 PM 18.23 64.814 0.089 7.05 7.57 9.55
7/11/2021 12:30:00 PM 18.26 64.868 0.082 7.07 7.19 9.59
7/11/2021 12:45:00 PM 18.27 64.886 0.088 7.07 6.47 9.58
7/11/2021 1:00:00 PM 18.29 64.922 0.088 7.08 7.56 9.58
7/11/2021 1:15:00 PM 18.3 64.94 0.089 7.09 6.93 9.58
7/11/2021 1:30:00 PM 18.31 64.958 0.099 7.08 7.33 9.54
7/11/2021 1:45:00 PM 18.34 65.012 0.084 7.1 7 9.6
7/11/2021 2:00:00 PM 18.35 65.03 0.087 7.09 7.05 9.54
7/11/2021 2:15:00 PM 18.36 65.048 0.087 7.08 7.02 9.48
7/11/2021 2:30:00 PM 18.38 65.084 0.08 7.08 7.05 9.53
7/11/2021 2:45:00 PM 18.4 65.12 0.082 7.09 6.31 9.54
7/11/2021 3:00:00 PM 18.41 65.138 0.085 7.06 6.54 9.46
7/11/2021 3:15:00 PM 18.41 65.138 0.089 7.06 6.53 9.37
7/11/2021 3:30:00 PM 18.42 65.156 0.082 7.06 6.47 9.35
7/11/2021 3:45:00 PM 18.43 65.174 0.104 7.05 6.22 9.28
7/11/2021 4:00:00 PM 18.44 65.192 0.084 7.03 7.32 9.21
7/11/2021 4:15:00 PM 18.44 65.192 0.089 7.02 6.6 9.14
7/11/2021 4:30:00 PM 18.44 65.192 0.088 6.93 6.95 9.08
7/11/2021 4:45:00 PM 18.44 65.192 0.09 7 6.79 9.04
7/11/2021 5:00:00 PM 18.44 65.192 0.099 6.99 6.95 9
7/11/2021 5:15:00 PM 18.45 65.21 0.089 6.99 6.61 8.96
7/11/2021 5:30:00 PM 18.45 65.21 0.083 6.97 7.08 8.93
7/11/2021 5:45:00 PM 18.46 65.228 0.083 6.97 12.53 8.91
7/11/2021 6:00:00 PM 18.46 65.228 0.089 6.97 8.73 8.86
7/11/2021 6:15:00 PM 18.47 65.246 0.081 7 8.09 8.82
7/11/2021 6:30:00 PM 18.46 65.228 0.088 6.96 10.53 8.76
7/11/2021 6:45:00 PM 18.45 65.21 0.082 6.94 9.05 8.71
7/11/2021 7:00:00 PM 18.44 65.192 0.09 6.94 8.41 8.66
7/11/2021 7:15:00 PM 18.43 65.174 0.084 6.94 8.48 8.61
7/11/2021 7:30:00 PM 18.41 65.138 0.09 6.92 9.37 8.57
7/11/2021 7:45:00 PM 18.4 65.12 0.093 6.92 11.2 8.53
7/11/2021 8:00:00 PM 18.39 65.102 0.096 6.91 11.92 8.49
7/11/2021 8:15:00 PM 18.37 65.066 0.094 6.92 10.13 8.46
7/11/2021 8:30:00 PM 18.35 65.03 0.097 6.92 11.91 8.45
7/11/2021 8:45:00 PM 18.32 64.976 0.091 6.91 20.54 8.45
7/11/2021 9:00:00 PM 18.29 64.922 0.099 6.93 50.45 8.46
7/11/2021 9:15:00 PM 18.24 64.832 0.095 6.91 26.54 8.46
7/11/2021 9:30:00 PM 18.2 64.76 0.1 6.94 21.55 8.47
7/11/2021 9:45:00 PM 18.12 64.616 0.103 6.94 31.62 8.52
7/11/2021 10:00:00 PM 17.75 63.95 0.12 6.99 92.91 8.81
7/11/2021 10:15:00 PM 17.77 63.986 0.107 7.02 138.35 8.9
7/11/2021 10:30:00 PM 17.79 64.022 0.124 7.04 131.94 8.9
7/11/2021 10:45:00 PM 17.82 64.076 0.099 6.98 110.25 8.87
7/11/2021 11:00:00 PM 17.84 64.112 0.102 6.97 71.95 8.83
7/11/2021 11:15:00 PM 17.86 64.148 0.098 6.94 58 8.79
7/11/2021 11:30:00 PM 17.86 64.148 0.101 6.96 42.98 8.75
7/11/2021 11:45:00 PM 17.86 64.148 0.115 6.92 34.91 8.71
7/12/2021 12:00:00 AM 17.85 64.13 0.097 6.91 28.74 8.68
7/12/2021 12:15:00 AM 17.83 64.094 0.1 6.89 24.12 8.66
7/12/2021 12:30:00 AM 17.81 64.058 0.097 6.91 21.76 8.65
7/12/2021 12:45:00 AM 17.81 64.058 0.099 6.9 18.8 8.64
7/12/2021 1:00:00 AM 17.79 64.022 0.09 6.89 16.66 8.63
7/12/2021 1:15:00 AM 17.77 63.986 0.088 6.88 15.23 8.63
7/12/2021 1:30:00 AM 17.73 63.914 0.089 6.88 16.43 8.65
7/12/2021 1:45:00 AM 17.7 63.86 0.092 6.88 21.35 8.66
7/12/2021 2:00:00 AM 17.68 63.824 0.083 6.85 18.43 8.66
7/12/2021 2:15:00 AM 17.67 63.806 0.09 6.86 18.4 8.66
7/12/2021 2:30:00 AM 17.66 63.788 0.082 6.88 21.02 8.65
7/12/2021 2:45:00 AM 17.66 63.788 0.089 6.88 18.21 8.65
7/12/2021 3:00:00 AM 17.66 63.788 0.089 6.85 18.25 8.65
7/12/2021 3:15:00 AM 17.66 63.788 0.103 6.85 16.82 8.64
7/12/2021 3:30:00 AM 17.67 63.806 0.102 6.84 16.68 8.63
7/12/2021 3:45:00 AM 17.68 63.824 0.083 6.84 18.33 8.63
7/12/2021 4:00:00 AM 17.68 63.824 0.079 6.83 17.51 8.63
7/12/2021 4:15:00 AM 17.69 63.842 0.096 6.84 17.3 8.62
7/12/2021 4:30:00 AM 17.69 63.842 0.083 6.82 14.88 8.62
7/12/2021 4:45:00 AM 17.7 63.86 0.095 6.82 16.93 8.61
7/12/2021 5:00:00 AM 17.7 63.86 0.095 6.81 14.92 8.61
7/12/2021 5:15:00 AM 17.7 63.86 0.08 6.79 15.81 8.6
7/12/2021 5:30:00 AM 17.7 63.86 0.096 6.81 15.55 8.6
7/12/2021 5:45:00 AM 17.7 63.86 0.095 6.8 16.69 8.6
7/12/2021 6:00:00 AM 17.7 63.86 0.076 6.78 17.25 8.59
7/12/2021 6:15:00 AM 17.69 63.842 0.095 6.79 15.71 8.6
7/12/2021 6:30:00 AM 17.7 63.86 0.095 6.79 16.21 8.61
7/12/2021 6:45:00 AM 17.7 63.86 0.095 6.8 15.15 8.62
7/12/2021 7:00:00 AM 17.71 63.878 0.096 6.79 14.82 8.63
7/12/2021 7:15:00 AM 17.73 63.914 0.096 6.81 13.81 8.66
7/12/2021 7:30:00 AM 17.74 63.932 0.08 6.8 13.93 8.68
7/12/2021 7:45:00 AM 17.77 63.986 0.096 6.8 12.71 8.71
7/12/2021 8:00:00 AM 17.79 64.022 0.088 6.81 12.29 8.75
7/12/2021 8:15:00 AM 17.84 64.112 0.08 6.82 13.11 8.81
7/12/2021 8:30:00 AM 17.88 64.184 0.096 6.83 12.92 8.86
7/12/2021 8:45:00 AM 17.92 64.256 0.08 6.88 12.15 8.89
7/12/2021 9:00:00 AM 17.96 64.328 0.095 6.85 11.34 8.93
7/12/2021 9:15:00 AM 17.98 64.364 0.095 6.85 11.93 8.92
7/12/2021 9:30:00 AM 18.03 64.454 0.079 6.84 11.04 8.97
7/12/2021 9:45:00 AM 18.05 64.49 0.085 6.86 11.18 8.95
7/12/2021 10:00:00 AM 18.08 64.544 0.082 6.86 10.71 9
7/12/2021 10:15:00 AM 18.13 64.634 0.096 6.88 10.33 9.03
7/12/2021 10:30:00 AM 18.16 64.688 0.096 6.89 10.87 9.04
7/12/2021 10:45:00 AM 18.2 64.76 0.082 6.88 10.33 9.07
7/12/2021 11:00:00 AM 18.24 64.832 0.086 6.92 10.24 9.07
7/12/2021 11:15:00 AM 18.3 64.94 0.079 6.92 9.72 9.14
7/12/2021 11:30:00 AM 18.36 65.048 0.087 6.92 9.99 9.19
7/12/2021 11:45:00 AM 18.43 65.174 0.087 6.93 9.28 9.25
7/12/2021 12:00:00 PM 18.52 65.336 0.095 6.96 9.52 9.32
7/12/2021 12:15:00 PM 18.61 65.498 0.085 6.98 9.23 9.37
7/12/2021 12:30:00 PM 18.74 65.732 0.095 6.99 9.42 9.44
7/12/2021 12:45:00 PM 18.85 65.93 0.099 7.05 8.97 9.46
7/12/2021 1:00:00 PM 18.99 66.182 0.082 7.04 9.71 9.53
7/12/2021 1:15:00 PM 19.16 66.488 0.083 7.05 8.51 9.59
7/12/2021 1:30:00 PM 19.35 66.83 0.082 7.08 9.47 9.64
7/12/2021 1:45:00 PM 19.49 67.082 0.095 7.09 8.62 9.66
7/12/2021 2:00:00 PM 19.8 67.64 0.08 7.11 8.42 9.7
7/12/2021 2:15:00 PM 19.92 67.856 0.094 7.11 8.77 9.7
7/12/2021 2:30:00 PM 20.1 68.18 0.087 7.12 8.93 9.68
7/12/2021 2:45:00 PM 20.22 68.396 0.08 7.14 8.09 9.64
7/12/2021 3:00:00 PM 20.27 68.486 0.086 7.11 8.97 9.57
7/12/2021 3:15:00 PM 20.25 68.45 0.085 7.09 7.97 9.51
7/12/2021 3:30:00 PM 20.41 68.738 0.082 7.12 8.22 9.54
7/12/2021 3:45:00 PM 20.45 68.81 0.082 7.1 8.22 9.5
7/12/2021 4:00:00 PM 20.45 68.81 0.079 7.1 8.83 9.48
7/12/2021 4:15:00 PM 20.44 68.792 0.08 7.08 8.16 9.43
7/12/2021 4:30:00 PM 20.44 68.792 0.084 7.09 8.39 9.38
7/12/2021 4:45:00 PM 20.46 68.828 0.085 7.07 8.1 9.36
7/12/2021 5:00:00 PM 20.48 68.864 0.08 7.04 10.13 9.31
7/12/2021 5:15:00 PM 20.49 68.882 0.086 7.04 9.05 9.16
7/12/2021 5:30:00 PM 20.52 68.936 0.081 7 8.09 9.05
7/12/2021 5:45:00 PM 20.54 68.972 0.085 6.97 7.86 8.91
7/12/2021 6:00:00 PM 20.61 69.098 0.082 6.97 58.04 8.78
7/12/2021 6:15:00 PM 20.77 69.386 0.08 6.99 314.91 8.68
7/12/2021 6:30:00 PM 21.09 69.962 0.093 7.44 422.94 8.54
7/12/2021 6:45:00 PM 20.76 69.368 0.067 6.67 1251.15 8.53
7/12/2021 7:00:00 PM 20.72 69.296 0.07 6.72 1320.98 8.62
7/12/2021 7:15:00 PM 20.38 68.684 0.061 6.58 1223.25 8.66
7/12/2021 7:30:00 PM 20.21 68.378 0.062 6.61 859.32 8.64
7/12/2021 7:45:00 PM 20.17 68.306 0.061 6.6 597.59 8.57
7/12/2021 8:00:00 PM 20.19 68.342 0.059 6.64 565.77 8.53
7/12/2021 8:15:00 PM 20.16 68.288 0.057 6.56 513.03 8.44
7/12/2021 8:30:00 PM 20.13 68.234 0.054 6.5 559.65 8.4
7/12/2021 8:45:00 PM 20.14 68.252 0.055 6.54 434.78 8.39
7/12/2021 9:00:00 PM 20.12 68.216 0.057 6.54 374.67 8.37
7/12/2021 9:15:00 PM 20.1 68.18 0.058 6.49 302.66 8.34
7/12/2021 9:30:00 PM 20.07 68.126 0.06 6.49 257.23 8.31
7/12/2021 9:45:00 PM 20.02 68.036 0.06 6.51 224.12 8.31
7/12/2021 10:00:00 PM 19.97 67.946 0.06 6.48 185.07 8.3
7/12/2021 10:15:00 PM 19.92 67.856 0.061 6.48 173.59 8.29
7/12/2021 10:30:00 PM 19.86 67.748 0.062 6.49 149.07 8.28
7/12/2021 10:45:00 PM 19.8 67.64 0.062 6.48 158.75 8.28
7/12/2021 11:00:00 PM 19.75 67.55 0.062 6.48 122.77 8.27
7/12/2021 11:15:00 PM 19.7 67.46 0.063 6.51 123.78 8.27
7/12/2021 11:30:00 PM 19.66 67.388 0.063 6.48 115.6 8.28
7/12/2021 11:45:00 PM 19.63 67.334 0.064 6.48 99.41 8.29
7/13/2021 12:00:00 AM 19.59 67.262 0.065 6.49 98.61 8.3
7/13/2021 12:15:00 AM 19.56 67.208 0.064 6.51 94.83 8.32
7/13/2021 12:30:00 AM 19.53 67.154 0.064 6.5 82.53 8.33
7/13/2021 12:45:00 AM 19.49 67.082 0.064 6.51 79.96 8.36
7/13/2021 1:00:00 AM 19.46 67.028 0.064 6.53 76.08 8.39
7/13/2021 1:15:00 AM 19.42 66.956 0.064 6.55 79.96 8.42
7/13/2021 1:30:00 AM 19.4 66.92 0.064 6.57 77.06 8.44
7/13/2021 1:45:00 AM 19.37 66.866 0.064 6.6 71.59 8.44
7/13/2021 2:00:00 AM 19.32 66.776 0.063 6.56 81.73 8.45
7/13/2021 2:15:00 AM 19.29 66.722 0.062 6.54 80.97 8.46
7/13/2021 2:30:00 AM 19.25 66.65 0.061 6.54 79.52 8.47
7/13/2021 2:45:00 AM 19.21 66.578 0.06 6.54 76.28 8.48
7/13/2021 3:00:00 AM 19.16 66.488 0.061 6.54 75.45 8.48
7/13/2021 3:15:00 AM 19.12 66.416 0.062 6.52 103.29 8.47
7/13/2021 3:30:00 AM 19.09 66.362 0.062 6.54 79.98 8.47
7/13/2021 3:45:00 AM 19.05 66.29 0.063 6.57 65.59 8.46
7/13/2021 4:00:00 AM 19.01 66.218 0.064 6.53 69.62 8.45
7/13/2021 4:15:00 AM 18.98 66.164 0.064 6.56 61.83 8.45
7/13/2021 4:30:00 AM 18.95 66.11 0.065 6.58 60.35 8.45
7/13/2021 4:45:00 AM 18.92 66.056 0.065 6.57 55.84 8.45
7/13/2021 5:00:00 AM 18.9 66.02 0.066 6.55 55.62 8.45
7/13/2021 5:15:00 AM 18.87 65.966 0.066 6.58 50.66 8.46
7/13/2021 5:30:00 AM 18.85 65.93 0.066 6.55 51.43 8.46
7/13/2021 5:45:00 AM 18.83 65.894 0.066 6.51 49.84 8.47
7/13/2021 6:00:00 AM 18.8 65.84 0.067 6.53 44.39 8.47
7/13/2021 6:15:00 AM 18.79 65.82201 0.067 6.54 48.12 8.48
7/13/2021 6:30:00 AM 18.77 65.786 0.067 6.57 46.36 8.48
7/13/2021 6:45:00 AM 18.76 65.768 0.066 6.55 51.67 8.49
7/13/2021 7:00:00 AM 18.74 65.732 0.067 6.56 43.77 8.5
7/13/2021 7:15:00 AM 18.74 65.732 0.067 6.54 35.88 8.51
7/13/2021 7:30:00 AM 18.73 65.714 0.067 6.54 48.58 8.52
7/13/2021 7:45:00 AM 18.73 65.714 0.068 6.55 42.22 8.53
7/13/2021 8:00:00 AM 18.73 65.714 0.068 6.59 38.82 8.54
7/13/2021 8:15:00 AM 18.74 65.732 0.068 6.56 44.96 8.55
7/13/2021 8:30:00 AM 18.76 65.768 0.068 6.57 40.12 8.55
7/13/2021 8:45:00 AM 18.77 65.786 0.068 6.58 36.13 8.56
7/13/2021 9:00:00 AM 18.79 65.82201 0.068 6.59 36.99 8.57
7/13/2021 9:15:00 AM 18.83 65.894 0.069 6.62 35.54 8.58
7/13/2021 9:30:00 AM 18.89 66.002 0.068 6.64 33.5 8.59
7/13/2021 9:45:00 AM 18.95 66.11 0.069 6.62 31.4 8.6
7/13/2021 10:00:00 AM 19.06 66.308 0.069 6.65 30.18 8.61
7/13/2021 10:15:00 AM 19.15 66.47 0.069 6.68 30.67 8.62
7/13/2021 10:30:00 AM 19.22 66.596 0.069 6.62 28.89 8.61
7/13/2021 10:45:00 AM 19.26 66.668 0.07 6.67 29.79 8.61
7/13/2021 11:00:00 AM 19.37 66.866 0.069 6.67 31.66 8.62
7/13/2021 11:15:00 AM 19.45 67.01 0.069 6.66 28.17 8.62
7/13/2021 11:30:00 AM 19.47 67.046 0.069 6.66 26.84 8.6
7/13/2021 11:45:00 AM 19.58 67.244 0.07 6.67 27.66 8.6
7/13/2021 12:00:00 PM 19.73 67.514 0.07 6.69 29.61 8.61
7/13/2021 12:15:00 PM 19.87 67.766 0.07 6.69 28.38 8.62
7/13/2021 12:30:00 PM 20.04 68.07201 0.07 6.7 29.36 8.61
7/13/2021 12:45:00 PM 20.16 68.288 0.07 6.69 24.23 8.61
7/13/2021 1:00:00 PM 20.26 68.468 0.07 6.69 24.02 8.6
7/13/2021 1:15:00 PM 20.31 68.558 0.07 6.7 23.21 8.58
7/13/2021 1:30:00 PM 20.53 68.954 0.07 6.75 24.96 8.58
7/13/2021 1:45:00 PM 20.71 69.278 0.07 6.77 25.52 8.59
7/13/2021 2:00:00 PM 20.85 69.53 0.071 6.72 21.56 8.57
7/13/2021 2:15:00 PM 20.98 69.764 0.071 6.76 21.88 8.56
7/13/2021 2:30:00 PM 21.07 69.926 0.07 6.73 22.32 8.54
7/13/2021 2:45:00 PM 21.15 70.07 0.071 6.74 22.24 8.52
7/13/2021 3:00:00 PM 21.25 70.25 0.071 6.75 21.95 8.51
7/13/2021 3:15:00 PM 21.32 70.376 0.071 6.74 21.68 8.48
7/13/2021 3:30:00 PM 21.4 70.52 0.071 6.73 20.66 8.47
7/13/2021 3:45:00 PM 21.5 70.7 0.071 6.73 18.81 8.44
7/13/2021 4:00:00 PM 21.61 70.898 0.071 6.76 19.56 8.43
7/13/2021 4:15:00 PM 21.69 71.042 0.072 6.74 23.48 8.4
7/13/2021 4:30:00 PM 21.77 71.186 0.072 6.74 19.7 8.37
7/13/2021 4:45:00 PM 21.79 71.222 0.072 6.73 17.04 8.35
7/13/2021 5:00:00 PM 21.79 71.222 0.072 6.71 19.29 8.32
7/13/2021 5:15:00 PM 21.81 71.258 0.072 6.71 20.79 8.3
7/13/2021 5:30:00 PM 21.84 71.312 0.072 6.72 20.91 8.28
7/13/2021 5:45:00 PM 21.85 71.33 0.072 6.71 18.06 8.26
7/13/2021 6:00:00 PM 21.84 71.312 0.073 6.69 19.06 8.23
7/13/2021 6:15:00 PM 21.8 71.24 0.073 6.7 17.84 8.21
7/13/2021 6:30:00 PM 21.76 71.168 0.073 6.67 20.58 8.19
7/13/2021 6:45:00 PM 21.71 71.078 0.073 6.68 16.06 8.19
7/13/2021 7:00:00 PM 21.65 70.97 0.073 6.67 18.11 8.16
7/13/2021 7:15:00 PM 21.58 70.844 0.073 6.66 17.91 8.15
7/13/2021 7:30:00 PM 21.52 70.736 0.073 6.65 16.27 8.13
7/13/2021 7:45:00 PM 21.46 70.628 0.074 6.67 16.95 8.12
7/13/2021 8:00:00 PM 21.4 70.52 0.074 6.64 20.65 8.11
7/13/2021 8:15:00 PM 21.34 70.412 0.074 6.68 18.72 8.1
7/13/2021 8:30:00 PM 21.27 70.286 0.074 6.64 15.62 8.08
7/13/2021 8:45:00 PM 21.19 70.142 0.074 6.63 18.16 8.08
7/13/2021 9:00:00 PM 21.11 69.998 0.074 6.64 18.84 8.07
7/13/2021 9:15:00 PM 21.03 69.854 0.074 6.62 16.49 8.05
7/13/2021 9:30:00 PM 20.95 69.71 0.074 6.63 15.5 8.07
7/13/2021 9:45:00 PM 20.87 69.566 0.075 6.64 18.03 8.07
7/13/2021 10:00:00 PM 20.8 69.44 0.075 6.63 18.93 8.07
7/13/2021 10:15:00 PM 20.72 69.296 0.075 6.63 20.3 8.1
7/13/2021 10:30:00 PM 20.63 69.134 0.075 6.63 22.9 8.11
7/13/2021 10:45:00 PM 20.54 68.972 0.077 6.62 18.68 8.1
7/13/2021 11:00:00 PM 20.45 68.81 0.077 6.62 18.34 8.11
7/13/2021 11:15:00 PM 20.36 68.648 0.077 6.62 19.18 8.12
7/13/2021 11:30:00 PM 20.23 68.414 0.078 6.62 20.58 8.16
7/13/2021 11:45:00 PM 20.09 68.162 0.078 6.62 23.01 8.21
7/14/2021 12:00:00 AM 19.98 67.964 0.079 6.65 24.51 8.24
7/14/2021 12:15:00 AM 19.91 67.838 0.079 6.66 23.96 8.26
7/14/2021 12:30:00 AM 19.85 67.73 0.077 6.69 24.59 8.28
7/14/2021 12:45:00 AM 19.78 67.604 0.077 6.66 22.78 8.3
7/14/2021 1:00:00 AM 19.72 67.496 0.077 6.67 22.77 8.32
7/14/2021 1:15:00 AM 19.65 67.37 0.077 6.67 23.12 8.33
7/14/2021 1:30:00 AM 19.59 67.262 0.076 6.69 24.31 8.35
7/14/2021 1:45:00 AM 19.53 67.154 0.076 6.69 24.66 8.36
7/14/2021 2:00:00 AM 19.47 67.046 0.077 6.68 28.38 8.38
7/14/2021 2:15:00 AM 19.41 66.938 0.076 6.72 29.26 8.39
7/14/2021 2:30:00 AM 19.36 66.848 0.076 6.68 24.33 8.4
7/14/2021 2:45:00 AM 19.31 66.758 0.076 6.67 24.66 8.41
7/14/2021 3:00:00 AM 19.26 66.668 0.076 6.67 23.96 8.41
7/14/2021 3:15:00 AM 19.21 66.578 0.076 6.71 26.79 8.42
7/14/2021 3:30:00 AM 19.17 66.506 0.075 6.68 22.28 8.42
7/14/2021 3:45:00 AM 19.13 66.434 0.075 6.67 23.54 8.43
7/14/2021 4:00:00 AM 19.1 66.38 0.076 6.67 21.83 8.44
7/14/2021 4:15:00 AM 19.06 66.308 0.075 6.68 22.24 8.45
7/14/2021 4:30:00 AM 19.02 66.236 0.075 6.68 20.53 8.45
7/14/2021 4:45:00 AM 18.99 66.182 0.075 6.68 20.62 8.45
7/14/2021 5:00:00 AM 18.95 66.11 0.075 6.66 17.79 8.45
7/14/2021 5:15:00 AM 18.92 66.056 0.076 6.67 20.07 8.46
7/14/2021 5:30:00 AM 18.89 66.002 0.075 6.7 21.45 8.46
7/14/2021 5:45:00 AM 18.85 65.93 0.075 6.67 21.76 8.46
7/14/2021 6:00:00 AM 18.82 65.876 0.075 6.7 18.65 8.47
7/14/2021 6:15:00 AM 18.79 65.82201 0.075 6.67 18.87 8.47
7/14/2021 6:30:00 AM 18.76 65.768 0.075 6.67 20.21 8.49
7/14/2021 6:45:00 AM 18.74 65.732 0.075 6.7 18.76 8.49
7/14/2021 7:00:00 AM 18.73 65.714 0.075 6.67 18.66 8.5
7/14/2021 7:15:00 AM 18.71 65.67799 0.076 6.66 15.89 8.52
7/14/2021 7:30:00 AM 18.7 65.66 0.075 6.68 19.65 8.53
7/14/2021 7:45:00 AM 18.69 65.642 0.076 6.66 13.4 8.53
7/14/2021 8:00:00 AM 18.69 65.642 0.075 6.67 18.35 8.56
7/14/2021 8:15:00 AM 18.69 65.642 0.076 6.67 19.86 8.57
7/14/2021 8:30:00 AM 18.72 65.696 0.076 6.7 16.74 8.59
7/14/2021 8:45:00 AM 18.76 65.768 0.076 6.73 18.11 8.61
7/14/2021 9:00:00 AM 18.8 65.84 0.076 6.7 17.03 8.62
7/14/2021 9:15:00 AM 18.88 65.984 0.076 6.76 17.4 8.64
7/14/2021 9:30:00 AM 18.94 66.092 0.076 6.72 16.47 8.66
7/14/2021 9:45:00 AM 19.03 66.254 0.076 6.74 14.29 8.68
7/14/2021 10:00:00 AM 19.07 66.326 0.076 6.73 14.44 8.69
7/14/2021 10:15:00 AM 19.17 66.506 0.076 6.75 17.9 8.72
7/14/2021 10:30:00 AM 19.26 66.668 0.076 6.75 16.73 8.73
7/14/2021 10:45:00 AM 19.38 66.884 0.076 6.76 17.46 8.74
7/14/2021 11:00:00 AM 19.48 67.064 0.076 6.76 18.53 8.75
7/14/2021 11:15:00 AM 19.61 67.298 0.076 6.79 18.01 8.76
7/14/2021 11:30:00 AM 19.68 67.424 0.076 6.78 17.76 8.76
7/14/2021 11:45:00 AM 19.8 67.64 0.076 6.78 17.67 8.78
7/14/2021 12:00:00 PM 19.96 67.92799 0.076 6.81 16.65 8.78
7/14/2021 12:15:00 PM 20.11 68.198 0.076 6.85 16.39 8.78
7/14/2021 12:30:00 PM 20.27 68.486 0.076 6.82 16.85 8.77
7/14/2021 12:45:00 PM 20.35 68.63 0.076 6.8 17.12 8.76
7/14/2021 1:00:00 PM 20.52 68.936 0.076 6.83 16.63 8.77
7/14/2021 1:15:00 PM 20.63 69.134 0.076 6.83 14.92 8.76
7/14/2021 1:30:00 PM 20.82 69.476 0.076 6.84 17.23 8.75
7/14/2021 1:45:00 PM 20.9 69.62 0.076 6.81 17.03 8.71
7/14/2021 2:00:00 PM 21.11 69.998 0.076 6.85 16.92 8.71
7/14/2021 2:15:00 PM 21.41 70.538 0.076 6.87 16.26 8.7
7/14/2021 2:30:00 PM 21.56 70.808 0.076 6.84 16.32 8.67
7/14/2021 2:45:00 PM 21.63 70.934 0.076 6.84 16.66 8.63
7/14/2021 3:00:00 PM 21.75 71.15 0.076 6.83 15.62 8.62
7/14/2021 3:15:00 PM 21.75 71.15 0.076 6.81 16.98 8.52
7/14/2021 3:30:00 PM 21.68 71.024 0.076 6.79 25.4 8.47
7/14/2021 3:45:00 PM 21.73 71.114 0.077 6.81 39.81 8.49
7/14/2021 4:00:00 PM 21.84 71.312 0.077 6.84 16.1 8.5
7/14/2021 4:15:00 PM 21.88 71.384 0.078 6.81 9.73 8.46
7/14/2021 4:30:00 PM 21.82 71.276 0.079 6.79 16.86 8.4
7/14/2021 4:45:00 PM 21.69 71.042 0.079 6.76 16.95 8.37
7/14/2021 5:00:00 PM 21.57 70.826 0.079 6.77 15.95 8.36
7/14/2021 5:15:00 PM 21.49 70.682 0.08 6.77 17.09 8.36
7/14/2021 5:30:00 PM 21.42 70.556 0.081 6.78 17.39 8.36
7/14/2021 5:45:00 PM 21.36 70.448 0.081 6.79 17.06 8.38
7/14/2021 6:00:00 PM 21.32 70.376 0.081 6.79 16.63 8.38
7/14/2021 6:15:00 PM 21.29 70.32201 0.081 6.78 14.82 8.37
7/14/2021 6:30:00 PM 21.23 70.214 0.081 6.76 15.47 8.35
7/14/2021 6:45:00 PM 21.17 70.106 0.08 6.79 16.12 8.32
7/14/2021 7:00:00 PM 21.11 69.998 0.081 6.75 16.98 8.31
7/14/2021 7:15:00 PM 21.05 69.89 0.081 6.76 15.9 8.3
7/14/2021 7:30:00 PM 20.99 69.782 0.081 6.75 15.49 8.28
7/14/2021 7:45:00 PM 20.93 69.674 0.081 6.73 16.53 8.28
7/14/2021 8:00:00 PM 20.88 69.584 0.081 6.73 15.27 8.27
7/14/2021 8:15:00 PM 20.82 69.476 0.081 6.73 15.29 8.25
7/14/2021 8:30:00 PM 20.76 69.368 0.081 6.76 15.12 8.24
7/14/2021 8:45:00 PM 20.69 69.242 0.081 6.71 13.51 8.22
7/14/2021 9:00:00 PM 20.62 69.116 0.081 6.71 15 8.21
7/14/2021 9:15:00 PM 20.54 68.972 0.081 6.73 15.16 8.2
7/14/2021 9:30:00 PM 20.46 68.828 0.081 6.7 14.38 8.2
7/14/2021 9:45:00 PM 20.39 68.702 0.081 6.7 13.68 8.19
7/14/2021 10:00:00 PM 20.31 68.558 0.082 6.69 15.72 8.19
7/14/2021 10:15:00 PM 20.24 68.432 0.081 6.71 17.99 8.19
7/14/2021 10:30:00 PM 20.16 68.288 0.081 6.69 15.65 8.19
7/14/2021 10:45:00 PM 20.09 68.162 0.082 6.71 14.27 8.18
7/14/2021 11:00:00 PM 20.02 68.036 0.082 6.72 15.03 8.18
7/14/2021 11:15:00 PM 19.95 67.91 0.082 6.71 15.52 8.19
7/14/2021 11:30:00 PM 19.89 67.802 0.082 6.68 15.73 8.19
7/14/2021 11:45:00 PM 19.83 67.694 0.082 6.67 14.08 8.2
7/15/2021 12:00:00 AM 19.77 67.586 0.081 6.67 15.17 8.21
7/15/2021 12:15:00 AM 19.7 67.46 0.082 6.68 15.61 8.21
7/15/2021 12:30:00 AM 19.64 67.352 0.082 6.67 14.28 8.22
7/15/2021 12:45:00 AM 19.57 67.226 0.082 6.66 14.32 8.23
7/15/2021 1:00:00 AM 19.51 67.118 0.082 6.66 14.48 8.23
7/15/2021 1:15:00 AM 19.44 66.992 0.082 6.69 13.63 8.24
7/15/2021 1:30:00 AM 19.38 66.884 0.082 6.66 15.2 8.25
7/15/2021 1:45:00 AM 19.32 66.776 0.082 6.7 14.38 8.26
7/15/2021 2:00:00 AM 19.26 66.668 0.082 6.65 12.91 8.27
7/15/2021 2:15:00 AM 19.2 66.56 0.082 6.7 13.68 8.28
7/15/2021 2:30:00 AM 19.14 66.452 0.083 6.67 13.25 8.3
7/15/2021 2:45:00 AM 19.09 66.362 0.083 6.66 12.4 8.31
7/15/2021 3:00:00 AM 19.03 66.254 0.082 6.67 11.89 8.31
7/15/2021 3:15:00 AM 18.97 66.146 0.083 6.66 12.49 8.32
7/15/2021 3:30:00 AM 18.92 66.056 0.082 6.67 13.28 8.34
7/15/2021 3:45:00 AM 18.87 65.966 0.083 6.7 12.07 8.35
7/15/2021 4:00:00 AM 18.82 65.876 0.082 6.67 11.84 8.36
7/15/2021 4:15:00 AM 18.76 65.768 0.083 6.67 13.16 8.37
7/15/2021 4:30:00 AM 18.71 65.67799 0.083 6.67 12.53 8.38
7/15/2021 4:45:00 AM 18.66 65.588 0.083 6.66 12.91 8.39
7/15/2021 5:00:00 AM 18.62 65.516 0.083 6.68 11.91 8.39
7/15/2021 5:15:00 AM 18.57 65.426 0.083 6.66 12.5 8.4
7/15/2021 5:30:00 AM 18.52 65.336 0.083 6.67 12.98 8.4
7/15/2021 5:45:00 AM 18.48 65.264 0.083 6.67 12.88 8.42
7/15/2021 6:00:00 AM 18.44 65.192 0.083 6.66 13.38 8.42
7/15/2021 6:15:00 AM 18.39 65.102 0.083 6.66 13.58 8.44
7/15/2021 6:30:00 AM 18.36 65.048 0.083 6.66 13.41 8.46
7/15/2021 6:45:00 AM 18.32 64.976 0.083 6.71 12.87 8.47
7/15/2021 7:00:00 AM 18.3 64.94 0.083 6.72 13.62 8.5
7/15/2021 7:15:00 AM 18.28 64.904 0.083 6.69 13.13 8.52
7/15/2021 7:30:00 AM 18.26 64.868 0.083 6.7 12.48 8.55
7/15/2021 7:45:00 AM 18.25 64.85 0.083 6.7 12.18 8.57
7/15/2021 8:00:00 AM 18.25 64.85 0.083 6.71 11.6 8.6
7/15/2021 8:15:00 AM 18.26 64.868 0.083 6.71 11.26 8.62
7/15/2021 8:30:00 AM 18.28 64.904 0.083 6.72 11.27 8.65
7/15/2021 8:45:00 AM 18.32 64.976 0.083 6.73 26.78 8.68
7/15/2021 9:00:00 AM 18.37 65.066 0.083 6.74 12.22 8.71
7/15/2021 9:15:00 AM 18.44 65.192 0.083 6.77 10.73 8.74
7/15/2021 9:30:00 AM 18.53 65.354 0.083 6.77 10.73 8.78
7/15/2021 9:45:00 AM 18.62 65.516 0.083 6.78 11.06 8.81
7/15/2021 10:00:00 AM 18.73 65.714 0.083 6.79 11.67 8.84
7/15/2021 10:15:00 AM 18.85 65.93 0.084 6.8 11.35 8.85
7/15/2021 10:30:00 AM 18.99 66.182 0.084 6.84 11.17 8.88
7/15/2021 10:45:00 AM 19.14 66.452 0.084 6.83 10.66 8.9
7/15/2021 11:00:00 AM 19.28 66.704 0.084 6.86 9.94 8.91
7/15/2021 11:15:00 AM 19.47 67.046 0.084 6.86 10.07 8.95
7/15/2021 11:30:00 AM 19.68 67.424 0.084 6.87 9.91 8.96
7/15/2021 11:45:00 AM 19.82 67.676 0.084 6.88 9.94 8.95
7/15/2021 12:00:00 PM 19.79 67.622 0.084 6.83 9.89 8.88
7/15/2021 12:15:00 PM 19.87 67.766 0.083 6.85 10.02 8.9
7/15/2021 12:30:00 PM 20.06 68.108 0.083 6.87 9.84 8.92
7/15/2021 12:45:00 PM 20.24 68.432 0.084 6.88 9.67 8.93
7/15/2021 1:00:00 PM 20.51 68.918 0.083 6.91 10.44 8.96
7/15/2021 1:15:00 PM 20.71 69.278 0.083 6.9 9.37 8.93
7/15/2021 1:30:00 PM 20.83 69.494 0.084 6.89 10.15 8.88
7/15/2021 1:45:00 PM 21.01 69.818 0.083 6.93 8.73 8.93
7/15/2021 2:00:00 PM 21.19 70.142 0.084 6.93 9.14 8.92
7/15/2021 2:15:00 PM 21.47 70.646 0.073 6.95 9.64 8.92
7/15/2021 2:30:00 PM 21.6 70.88 0.084 6.92 9.42 8.89
7/15/2021 2:45:00 PM 21.79 71.222 0.073 6.98 7.03 8.89
7/15/2021 3:00:00 PM 21.93 71.474 0.083 6.94 9.2 8.85
7/15/2021 3:15:00 PM 22.08 71.744 0.084 6.93 9.87 8.82
7/15/2021 3:30:00 PM 22.21 71.978 0.083 6.95 9.15 8.79
7/15/2021 3:45:00 PM 22.36 72.248 0.084 6.96 9.39 8.77
7/15/2021 4:00:00 PM 22.45 72.41 0.083 6.94 8.61 8.74
7/15/2021 4:15:00 PM 22.49 72.482 0.081 6.93 6.86 8.7
7/15/2021 4:30:00 PM 22.57 72.626 0.088 6.94 9.27 8.68
7/15/2021 4:45:00 PM 22.59 72.662 0.084 6.9 9.23 8.64
7/15/2021 5:00:00 PM 22.6 72.68 0.084 6.91 9.61 8.62
7/15/2021 5:15:00 PM 22.59 72.662 0.084 6.89 9.16 8.58
7/15/2021 5:30:00 PM 22.57 72.626 0.083 6.9 8.75 8.54
7/15/2021 5:45:00 PM 22.56 72.608 0.085 6.9 9.02 8.51
7/15/2021 6:00:00 PM 22.55 72.59 0.079 6.87 8.83 8.47
7/15/2021 6:15:00 PM 22.51 72.518 0.084 6.86 9.09 8.43
7/15/2021 6:30:00 PM 22.45 72.41 0.089 6.85 8.67 8.4
7/15/2021 6:45:00 PM 22.37 72.266 0.083 6.83 9.39 8.35
7/15/2021 7:00:00 PM 22.3 72.14 0.085 6.82 8.91 8.32
7/15/2021 7:15:00 PM 22.22 71.996 0.084 6.81 9.15 8.27
7/15/2021 7:30:00 PM 22.14 71.852 0.085 6.8 8.89 8.22
7/15/2021 7:45:00 PM 22.08 71.744 0.074 6.79 8.52 8.19
7/15/2021 8:00:00 PM 22.01 71.618 0.085 6.78 8.66 8.15
7/15/2021 8:15:00 PM 21.95 71.51 0.085 6.77 9.51 8.12
7/15/2021 8:30:00 PM 21.88 71.384 0.086 6.76 9.77 8.09
7/15/2021 8:45:00 PM 21.81 71.258 0.086 6.74 9.52 8.05
7/15/2021 9:00:00 PM 21.72 71.096 0.086 6.75 10.3 8.02
7/15/2021 9:15:00 PM 21.64 70.952 0.085 6.73 11.66 7.99
7/15/2021 9:30:00 PM 21.55 70.79 0.086 6.72 9.64 7.97
7/15/2021 9:45:00 PM 21.47 70.646 0.085 6.75 9.68 7.96
7/15/2021 10:00:00 PM 21.38 70.484 0.086 6.72 9.66 7.95
7/15/2021 10:15:00 PM 21.29 70.32201 0.086 6.71 9.91 7.94
7/15/2021 10:30:00 PM 21.2 70.16 0.086 6.71 10.47 7.92
7/15/2021 10:45:00 PM 21.1 69.98 0.086 6.7 10.12 7.91
7/15/2021 11:00:00 PM 21.01 69.818 0.087 6.69 9.45 7.92
7/15/2021 11:15:00 PM 20.92 69.656 0.087 6.69 10.04 7.92
7/15/2021 11:30:00 PM 20.83 69.494 0.088 6.68 9.87 7.91
7/15/2021 11:45:00 PM 20.74 69.332 0.087 6.69 9.25 7.91
7/16/2021 12:00:00 AM 20.65 69.17 0.088 6.69 9.66 7.91
7/16/2021 12:15:00 AM 20.57 69.026 0.087 6.68 9.33 7.92
7/16/2021 12:30:00 AM 20.49 68.882 0.087 6.69 9.87 7.93
7/16/2021 12:45:00 AM 20.41 68.738 0.088 6.68 9.38 7.94
7/16/2021 1:00:00 AM 20.33 68.594 0.088 6.67 9.34 7.94
7/16/2021 1:15:00 AM 20.26 68.468 0.088 6.68 9.39 7.95
7/16/2021 1:30:00 AM 20.19 68.342 0.087 6.67 9.55 7.96
7/16/2021 1:45:00 AM 20.11 68.198 0.088 6.68 9.57 7.97
7/16/2021 2:00:00 AM 20.04 68.07201 0.087 6.68 8.74 7.97
7/16/2021 2:15:00 AM 19.97 67.946 0.089 6.68 8.48 7.98
7/16/2021 2:30:00 AM 19.91 67.838 0.089 6.69 8.99 7.99
7/16/2021 2:45:00 AM 19.84 67.712 0.089 6.68 8.65 8
7/16/2021 3:00:00 AM 19.78 67.604 0.089 6.68 9.13 8.01
7/16/2021 3:15:00 AM 19.73 67.514 0.089 6.68 8.41 8.02
7/16/2021 3:30:00 AM 19.67 67.406 0.088 6.69 8.92 8.03
7/16/2021 3:45:00 AM 19.62 67.316 0.09 6.69 8.77 8.03
7/16/2021 4:00:00 AM 19.56 67.208 0.09 6.7 8.89 8.05
7/16/2021 4:15:00 AM 19.51 67.118 0.089 6.71 9.03 8.06
7/16/2021 4:30:00 AM 19.46 67.028 0.089 6.68 9.04 8.07
7/16/2021 4:45:00 AM 19.41 66.938 0.09 6.67 9.14 8.07
7/16/2021 5:00:00 AM 19.37 66.866 0.081 6.69 9.3 8.09
7/16/2021 5:15:00 AM 19.33 66.794 0.089 6.69 9.22 8.09
7/16/2021 5:30:00 AM 19.3 66.74 0.089 6.71 8.78 8.1
7/16/2021 5:45:00 AM 19.26 66.668 0.09 6.7 9.1 8.11
7/16/2021 6:00:00 AM 19.23 66.614 0.09 6.7 8.94 8.12
7/16/2021 6:15:00 AM 19.19 66.542 0.078 6.72 8.74 8.14
7/16/2021 6:30:00 AM 19.16 66.488 0.09 6.75 8.68 8.16
7/16/2021 6:45:00 AM 19.12 66.416 0.089 6.72 8.93 8.18
7/16/2021 7:00:00 AM 19.09 66.362 0.089 6.71 10.18 8.2
7/16/2021 7:15:00 AM 19.07 66.326 0.09 6.76 8.57 8.23
7/16/2021 7:30:00 AM 19.06 66.308 0.09 6.73 8.32 8.27
7/16/2021 7:45:00 AM 19.05 66.29 0.09 6.77 8.65 8.3
7/16/2021 8:00:00 AM 19.05 66.29 0.089 6.75 8.23 8.33
7/16/2021 8:15:00 AM 19.06 66.308 0.089 6.79 8.47 8.37
7/16/2021 8:30:00 AM 19.09 66.362 0.089 6.79 7.96 8.41
7/16/2021 8:45:00 AM 19.12 66.416 0.09 6.78 7.72 8.45
7/16/2021 9:00:00 AM 19.19 66.542 0.09 6.81 8.13 8.51
7/16/2021 9:15:00 AM 19.26 66.668 0.091 6.81 7.75 8.58
7/16/2021 9:30:00 AM 19.3 66.74 0.091 6.82 7.66 8.62
7/16/2021 9:45:00 AM 19.4 66.92 0.09 6.84 7.27 8.68
7/16/2021 10:00:00 AM 19.55 67.19 0.09 6.87 7.31 8.76
7/16/2021 10:15:00 AM 19.69 67.442 0.09 6.88 7.54